Radiosonde details



Informationen :

Serial : V3010052
Type : Vaisala RS41-SGP
Date of production : 24.07.2023
Frequency : 403.000MHz
Launchsite : Galeao
Nearest town : Saquarema, BR (12.4km)

Altitude (Max) : 27944m at 2026-08-31 12:50:24
Speed (Max) : 154km/h at altitude 12960m

Average speed : 46km/h
Average ascent rate : 6m/s
Average descent rate : -8m/s
Ascent rate (Max) : 11.8m/s
Descent rate (Max): -36.2m/s

First frame :
PU1XMG-16 at 2026-08-31 11:33:06 at altitude 284m (OG: 242m)
Last frame :
PU1XMG-16 at 2026-08-31 13:38:58 at altitude 5267m (OG: 5225m)

Flighttime : 2h5m52s
Ascent time : 1h17m18s
Descent time : 48m34s
Uptime : -
Killtimer : 7h42m

Distance (Straight line distance): 81km

Distance (Route):


Frames : 1148


Measurement :

Temperature : -4.5°C
Humidity : 76.0%
Pressure : 540.8hPa


Vertical profile (SkewT) :


Elevation profile :



Receiving stations :


Receiver Frames First received Last received
PU1XMG-16 1148 2026-08-31 11:33:06 2026-08-31 13:38:58

Share per receiver :



All frames :


Receiver Date Latitude Longitude Direction Speed Altitude Climb Temperature Humidity Pressure Voltage Killtimer Uptime BKT XDATA
PU1XMG-162026-08-31 13:38:58-22.78716-42.4626989°37km/h5267m-4.2m/s-4.5°C76.0%540.8hPa0V07:42:0000:00:0000:00:00
PU1XMG-162026-08-31 13:38:46-22.78723-42.4638588°33km/h5318m-4.2m/s-4.9°C77.1%537.3hPa0V07:42:0000:00:0000:00:00
PU1XMG-162026-08-31 13:38:41-22.78725-42.4643489°38km/h5339m-4.5m/s-5.1°C77.6%535.9hPa0V07:42:0000:00:0000:00:00
PU1XMG-162026-08-31 13:38:35-22.78729-42.4649787°38km/h5364m-4.3m/s-5.4°C79.2%534.2hPa0V07:42:0000:00:0000:00:00
PU1XMG-162026-08-31 13:38:28-22.78735-42.4658085°38km/h5397m-4.1m/s-5.6°C79.3%532.0hPa0V07:42:0000:00:0000:00:00
PU1XMG-162026-08-31 13:38:22-22.78740-42.4663083°35km/h5417m-4.2m/s-5.6°C75.4%530.6hPa0V00:00:0000:00:0000:00:00
PU1XMG-162026-08-31 13:38:18-22.78746-42.4667883°37km/h5436m-4.1m/s-5.5°C63.5%529.3hPa0V00:00:0000:00:0000:00:00
PU1XMG-162026-08-31 13:38:11-22.78753-42.4673984°37km/h5460m-4.2m/s-5.3°C45.0%527.7hPa0V00:00:0000:00:0000:00:00
PU1XMG-162026-08-31 13:38:05-22.78758-42.4679686°35km/h5484m-4.4m/s-5.5°C43.3%526.1hPa0V00:00:0000:00:0000:00:00
PU1XMG-162026-08-31 13:37:59-22.78763-42.4685586°38km/h5508m-4.1m/s-5.6°C42.1%524.5hPa0V00:00:0000:00:0000:00:00
PU1XMG-162026-08-31 13:37:55-22.78768-42.4690885°40km/h5528m-4.2m/s-5.8°C40.8%523.2hPa0V00:00:0000:00:0000:00:00
PU1XMG-162026-08-31 13:37:49-22.78774-42.4696484°40km/h5549m-4.5m/s-5.7°C38.2%521.8hPa0V00:00:0000:00:0000:00:00
PU1XMG-162026-08-31 13:37:43-22.78781-42.4702785°38km/h5574m-4.2m/s-5.9°C38.8%520.1hPa0V00:00:0000:00:0000:00:00
PU1XMG-162026-08-31 13:37:38-22.78785-42.4707988°38km/h5595m-4.1m/s-6.1°C39.3%518.7hPa0V00:00:0000:00:0000:00:00
PU1XMG-162026-08-31 13:37:32-22.78790-42.4714786°44km/h5619m-4.4m/s-6.2°C39.1%517.1hPa0V07:44:0000:00:0000:00:00
PU1XMG-162026-08-31 13:37:25-22.78795-42.4722788°40km/h5649m-4.1m/s-6.3°C35.5%515.2hPa0V07:44:0000:00:0000:00:00
PU1XMG-162026-08-31 13:37:20-22.78799-42.4728084°40km/h5669m-4.5m/s-6.5°C33.5%513.9hPa0V07:44:0000:00:0000:00:00
PU1XMG-162026-08-31 13:37:15-22.78807-42.4733681°42km/h5689m-4.1m/s-5.8°C16.4%512.6hPa0V07:44:0000:00:0000:00:00
PU1XMG-162026-08-31 13:37:08-22.78814-42.4741591°40km/h5719m-4.5m/s-5.6°C14.4%510.6hPa0V07:44:0000:00:0000:00:00
PU1XMG-162026-08-31 13:37:02-22.78816-42.4748288°42km/h5744m-4.4m/s-5.7°C14.9%509.0hPa0V07:44:0000:00:0000:00:00
PU1XMG-162026-08-31 13:36:57-22.78822-42.4753981°42km/h5765m-4.1m/s-5.9°C14.9%507.6hPa0V07:44:0000:00:0000:00:00
PU1XMG-162026-08-31 13:36:43-22.78837-42.4771888°42km/h5829m-4.2m/s-6.0°C16.7%503.5hPa0V07:44:0000:00:0000:00:00
PU1XMG-162026-08-31 13:36:16-22.78862-42.4803285°46km/h5942m-4.5m/s-6.8°C18.8%496.3hPa0V07:45:0000:00:0000:00:00
PU1XMG-162026-08-31 13:36:07-22.78872-42.4814687°44km/h5981m-4.4m/s-7.1°C21.6%493.8hPa0V07:45:0000:00:0000:00:00
PU1XMG-162026-08-31 13:36:00-22.78876-42.4822889°42km/h6012m-4.4m/s-7.4°C24.9%491.8hPa0V07:45:0000:00:0000:00:00
PU1XMG-162026-08-31 13:35:51-22.78875-42.4833494°44km/h6052m-4.7m/s-7.7°C21.8%489.3hPa0V07:45:0000:00:0000:00:00
PU1XMG-162026-08-31 13:35:46-22.78870-42.4839696°46km/h6074m-4.5m/s-7.6°C37.9%487.8hPa0V07:45:0000:00:0000:00:00
PU1XMG-162026-08-31 13:35:40-22.78865-42.4846696°42km/h6101m-4.9m/s-8.0°C70.4%486.2hPa0V07:45:0000:00:0000:00:00
PU1XMG-162026-08-31 13:35:35-22.78859-42.4852499°42km/h6125m-4.8m/s-8.3°C71.1%484.8hPa0V07:45:0000:00:0000:00:00
PU1XMG-162026-08-31 13:35:29-22.78849-42.48592102°40km/h6155m-5.1m/s-8.3°C71.5%483.0hPa0V07:45:0000:00:0000:00:00
PU1XMG-162026-08-31 13:35:23-22.78838-42.48654102°38km/h6184m-4.7m/s-8.5°C60.8%481.1hPa0V07:45:0000:00:0000:00:00
PU1XMG-162026-08-31 13:35:18-22.78828-42.48708101°42km/h6208m-5.0m/s-8.7°C60.7%479.7hPa0V07:45:0000:00:0000:00:00
PU1XMG-162026-08-31 13:35:12-22.78817-42.48773104°38km/h6236m-5.1m/s-8.6°C21.1%477.9hPa0V07:45:0000:00:0000:00:00
PU1XMG-162026-08-31 13:35:07-22.78805-42.48823105°38km/h6261m-4.8m/s-8.9°C20.9%476.4hPa0V07:45:0000:00:0000:00:00
PU1XMG-162026-08-31 13:35:01-22.78792-42.48887100°42km/h6290m-4.8m/s-9.0°C8.8%474.6hPa0V07:45:0000:00:0000:00:00
PU1XMG-162026-08-31 13:34:56-22.78785-42.4894598°42km/h6314m-5.2m/s-9.2°C8.6%473.1hPa0V07:46:0000:00:0000:00:00
PU1XMG-162026-08-31 13:34:50-22.78777-42.4901498°44km/h6342m-5.0m/s-9.5°C9.2%471.4hPa0V07:46:0000:00:0000:00:00
PU1XMG-162026-08-31 13:34:45-22.78773-42.4907391°44km/h6366m-4.9m/s-9.4°C11.1%469.9hPa0V07:46:0000:00:0000:00:00
PU1XMG-162026-08-31 13:34:40-22.78773-42.4913292°42km/h6388m-4.5m/s-9.6°C27.2%468.6hPa0V07:46:0000:00:0000:00:00
PU1XMG-162026-08-31 13:34:34-22.78771-42.4920393°46km/h6415m-4.7m/s-9.9°C46.9%466.9hPa0V07:46:0000:00:0000:00:00
PU1XMG-162026-08-31 13:34:29-22.78770-42.4926592°44km/h6439m-4.7m/s-9.8°C22.2%465.5hPa0V07:46:0000:00:0000:00:00
PU1XMG-162026-08-31 13:34:23-22.78767-42.4933694°44km/h6468m-4.8m/s-9.8°C18.2%463.8hPa0V07:46:0000:00:0000:00:00
PU1XMG-162026-08-31 13:34:17-22.78764-42.4941092°47km/h6495m-5.0m/s-9.9°C16.6%462.1hPa0V07:46:0000:00:0000:00:00
PU1XMG-162026-08-31 13:34:12-22.78763-42.4947593°47km/h6518m-4.7m/s-10.1°C17.3%460.7hPa0V07:46:0000:00:0000:00:00
PU1XMG-162026-08-31 13:34:07-22.78760-42.4954095°47km/h6541m-4.7m/s-10.3°C18.3%459.4hPa0V07:47:0000:00:0000:00:00
PU1XMG-162026-08-31 13:34:02-22.78756-42.4962094°49km/h6569m-4.7m/s-10.5°C25.8%457.7hPa0V07:47:0000:00:0000:00:00
PU1XMG-162026-08-31 13:33:56-22.78753-42.4968993°53km/h6593m-4.9m/s-10.8°C42.6%456.3hPa0V07:47:0000:00:0000:00:00
PU1XMG-162026-08-31 13:33:50-22.78749-42.4977794°53km/h6621m-4.9m/s-11.0°C47.7%454.7hPa0V07:47:0000:00:0000:00:00
PU1XMG-162026-08-31 13:33:44-22.78745-42.4986694°55km/h6648m-4.7m/s-11.1°C48.2%453.1hPa0V07:47:0000:00:0000:00:00
PU1XMG-162026-08-31 13:33:39-22.78741-42.4994295°55km/h6671m-4.9m/s-11.1°C38.7%451.7hPa0V07:47:0000:00:0000:00:00
PU1XMG-162026-08-31 13:33:33-22.78733-42.5003497°57km/h6699m-4.9m/s-11.3°C38.1%450.1hPa0V07:47:0000:00:0000:00:00
PU1XMG-162026-08-31 13:33:27-22.78724-42.5012498°57km/h6728m-4.7m/s-11.4°C36.2%448.3hPa0V07:47:0000:00:0000:00:00
PU1XMG-162026-08-31 13:33:22-22.78714-42.5020199°58km/h6752m-4.9m/s-11.5°C31.9%447.0hPa0V07:47:0000:00:0000:00:00
PU1XMG-162026-08-31 13:33:17-22.78705-42.5028198°58km/h6776m-4.7m/s-11.7°C28.9%445.5hPa0V07:48:0000:00:0000:00:00
PU1XMG-162026-08-31 13:33:11-22.78694-42.5037699°58km/h6804m-4.9m/s-11.9°C28.3%443.9hPa0V07:48:0000:00:0000:00:00
PU1XMG-162026-08-31 13:33:06-22.78684-42.5045599°58km/h6828m-5.0m/s-12.1°C28.4%442.6hPa0V07:48:0000:00:0000:00:00
PU1XMG-162026-08-31 13:33:00-22.78671-42.5055298°58km/h6857m-5.1m/s-12.4°C29.3%441.0hPa0V07:48:0000:00:0000:00:00
PU1XMG-162026-08-31 13:32:54-22.78660-42.5064598°57km/h6886m-5.0m/s-12.7°C30.1%439.3hPa0V07:48:0000:00:0000:00:00
PU1XMG-162026-08-31 13:32:48-22.78649-42.50736100°55km/h6915m-4.8m/s-12.9°C30.8%437.7hPa0V07:48:0000:00:0000:00:00
PU1XMG-162026-08-31 13:32:42-22.78636-42.50822100°53km/h6943m-4.8m/s-13.0°C30.2%436.1hPa0V07:48:0000:00:0000:00:00
PU1XMG-162026-08-31 13:32:37-22.78626-42.5089299°51km/h6967m-4.6m/s-13.1°C28.5%434.7hPa0V07:48:0000:00:0000:00:00
PU1XMG-162026-08-31 13:32:31-22.78614-42.50975100°51km/h6995m-4.6m/s-13.2°C27.0%433.1hPa0V07:48:0000:00:0000:00:00
PU1XMG-162026-08-31 13:32:26-22.78601-42.51056100°49km/h7022m-4.6m/s-13.4°C27.5%431.5hPa0V07:49:0000:00:0000:00:00
PU1XMG-162026-08-31 13:32:19-22.78590-42.51134101°49km/h7050m-4.5m/s-13.6°C26.5%429.9hPa0V07:49:0000:00:0000:00:00
PU1XMG-162026-08-31 13:32:14-22.78579-42.51199102°47km/h7073m-4.6m/s-13.8°C26.6%428.7hPa0V07:49:0000:00:0000:00:00
PU1XMG-162026-08-31 13:32:08-22.78568-42.51275100°46km/h7101m-4.7m/s-14.0°C26.1%427.1hPa0V07:49:0000:00:0000:00:00
PU1XMG-162026-08-31 13:32:02-22.78556-42.51347102°46km/h7128m-4.3m/s-14.2°C28.7%425.6hPa0V07:49:0000:00:0000:00:00
PU1XMG-162026-08-31 13:31:57-22.78543-42.51420101°46km/h7156m-4.6m/s-14.4°C33.9%424.1hPa0V07:49:0000:00:0000:00:00
PU1XMG-162026-08-31 13:31:51-22.78533-42.51492100°44km/h7183m-4.3m/s-14.6°C38.9%422.5hPa0V07:49:0000:00:0000:00:00
PU1XMG-162026-08-31 13:31:45-22.78522-42.51562100°46km/h7210m-4.5m/s-14.9°C42.7%421.0hPa0V07:49:0000:00:0000:00:00
PU1XMG-162026-08-31 13:31:39-22.78515-42.5162297°44km/h7232m-4.5m/s-15.1°C43.9%419.8hPa0V07:49:0000:00:0000:00:00
PU1XMG-162026-08-31 13:31:34-22.78508-42.51681100°42km/h7255m-4.5m/s-15.3°C49.8%418.5hPa0V07:50:0000:00:0000:00:00
PU1XMG-162026-08-31 13:31:09-22.78473-42.51965100°42km/h7364m-4.5m/s-16.0°C72.8%412.5hPa0V07:50:0000:00:0000:00:00
PU1XMG-162026-08-31 13:31:04-22.78462-42.52030102°38km/h7391m-4.4m/s-15.8°C71.2%411.0hPa0V07:50:0000:00:0000:00:00
PU1XMG-162026-08-31 13:30:57-22.78449-42.52094103°40km/h7417m-4.2m/s-15.8°C68.0%409.6hPa0V07:50:0000:00:0000:00:00
PU1XMG-162026-08-31 13:30:52-22.78439-42.52148103°40km/h7439m-4.7m/s-16.0°C67.3%408.4hPa0V07:50:0000:00:0000:00:00
PU1XMG-162026-08-31 13:30:48-22.78427-42.52203105°42km/h7462m-4.8m/s-16.1°C66.8%407.2hPa0V07:50:0000:00:0000:00:00
PU1XMG-162026-08-31 13:30:41-22.78410-42.52265111°38km/h7491m-5.1m/s-16.4°C67.6%405.6hPa0V00:00:0000:00:0000:00:00
PU1XMG-162026-08-31 13:30:35-22.78390-42.52325110°40km/h7521m-5.0m/s-16.7°C69.0%403.9hPa0V00:00:0000:00:0000:00:00
PU1XMG-162026-08-31 13:30:29-22.78370-42.52389108°42km/h7551m-4.8m/s-17.0°C70.2%402.4hPa0V00:00:0000:00:0000:00:00
PU1XMG-162026-08-31 13:30:23-22.78351-42.52453111°40km/h7580m-4.8m/s-17.2°C67.3%400.8hPa0V00:00:0000:00:0000:00:00
PU1XMG-162026-08-31 13:30:18-22.78331-42.52505115°42km/h7605m-4.9m/s-17.4°C68.9%399.5hPa0V00:00:0000:00:0000:00:00
PU1XMG-162026-08-31 13:30:12-22.78305-42.52568115°44km/h7633m-5.0m/s-17.6°C68.5%398.0hPa0V00:00:0000:00:0000:00:00
PU1XMG-162026-08-31 13:30:05-22.78272-42.52644117°42km/h7668m-5.1m/s-17.9°C66.1%396.1hPa0V00:00:0000:00:0000:00:00
PU1XMG-162026-08-31 13:30:01-22.78247-42.52696118°42km/h7694m-4.7m/s-18.0°C65.5%394.8hPa0V00:00:0000:00:0000:00:00
PU1XMG-162026-08-31 13:29:47-22.78182-42.52835116°44km/h7760m-5.2m/s-18.6°C67.0%391.4hPa0V07:51:0000:00:0000:00:00
PU1XMG-162026-08-31 13:29:42-22.78158-42.52888117°42km/h7784m-4.8m/s-18.9°C68.0%390.1hPa0V07:51:0000:00:0000:00:00
PU1XMG-162026-08-31 13:29:37-22.78134-42.52941119°44km/h7808m-4.8m/s-19.1°C68.9%388.8hPa0V07:51:0000:00:0000:00:00
PU1XMG-162026-08-31 13:29:31-22.78102-42.53004119°46km/h7836m-4.9m/s-19.4°C70.1%387.4hPa0V07:51:0000:00:0000:00:00
PU1XMG-162026-08-31 13:29:26-22.78076-42.53059115°46km/h7861m-4.6m/s-19.6°C71.3%386.1hPa0V07:51:0000:00:0000:00:00
PU1XMG-162026-08-31 13:29:20-22.78046-42.53127118°46km/h7890m-5.1m/s-19.8°C71.9%384.6hPa0V07:51:0000:00:0000:00:00
PU1XMG-162026-08-31 13:29:14-22.78014-42.53193118°46km/h7919m-4.7m/s-20.1°C72.5%383.1hPa0V07:51:0000:00:0000:00:00
PU1XMG-162026-08-31 13:29:09-22.77987-42.53251117°47km/h7942m-5.1m/s-20.3°C72.8%381.9hPa0V07:51:0000:00:0000:00:00
PU1XMG-162026-08-31 13:28:58-22.77926-42.53380119°47km/h7996m-5.0m/s-20.7°C73.1%379.2hPa0V07:52:0000:00:0000:00:00
PU1XMG-162026-08-31 13:28:52-22.77892-42.53453117°49km/h8024m-4.8m/s-20.8°C70.7%377.7hPa0V07:52:0000:00:0000:00:00
PU1XMG-162026-08-31 13:28:47-22.77865-42.53512116°47km/h8049m-4.6m/s-20.9°C70.1%376.5hPa0V07:52:0000:00:0000:00:00
PU1XMG-162026-08-31 13:28:41-22.77832-42.53580118°46km/h8078m-5.0m/s-21.0°C64.1%375.0hPa0V07:52:0000:00:0000:00:00
PU1XMG-162026-08-31 13:28:35-22.77800-42.53649118°47km/h8107m-4.7m/s-20.8°C53.5%373.5hPa0V07:52:0000:00:0000:00:00
PU1XMG-162026-08-31 13:28:30-22.77773-42.53706117°47km/h8132m-4.7m/s-20.9°C52.5%372.3hPa0V07:52:0000:00:0000:00:00
PU1XMG-162026-08-31 13:28:25-22.77742-42.53777116°47km/h8160m-4.9m/s-21.2°C53.7%370.8hPa0V07:52:0000:00:0000:00:00
PU1XMG-162026-08-31 13:28:19-22.77717-42.53838114°49km/h8185m-4.9m/s-21.4°C56.2%369.6hPa0V07:52:0000:00:0000:00:00
PU1XMG-162026-08-31 13:28:13-22.77688-42.53913112°51km/h8215m-4.7m/s-21.7°C64.1%368.1hPa0V07:52:0000:00:0000:00:00
PU1XMG-162026-08-31 13:28:09-22.77664-42.53977113°49km/h8239m-4.8m/s-21.9°C66.3%366.9hPa0V00:00:0000:00:0000:00:00
PU1XMG-162026-08-31 13:28:03-22.77641-42.54040110°49km/h8263m-4.7m/s-21.9°C59.8%365.7hPa0V00:00:0000:00:0000:00:00
PU1XMG-162026-08-31 13:27:58-22.77617-42.54117108°49km/h8292m-4.6m/s-22.0°C56.1%364.3hPa0V00:00:0000:00:0000:00:00
PU1XMG-162026-08-31 13:27:51-22.77597-42.54195105°47km/h8321m-4.7m/s-22.2°C57.9%362.9hPa0V00:00:0000:00:0000:00:00
PU1XMG-162026-08-31 13:27:46-22.77581-42.54257107°46km/h8345m-4.5m/s-22.3°C61.0%361.6hPa0V00:00:0000:00:0000:00:00
PU1XMG-162026-08-31 13:27:40-22.77561-42.54328106°46km/h8371m-4.4m/s-22.4°C61.5%360.4hPa0V00:00:0000:00:0000:00:00
PU1XMG-162026-08-31 13:27:35-22.77548-42.54391102°49km/h8393m-4.5m/s-22.6°C61.2%359.3hPa0V00:00:0000:00:0000:00:00
PU1XMG-162026-08-31 13:27:29-22.77535-42.5448397°47km/h8423m-4.3m/s-22.9°C63.6%357.8hPa0V00:00:0000:00:0000:00:00
PU1XMG-162026-08-31 13:27:14-22.77505-42.5465799°47km/h8483m-4.4m/s-23.5°C63.4%354.9hPa0V07:54:0000:00:0000:00:00
PU1XMG-162026-08-31 13:26:55-22.77480-42.5489994°44km/h8574m-4.7m/s-24.3°C63.5%350.6hPa0V07:54:0000:00:0000:00:00
PU1XMG-162026-08-31 13:26:49-22.77472-42.54969101°42km/h8602m-4.8m/s-24.6°C64.9%349.2hPa0V07:54:0000:00:0000:00:00
PU1XMG-162026-08-31 13:26:41-22.77461-42.5504597°40km/h8640m-6.0m/s-25.0°C64.5%347.5hPa0V07:54:0000:00:0000:00:00
PU1XMG-162026-08-31 13:26:36-22.77458-42.5511292°42km/h8673m-5.2m/s-25.3°C66.6%345.9hPa0V07:54:0000:00:0000:00:00
PU1XMG-162026-08-31 13:26:30-22.77457-42.5516893°40km/h8698m-4.6m/s-25.5°C67.9%344.7hPa0V07:54:0000:00:0000:00:00
PU1XMG-162026-08-31 13:26:23-22.77454-42.5524691°42km/h8733m-4.7m/s-25.6°C73.1%343.1hPa0V00:00:0000:00:0000:00:00
PU1XMG-162026-08-31 13:26:17-22.77456-42.5531788°42km/h8761m-4.8m/s-25.9°C73.3%341.7hPa0V00:00:0000:00:0000:00:00
PU1XMG-162026-08-31 13:26:10-22.77460-42.5540088°44km/h8796m-5.0m/s-26.2°C75.3%340.1hPa0V00:00:0000:00:0000:00:00
PU1XMG-162026-08-31 13:26:06-22.77464-42.5546186°44km/h8821m-4.6m/s-26.3°C76.2%338.9hPa0V00:00:0000:00:0000:00:00
PU1XMG-162026-08-31 13:25:59-22.77471-42.5553385°42km/h8850m-5.2m/s-26.5°C76.6%337.5hPa0V00:00:0000:00:0000:00:00
PU1XMG-162026-08-31 13:25:53-22.77477-42.5560285°42km/h8881m-5.0m/s-26.7°C76.0%336.1hPa0V00:00:0000:00:0000:00:00
PU1XMG-162026-08-31 13:25:47-22.77486-42.5567183°42km/h8913m-4.9m/s-27.0°C75.0%334.7hPa0V00:00:0000:00:0000:00:00
PU1XMG-162026-08-31 13:25:41-22.77493-42.5574186°44km/h8944m-4.9m/s-27.2°C75.4%333.2hPa0V00:00:0000:00:0000:00:00
PU1XMG-162026-08-31 13:25:36-22.77499-42.5580284°44km/h8969m-4.7m/s-27.4°C75.2%332.0hPa0V07:56:0000:00:0000:00:00
PU1XMG-162026-08-31 13:25:31-22.77505-42.5587688°46km/h9000m-5.5m/s-27.5°C74.6%330.6hPa0V07:56:0000:00:0000:00:00
PU1XMG-162026-08-31 13:25:22-22.77506-42.5597890°47km/h9043m-5.5m/s-27.8°C74.3%328.6hPa0V07:56:0000:00:0000:00:00
PU1XMG-162026-08-31 13:25:16-22.77507-42.5605591°47km/h9074m-5.1m/s-28.0°C74.5%327.2hPa0V07:56:0000:00:0000:00:00
PU1XMG-162026-08-31 13:25:11-22.77506-42.5613190°46km/h9105m-5.2m/s-28.1°C74.0%325.8hPa0V07:56:0000:00:0000:00:00
PU1XMG-162026-08-31 13:25:04-22.77507-42.5620791°46km/h9138m-5.4m/s-28.3°C73.9%324.3hPa0V07:56:0000:00:0000:00:00
PU1XMG-162026-08-31 13:24:57-22.77506-42.5629691°46km/h9175m-5.2m/s-28.6°C73.5%322.7hPa0V07:56:0000:00:0000:00:00
PU1XMG-162026-08-31 13:24:52-22.77506-42.5635992°46km/h9200m-5.6m/s-28.8°C72.9%321.5hPa0V07:56:0000:00:0000:00:00
PU1XMG-162026-08-31 13:24:46-22.77504-42.5643594°47km/h9232m-5.2m/s-29.1°C73.7%320.1hPa0V07:56:0000:00:0000:00:00
PU1XMG-162026-08-31 13:24:40-22.77502-42.5651391°46km/h9264m-5.0m/s-29.3°C73.3%318.7hPa0V07:56:0000:00:0000:00:00
PU1XMG-162026-08-31 13:24:35-22.77501-42.5659093°47km/h9295m-5.4m/s-29.6°C73.6%317.3hPa0V07:56:0000:00:0000:00:00
PU1XMG-162026-08-31 13:24:28-22.77497-42.5667194°49km/h9327m-5.0m/s-29.8°C73.4%315.9hPa0V07:56:0000:00:0000:00:00
PU1XMG-162026-08-31 13:24:23-22.77494-42.5673894°49km/h9352m-5.3m/s-30.0°C73.2%314.8hPa0V07:56:0000:00:0000:00:00
PU1XMG-162026-08-31 13:24:18-22.77489-42.5680895°51km/h9378m-5.0m/s-30.2°C70.8%313.6hPa0V07:56:0000:00:0000:00:00
PU1XMG-162026-08-31 13:24:12-22.77482-42.5689395°51km/h9409m-5.1m/s-30.5°C71.2%312.3hPa0V07:56:0000:00:0000:00:00
PU1XMG-162026-08-31 13:24:07-22.77476-42.5697896°53km/h9440m-5.1m/s-30.7°C71.7%310.9hPa0V07:56:0000:00:0000:00:00
PU1XMG-162026-08-31 13:24:00-22.77465-42.57065101°55km/h9471m-5.2m/s-30.9°C72.2%309.5hPa0V07:56:0000:00:0000:00:00
PU1XMG-162026-08-31 13:23:55-22.77454-42.57140100°55km/h9497m-5.6m/s-31.1°C72.4%308.4hPa0V00:00:0000:00:0000:00:00
PU1XMG-162026-08-31 13:23:49-22.77437-42.57245102°57km/h9536m-5.3m/s-31.4°C73.4%306.7hPa0V00:00:0000:00:0000:00:00
PU1XMG-162026-08-31 13:23:42-22.77421-42.57339102°58km/h9568m-5.4m/s-31.6°C74.3%305.4hPa0V00:00:0000:00:0000:00:00
PU1XMG-162026-08-31 13:23:37-22.77406-42.57417103°58km/h9594m-5.2m/s-31.8°C74.9%304.2hPa0V00:00:0000:00:0000:00:00
PU1XMG-162026-08-31 13:23:32-22.77388-42.57512102°60km/h9626m-5.2m/s-32.0°C75.7%302.8hPa0V00:00:0000:00:0000:00:00
PU1XMG-162026-08-31 13:22:33-22.77171-42.58484109°66km/h9938m-5.0m/s-34.7°C82.1%289.6hPa0V07:58:0000:00:0000:00:00
PU1XMG-162026-08-31 13:22:26-22.77138-42.58586110°68km/h9969m-4.8m/s-34.9°C78.4%288.4hPa0V07:58:0000:00:0000:00:00
PU1XMG-162026-08-31 13:22:21-22.77110-42.58673110°68km/h9995m-4.8m/s-35.0°C73.0%287.3hPa0V07:58:0000:00:0000:00:00
PU1XMG-162026-08-31 13:22:15-22.77075-42.58780111°69km/h10026m-4.9m/s-35.3°C73.6%286.0hPa0V07:58:0000:00:0000:00:00
PU1XMG-162026-08-31 13:22:09-22.77038-42.58886112°69km/h10057m-5.1m/s-35.5°C74.3%284.8hPa0V07:59:0000:00:0000:00:00
PU1XMG-162026-08-31 13:22:03-22.76999-42.58992113°69km/h10089m-5.5m/s-35.8°C74.7%283.5hPa0V07:59:0000:00:0000:00:00
PU1XMG-162026-08-31 13:21:57-22.76960-42.59100113°71km/h10121m-5.4m/s-36.1°C75.0%282.2hPa0V07:59:0000:00:0000:00:00
PU1XMG-162026-08-31 13:21:52-22.76925-42.59190113°71km/h10147m-5.5m/s-36.4°C75.4%281.1hPa0V07:59:0000:00:0000:00:00
PU1XMG-162026-08-31 13:21:47-22.76892-42.59282112°71km/h10174m-5.7m/s-36.6°C75.5%280.0hPa0V07:59:0000:00:0000:00:00
PU1XMG-162026-08-31 13:21:42-22.76850-42.59391114°73km/h10206m-5.6m/s-36.9°C74.7%278.7hPa0V07:59:0000:00:0000:00:00
PU1XMG-162026-08-31 13:21:36-22.76814-42.59483114°75km/h10233m-5.4m/s-37.1°C74.2%277.7hPa0V07:59:0000:00:0000:00:00
PU1XMG-162026-08-31 13:21:31-22.76768-42.59595115°73km/h10265m-5.6m/s-37.3°C73.8%276.4hPa0V07:59:0000:00:0000:00:00
PU1XMG-162026-08-31 13:21:25-22.76730-42.59688114°75km/h10292m-5.4m/s-37.5°C72.4%275.3hPa0V07:59:0000:00:0000:00:00
PU1XMG-162026-08-31 13:21:21-22.76693-42.59784114°77km/h10319m-5.4m/s-37.8°C71.5%274.2hPa0V08:00:0000:00:0000:00:00
PU1XMG-162026-08-31 13:21:16-22.76653-42.59880116°77km/h10346m-6.0m/s-38.0°C70.9%273.2hPa0V08:00:0000:00:0000:00:00
PU1XMG-162026-08-31 13:21:09-22.76605-42.59995114°77km/h10381m-5.4m/s-38.3°C70.8%271.8hPa0V08:00:0000:00:0000:00:00
PU1XMG-162026-08-31 13:21:03-22.76558-42.60111115°78km/h10413m-5.4m/s-38.6°C72.3%270.5hPa0V08:00:0000:00:0000:00:00
PU1XMG-162026-08-31 13:20:58-22.76508-42.60226116°78km/h10446m-5.8m/s-38.9°C73.5%269.2hPa0V08:00:0000:00:0000:00:00
PU1XMG-162026-08-31 13:20:53-22.76466-42.60323117°78km/h10474m-5.8m/s-39.1°C74.0%268.2hPa0V08:00:0000:00:0000:00:00
PU1XMG-162026-08-31 13:20:42-22.76371-42.60530117°77km/h10535m-5.9m/s-39.7°C73.3%265.8hPa0V08:00:0000:00:0000:00:00
PU1XMG-162026-08-31 13:20:38-22.76319-42.60642118°75km/h10570m-5.7m/s-40.0°C73.8%264.4hPa0V08:00:0000:00:0000:00:00
PU1XMG-162026-08-31 13:20:29-22.76262-42.60769117°73km/h10611m-6.3m/s-40.4°C71.1%262.8hPa0V00:00:0000:00:0000:00:00
PU1XMG-162026-08-31 13:20:23-22.76219-42.60860118°77km/h10641m-5.9m/s-40.7°C71.2%261.7hPa0V00:00:0000:00:0000:00:00
PU1XMG-162026-08-31 13:20:18-22.76175-42.60952116°75km/h10670m-5.5m/s-40.9°C70.6%260.6hPa0V00:00:0000:00:0000:00:00
PU1XMG-162026-08-31 13:20:12-22.76132-42.61063112°71km/h10703m-6.2m/s-41.0°C66.9%259.3hPa0V00:00:0000:00:0000:00:00
PU1XMG-162026-08-31 13:19:29-22.75916-42.61927103°73km/h10953m-6.9m/s-42.8°C61.5%249.9hPa0V08:02:0000:00:0000:00:00
PU1XMG-162026-08-31 13:19:21-22.75880-42.6210598°77km/h11009m-5.9m/s-43.4°C63.0%247.8hPa0V08:02:0000:00:0000:00:00
PU1XMG-162026-08-31 13:19:15-22.75868-42.6221399°82km/h11036m-4.2m/s-43.6°C64.2%246.8hPa0V08:02:0000:00:0000:00:00
PU1XMG-162026-08-31 13:19:09-22.75850-42.6234598°80km/h11072m-6.3m/s-44.0°C64.6%245.5hPa0V08:02:0000:00:0000:00:00
PU1XMG-162026-08-31 13:18:59-22.75828-42.6256296°82km/h11132m-5.9m/s-44.4°C56.8%243.4hPa0V08:02:0000:00:0000:00:00
PU1XMG-162026-08-31 13:18:54-22.75821-42.6267695°84km/h11162m-5.7m/s-44.6°C57.3%242.3hPa0V08:02:0000:00:0000:00:00
PU1XMG-162026-08-31 13:18:48-22.75813-42.6281095°78km/h11196m-6.5m/s-45.0°C57.9%241.1hPa0V00:00:0000:00:0000:00:00
PU1XMG-162026-08-31 13:18:43-22.75806-42.6291994°80km/h11226m-6.0m/s-45.3°C58.9%240.0hPa0V00:00:0000:00:0000:00:00
PU1XMG-162026-08-31 13:18:32-22.75808-42.6316292°77km/h11292m-6.4m/s-45.9°C58.4%237.7hPa0V00:00:0000:00:0000:00:00
PU1XMG-162026-08-31 13:18:27-22.75801-42.6329096°80km/h11322m-4.8m/s-46.1°C60.0%236.6hPa0V00:00:0000:00:0000:00:00
PU1XMG-162026-08-31 13:17:56-22.75794-42.6397793°78km/h11482m-4.9m/s-47.7°C62.2%230.9hPa0V00:00:0000:00:0000:00:00
PU1XMG-162026-08-31 13:17:49-22.75790-42.6410993°82km/h11512m-4.7m/s-47.9°C62.1%229.9hPa0V00:00:0000:00:0000:00:00
PU1XMG-162026-08-31 13:17:44-22.75785-42.6424692°84km/h11546m-6.1m/s-48.3°C60.6%228.8hPa0V00:00:0000:00:0000:00:00
PU1XMG-162026-08-31 13:17:37-22.75782-42.6438293°82km/h11582m-6.1m/s-48.6°C58.7%227.5hPa0V00:00:0000:00:0000:00:00
PU1XMG-162026-08-31 13:17:31-22.75776-42.6452095°86km/h11614m-5.6m/s-48.9°C58.2%226.4hPa0V00:00:0000:00:0000:00:00
PU1XMG-162026-08-31 13:17:25-22.75770-42.6465993°84km/h11647m-6.3m/s-49.2°C58.3%225.2hPa0V00:00:0000:00:0000:00:00
PU1XMG-162026-08-31 13:17:20-22.75763-42.6479995°89km/h11680m-6.2m/s-49.6°C57.1%224.1hPa0V00:00:0000:00:0000:00:00
PU1XMG-162026-08-31 13:16:55-22.75734-42.6537294°89km/h11810m-5.1m/s-50.8°C60.8%219.6hPa0V08:04:0000:00:0000:00:00
PU1XMG-162026-08-31 13:16:49-22.75731-42.6551992°89km/h11840m-6.3m/s-51.1°C60.4%218.7hPa0V08:04:0000:00:0000:00:00
PU1XMG-162026-08-31 13:16:43-22.75731-42.6566590°88km/h11873m-5.6m/s-51.4°C59.8%217.5hPa0V08:04:0000:00:0000:00:00
PU1XMG-162026-08-31 13:16:38-22.75734-42.6578691°88km/h11900m-5.3m/s-51.7°C60.2%216.6hPa0V08:04:0000:00:0000:00:00
PU1XMG-162026-08-31 13:16:32-22.75735-42.6593589°93km/h11934m-6.0m/s-51.9°C60.2%215.5hPa0V08:04:0000:00:0000:00:00
PU1XMG-162026-08-31 13:16:27-22.75740-42.6606289°93km/h11962m-5.3m/s-52.2°C60.8%214.6hPa0V08:04:0000:00:0000:00:00
PU1XMG-162026-08-31 13:16:21-22.75742-42.6621591°93km/h11996m-6.2m/s-52.3°C62.0%213.5hPa0V08:04:0000:00:0000:00:00
PU1XMG-162026-08-31 13:16:15-22.75750-42.6637386°99km/h12030m-5.3m/s-52.5°C63.0%212.3hPa0V08:05:0000:00:0000:00:00
PU1XMG-162026-08-31 13:16:09-22.75764-42.6653785°100km/h12064m-5.9m/s-52.5°C64.9%211.2hPa0V08:05:0000:00:0000:00:00
PU1XMG-162026-08-31 13:16:03-22.75780-42.6670584°102km/h12100m-6.0m/s-52.4°C59.0%210.1hPa0V08:05:0000:00:0000:00:00
PU1XMG-162026-08-31 13:15:59-22.75800-42.6684280°100km/h12130m-6.2m/s-52.1°C53.9%209.1hPa0V08:05:0000:00:0000:00:00
PU1XMG-162026-08-31 13:15:53-22.75826-42.6697778°100km/h12160m-6.4m/s-52.1°C50.4%208.1hPa0V08:05:0000:00:0000:00:00
PU1XMG-162026-08-31 13:15:47-22.75862-42.6713976°102km/h12195m-6.5m/s-51.9°C36.5%207.1hPa0V08:05:0000:00:0000:00:00
PU1XMG-162026-08-31 13:15:42-22.75898-42.6727675°104km/h12225m-5.4m/s-51.9°C32.2%206.1hPa0V08:05:0000:00:0000:00:00
PU1XMG-162026-08-31 13:15:36-22.75943-42.6744174°106km/h12260m-6.1m/s-51.9°C27.9%204.9hPa0V08:05:0000:00:0000:00:00
PU1XMG-162026-08-31 13:15:31-22.75995-42.6760971°110km/h12298m-6.8m/s-52.1°C25.0%203.8hPa0V08:05:0000:00:0000:00:00
PU1XMG-162026-08-31 13:15:25-22.76042-42.6775172°111km/h12329m-6.5m/s-52.2°C22.2%202.8hPa0V00:00:0000:00:0000:00:00
PU1XMG-162026-08-31 13:14:29-22.76804-42.6941559°139km/h12690m-6.4m/s-54.6°C20.2%191.7hPa0V08:07:0000:00:0000:00:00
PU1XMG-162026-08-31 13:14:24-22.76896-42.6958060°142km/h12724m-6.2m/s-54.9°C22.8%190.7hPa0V08:07:0000:00:0000:00:00
PU1XMG-162026-08-31 13:14:13-22.77101-42.6994759°142km/h12796m-6.4m/s-55.1°C28.3%188.6hPa0V08:07:0000:00:0000:00:00
PU1XMG-162026-08-31 13:14:04-22.77266-42.7024361°137km/h12853m-5.8m/s-55.1°C14.3%186.9hPa0V08:07:0000:00:0000:00:00
PU1XMG-162026-08-31 13:13:53-22.77450-42.7059963°133km/h12922m-5.6m/s-55.0°C9.7%184.9hPa0V08:07:0000:00:0000:00:00
PU1XMG-162026-08-31 13:13:48-22.77529-42.7076164°133km/h12956m-6.7m/s-55.1°C8.5%183.9hPa0V08:07:0000:00:0000:00:00
PU1XMG-162026-08-31 13:13:42-22.77620-42.7095865°133km/h12994m-5.9m/s-55.3°C8.2%182.8hPa0V08:08:0000:00:0000:00:00
PU1XMG-162026-08-31 13:13:37-22.77692-42.7112567°135km/h13028m-7.2m/s-55.5°C7.8%181.9hPa0V08:08:0000:00:0000:00:00
PU1XMG-162026-08-31 13:13:31-22.77776-42.7133067°137km/h13068m-7.5m/s-55.7°C7.4%180.7hPa0V08:08:0000:00:0000:00:00
PU1XMG-162026-08-31 13:13:26-22.77847-42.7150467°141km/h13101m-6.6m/s-55.7°C6.9%179.8hPa0V08:08:0000:00:0000:00:00
PU1XMG-162026-08-31 13:13:20-22.77930-42.7171769°141km/h13135m-5.8m/s-55.7°C6.7%178.8hPa0V08:08:0000:00:0000:00:00
PU1XMG-162026-08-31 13:13:14-22.78011-42.7193068°141km/h13168m-5.8m/s-55.9°C6.8%177.9hPa0V08:08:0000:00:0000:00:00
PU1XMG-162026-08-31 13:13:09-22.78083-42.7210466°137km/h13200m-7.0m/s-56.0°C6.5%177.0hPa0V08:08:0000:00:0000:00:00
PU1XMG-162026-08-31 13:13:03-22.78171-42.7230565°135km/h13240m-7.2m/s-56.2°C6.1%175.9hPa0V08:08:0000:00:0000:00:00
PU1XMG-162026-08-31 13:12:57-22.78261-42.7250264°133km/h13280m-6.9m/s-56.1°C5.7%174.8hPa0V08:08:0000:00:0000:00:00
PU1XMG-162026-08-31 13:12:51-22.78354-42.7269363°131km/h13319m-6.4m/s-56.1°C5.6%173.8hPa0V08:08:0000:00:0000:00:00
PU1XMG-162026-08-31 13:12:45-22.78449-42.7288262°130km/h13358m-6.4m/s-56.3°C5.6%172.7hPa0V08:08:0000:00:0000:00:00
PU1XMG-162026-08-31 13:12:39-22.78545-42.7306661°128km/h13397m-6.6m/s-56.5°C5.6%171.6hPa0V08:08:0000:00:0000:00:00
PU1XMG-162026-08-31 13:12:32-22.78658-42.7328061°130km/h13443m-6.6m/s-56.8°C5.6%170.4hPa0V08:08:0000:00:0000:00:00
PU1XMG-162026-08-31 13:12:26-22.78759-42.7346359°130km/h13482m-6.7m/s-57.1°C5.7%169.4hPa0V08:08:0000:00:0000:00:00
PU1XMG-162026-08-31 13:12:20-22.78864-42.7364359°128km/h13522m-6.7m/s-57.4°C5.7%168.3hPa0V08:08:0000:00:0000:00:00
PU1XMG-162026-08-31 13:12:14-22.78969-42.7382158°128km/h13561m-6.6m/s-57.6°C5.8%167.3hPa0V08:08:0000:00:0000:00:00
PU1XMG-162026-08-31 13:12:08-22.79077-42.7399757°128km/h13600m-6.9m/s-57.9°C5.8%166.2hPa0V08:08:0000:00:0000:00:00
PU1XMG-162026-08-31 13:12:03-22.79184-42.7417357°128km/h13640m-6.5m/s-58.2°C6.0%165.2hPa0V08:09:0000:00:0000:00:00
PU1XMG-162026-08-31 13:11:56-22.79293-42.7434556°126km/h13680m-6.7m/s-58.5°C6.1%164.1hPa0V08:09:0000:00:0000:00:00
PU1XMG-162026-08-31 13:11:51-22.79387-42.7448254°122km/h13714m-6.6m/s-58.7°C6.2%163.3hPa0V08:09:0000:00:0000:00:00
PU1XMG-162026-08-31 13:11:45-22.79497-42.7464254°120km/h13753m-6.7m/s-59.0°C6.4%162.2hPa0V08:09:0000:00:0000:00:00
PU1XMG-162026-08-31 13:11:39-22.79609-42.7480153°120km/h13794m-6.9m/s-59.2°C6.6%161.2hPa0V08:09:0000:00:0000:00:00
PU1XMG-162026-08-31 13:11:28-22.79839-42.7510551°119km/h13877m-7.3m/s-59.9°C6.9%159.0hPa0V08:09:0000:00:0000:00:00
PU1XMG-162026-08-31 13:11:21-22.79952-42.7525451°115km/h13919m-6.9m/s-60.2°C7.0%157.9hPa0V08:09:0000:00:0000:00:00
PU1XMG-162026-08-31 13:11:15-22.80065-42.7539650°113km/h13962m-7.0m/s-60.6°C7.0%156.9hPa0V08:09:0000:00:0000:00:00
PU1XMG-162026-08-31 13:11:09-22.80180-42.7553850°115km/h14004m-7.1m/s-61.0°C7.4%155.8hPa0V08:10:0000:00:0000:00:00
PU1XMG-162026-08-31 13:11:03-22.80292-42.7567950°111km/h14045m-6.1m/s-61.3°C7.7%154.8hPa0V08:10:0000:00:0000:00:00
PU1XMG-162026-08-31 13:10:57-22.80401-42.7581551°108km/h14085m-6.9m/s-61.7°C7.8%153.8hPa0V08:10:0000:00:0000:00:00
PU1XMG-162026-08-31 13:10:51-22.80507-42.7594949°108km/h14128m-7.5m/s-62.0°C7.7%152.7hPa0V08:10:0000:00:0000:00:00
PU1XMG-162026-08-31 13:10:46-22.80598-42.7605950°108km/h14163m-7.2m/s-62.2°C7.7%151.9hPa0V08:10:0000:00:0000:00:00
PU1XMG-162026-08-31 13:10:41-22.80686-42.7617352°110km/h14197m-7.2m/s-62.4°C7.5%151.1hPa0V08:10:0000:00:0000:00:00
PU1XMG-162026-08-31 13:10:35-22.80790-42.7630951°104km/h14238m-7.4m/s-62.6°C7.2%150.1hPa0V08:10:0000:00:0000:00:00
PU1XMG-162026-08-31 13:10:30-22.80875-42.7641650°102km/h14273m-6.7m/s-62.8°C7.2%149.3hPa0V08:10:0000:00:0000:00:00
PU1XMG-162026-08-31 13:10:25-22.80979-42.7654649°106km/h14313m-8.2m/s-62.9°C7.1%148.3hPa0V08:10:0000:00:0000:00:00
PU1XMG-162026-08-31 13:10:12-22.81169-42.7678451°86km/h14402m-8.0m/s-63.4°C7.1%146.2hPa0V08:11:0000:00:0000:00:00
PU1XMG-162026-08-31 13:10:07-22.81236-42.7687551°82km/h14437m-6.6m/s-63.1°C7.1%145.4hPa0V08:11:0000:00:0000:00:00
PU1XMG-162026-08-31 13:10:02-22.81315-42.7696950°71km/h14482m-7.2m/s-62.6°C7.0%144.4hPa0V08:11:0000:00:0000:00:00
PU1XMG-162026-08-31 13:09:56-22.81375-42.7705553°62km/h14531m-7.9m/s-62.5°C7.0%143.3hPa0V08:11:0000:00:0000:00:00
PU1XMG-162026-08-31 13:09:49-22.81429-42.7712955°53km/h14581m-6.4m/s-62.5°C7.0%142.3hPa0V08:11:0000:00:0000:00:00
PU1XMG-162026-08-31 13:09:43-22.81475-42.7719752°49km/h14627m-5.1m/s-61.8°C7.3%141.4hPa0V08:11:0000:00:0000:00:00
PU1XMG-162026-08-31 13:09:38-22.81524-42.7725032°62km/h14641m1.6m/s-61.4°C7.1%140.7hPa0V08:11:0000:00:0000:00:00
PU1XMG-162026-08-31 13:09:32-22.81561-42.7728947°35km/h14666m-7.6m/s-61.5°C7.3%140.0hPa0V08:11:0000:00:0000:00:00
PU1XMG-162026-08-31 13:09:27-22.81592-42.7732037°33km/h14697m-7.6m/s-61.9°C7.8%139.3hPa0V08:12:0000:00:0000:00:00
PU1XMG-162026-08-31 13:09:22-22.81623-42.7734543°29km/h14729m-6.4m/s-61.7°C7.8%138.6hPa0V08:12:0000:00:0000:00:00
PU1XMG-162026-08-31 13:09:16-22.81652-42.7737136°24km/h14768m-7.7m/s-61.3°C7.9%137.7hPa0V08:12:0000:00:0000:00:00
PU1XMG-162026-08-31 13:09:03-22.81711-42.7741846°20km/h14858m-7.1m/s-62.1°C8.9%135.7hPa0V08:12:0000:00:0000:00:00
PU1XMG-162026-08-31 13:08:58-22.81726-42.7743851°18km/h14894m-6.3m/s-62.4°C9.3%134.9hPa0V08:12:0000:00:0000:00:00
PU1XMG-162026-08-31 13:08:53-22.81744-42.7745435°15km/h14938m-6.1m/s-62.7°C9.9%134.0hPa0V08:12:0000:00:0000:00:00
PU1XMG-162026-08-31 13:08:47-22.81757-42.7746962°15km/h14972m-7.5m/s-63.0°C10.2%133.2hPa0V08:12:0000:00:0000:00:00
PU1XMG-162026-08-31 13:08:41-22.81763-42.7749173°11km/h15015m-7.9m/s-63.4°C10.8%132.3hPa0V08:12:0000:00:0000:00:00
PU1XMG-162026-08-31 13:08:36-22.81769-42.7750362°9km/h15048m-7.1m/s-63.7°C11.6%131.6hPa0V08:13:0000:00:0000:00:00
PU1XMG-162026-08-31 13:08:30-22.81775-42.7751661°9km/h15090m-8.3m/s-63.9°C11.5%130.8hPa0V08:13:0000:00:0000:00:00
PU1XMG-162026-08-31 13:08:25-22.81776-42.77524105°5km/h15127m-7.4m/s-64.3°C12.3%129.9hPa0V08:13:0000:00:0000:00:00
PU1XMG-162026-08-31 13:08:19-22.81773-42.77532133°5km/h15169m-7.1m/s-64.7°C13.2%129.1hPa0V08:13:0000:00:0000:00:00
PU1XMG-162026-08-31 13:08:13-22.81764-42.77535170°7km/h15211m-6.7m/s-65.1°C13.7%128.2hPa0V08:13:0000:00:0000:00:00
PU1XMG-162026-08-31 13:08:07-22.81750-42.77538161°13km/h15257m-7.3m/s-65.5°C14.3%127.2hPa0V08:13:0000:00:0000:00:00
PU1XMG-162026-08-31 13:08:02-22.81733-42.77551136°16km/h15303m-7.2m/s-65.8°C15.1%126.2hPa0V08:13:0000:00:0000:00:00
PU1XMG-162026-08-31 13:07:56-22.81717-42.77568142°18km/h15337m-7.9m/s-66.2°C15.6%125.5hPa0V08:13:0000:00:0000:00:00
PU1XMG-162026-08-31 13:07:51-22.81700-42.77583138°16km/h15372m-5.9m/s-66.6°C16.3%124.8hPa0V08:13:0000:00:0000:00:00
PU1XMG-162026-08-31 13:07:45-22.81681-42.77595163°15km/h15414m-7.0m/s-67.0°C17.0%123.9hPa0V08:13:0000:00:0000:00:00
PU1XMG-162026-08-31 13:07:39-22.81655-42.77603166°18km/h15458m-7.3m/s-67.3°C17.5%123.0hPa0V08:13:0000:00:0000:00:00
PU1XMG-162026-08-31 13:07:34-22.81631-42.77609168°18km/h15495m-7.2m/s-67.7°C18.2%122.3hPa0V08:13:0000:00:0000:00:00
PU1XMG-162026-08-31 13:07:29-22.81609-42.77616160°18km/h15531m-7.3m/s-67.9°C18.7%121.5hPa0V08:13:0000:00:0000:00:00
PU1XMG-162026-08-31 13:07:23-22.81582-42.77632149°22km/h15574m-7.8m/s-68.3°C18.6%120.7hPa0V08:13:0000:00:0000:00:00
PU1XMG-162026-08-31 13:07:18-22.81556-42.77650150°26km/h15611m-7.5m/s-68.6°C18.5%119.9hPa0V08:13:0000:00:0000:00:00
PU1XMG-162026-08-31 13:07:12-22.81523-42.77674142°26km/h15656m-8.1m/s-68.9°C18.4%119.0hPa0V08:13:0000:00:0000:00:00
PU1XMG-162026-08-31 13:07:07-22.81497-42.77697140°26km/h15695m-8.0m/s-69.2°C18.0%118.3hPa0V08:13:0000:00:0000:00:00
PU1XMG-162026-08-31 13:07:01-22.81469-42.77724140°22km/h15742m-8.1m/s-69.4°C18.2%117.3hPa0V08:13:0000:00:0000:00:00
PU1XMG-162026-08-31 13:06:55-22.81443-42.77748140°22km/h15789m-7.7m/s-69.6°C17.5%116.4hPa0V08:14:0000:00:0000:00:00
PU1XMG-162026-08-31 13:06:50-22.81422-42.77768139°24km/h15828m-7.7m/s-70.0°C17.4%115.7hPa0V08:14:0000:00:0000:00:00
PU1XMG-162026-08-31 13:06:45-22.81400-42.77789142°24km/h15866m-6.8m/s-70.4°C17.2%114.9hPa0V08:14:0000:00:0000:00:00
PU1XMG-162026-08-31 13:06:40-22.81370-42.77812145°24km/h15911m-7.5m/s-70.8°C16.7%114.1hPa0V08:14:0000:00:0000:00:00
PU1XMG-162026-08-31 13:06:36-22.81346-42.77831147°20km/h15948m-7.7m/s-71.1°C16.4%113.3hPa0V08:14:0000:00:0000:00:00
PU1XMG-162026-08-31 13:06:29-22.81326-42.77848137°20km/h15984m-7.2m/s-71.3°C15.7%112.7hPa0V08:14:0000:00:0000:00:00
PU1XMG-162026-08-31 13:06:24-22.81302-42.77876128°26km/h16029m-6.9m/s-71.6°C14.8%111.8hPa0V08:14:0000:00:0000:00:00
PU1XMG-162026-08-31 13:06:17-22.81284-42.77910120°24km/h16074m-7.9m/s-71.9°C14.1%111.0hPa0V08:14:0000:00:0000:00:00
PU1XMG-162026-08-31 13:06:13-22.81270-42.77938113°24km/h16113m-8.0m/s-72.2°C13.5%110.2hPa0V08:14:0000:00:0000:00:00
PU1XMG-162026-08-31 13:06:06-22.81255-42.77979112°27km/h16160m-7.8m/s-72.4°C12.9%109.3hPa0V08:14:0000:00:0000:00:00
PU1XMG-162026-08-31 13:05:58-22.81228-42.78030125°26km/h16222m-7.1m/s-72.4°C12.4%108.2hPa0V08:15:0000:00:0000:00:00
PU1XMG-162026-08-31 13:05:53-22.81214-42.78058115°22km/h16260m-7.3m/s-72.5°C11.9%107.5hPa0V08:15:0000:00:0000:00:00
PU1XMG-162026-08-31 13:05:48-22.81206-42.78087104°22km/h16299m-8.0m/s-72.5°C11.6%106.8hPa0V08:15:0000:00:0000:00:00
PU1XMG-162026-08-31 13:05:42-22.81198-42.7812699°27km/h16348m-8.9m/s-72.2°C10.9%105.9hPa0V08:15:0000:00:0000:00:00
PU1XMG-162026-08-31 13:05:36-22.81199-42.7817182°26km/h16395m-9.1m/s-72.0°C10.5%105.0hPa0V08:15:0000:00:0000:00:00
PU1XMG-162026-08-31 13:05:31-22.81201-42.78206103°18km/h16444m-8.5m/s-72.1°C10.1%104.2hPa0V08:15:0000:00:0000:00:00
PU1XMG-162026-08-31 13:05:25-22.81192-42.78241106°26km/h16492m-7.7m/s-71.9°C9.6%103.3hPa0V08:15:0000:00:0000:00:00
PU1XMG-162026-08-31 13:05:18-22.81183-42.78277105°18km/h16538m-8.1m/s-71.9°C9.1%102.5hPa0V08:15:0000:00:0000:00:00
PU1XMG-162026-08-31 13:05:13-22.81173-42.78303125°18km/h16586m-8.2m/s-72.1°C8.9%101.7hPa0V08:16:0000:00:0000:00:00
PU1XMG-162026-08-31 13:05:03-22.81153-42.78340123°15km/h16661m-8.2m/s-72.3°C8.4%100.4hPa0V08:16:0000:00:0000:00:00
PU1XMG-162026-08-31 13:04:58-22.81142-42.78355133°15km/h16702m-7.7m/s-72.6°C8.3%99.7hPa0V08:16:0000:00:0000:00:00
PU1XMG-162026-08-31 13:04:53-22.81129-42.78371130°11km/h16747m-8.0m/s-73.0°C8.1%99.0hPa0V08:16:0000:00:0000:00:00
PU1XMG-162026-08-31 13:04:46-22.81123-42.78383121°7km/h16793m-7.8m/s-73.3°C7.7%98.2hPa0V08:16:0000:00:0000:00:00
PU1XMG-162026-08-31 13:04:41-22.81116-42.78395132°11km/h16841m-7.0m/s-73.6°C7.6%97.4hPa0V08:16:0000:00:0000:00:00
PU1XMG-162026-08-31 13:04:29-22.81108-42.78412157°5km/h16933m-8.6m/s-74.4°C7.4%95.8hPa0V08:16:0000:00:0000:00:00
PU1XMG-162026-08-31 13:04:23-22.81097-42.78421126°11km/h16981m-9.1m/s-74.3°C7.1%95.1hPa0V08:17:0000:00:0000:00:00
PU1XMG-162026-08-31 13:04:17-22.81095-42.7843472°11km/h17020m-7.8m/s-74.3°C6.9%94.4hPa0V08:17:0000:00:0000:00:00
PU1XMG-162026-08-31 13:04:11-22.81095-42.78454116°18km/h17068m-7.5m/s-74.3°C7.0%93.6hPa0V08:17:0000:00:0000:00:00
PU1XMG-162026-08-31 13:04:06-22.81075-42.78489118°29km/h17115m-7.9m/s-74.2°C7.3%92.9hPa0V08:17:0000:00:0000:00:00
PU1XMG-162026-08-31 13:04:01-22.81061-42.78525110°24km/h17151m-8.3m/s-73.3°C6.8%92.3hPa0V08:17:0000:00:0000:00:00
PU1XMG-162026-08-31 13:03:56-22.81052-42.78555109°26km/h17191m-7.5m/s-72.9°C6.8%91.7hPa0V08:17:0000:00:0000:00:00
PU1XMG-162026-08-31 13:03:49-22.81040-42.78594117°24km/h17239m-7.9m/s-68.7°C4.5%90.9hPa0V08:17:0000:00:0000:00:00
PU1XMG-162026-08-31 13:03:44-22.81025-42.78620126°20km/h17279m-7.8m/s-68.6°C4.2%90.3hPa0V08:17:0000:00:0000:00:00
PU1XMG-162026-08-31 13:03:39-22.81009-42.78642134°20km/h17321m-9.0m/s-68.8°C4.3%89.7hPa0V08:17:0000:00:0000:00:00
PU1XMG-162026-08-31 13:03:34-22.80976-42.78662159°29km/h17371m-8.9m/s-68.0°C3.8%89.0hPa0V08:17:0000:00:0000:00:00
PU1XMG-162026-08-31 13:03:28-22.80942-42.78677155°29km/h17415m-8.7m/s-68.2°C3.7%88.3hPa0V08:18:0000:00:0000:00:00
PU1XMG-162026-08-31 13:03:23-22.80912-42.78699143°29km/h17459m-8.9m/s-68.3°C3.8%87.7hPa0V08:18:0000:00:0000:00:00
PU1XMG-162026-08-31 13:03:18-22.80881-42.78725145°33km/h17503m-8.2m/s-68.6°C4.0%87.0hPa0V08:18:0000:00:0000:00:00
PU1XMG-162026-08-31 13:03:13-22.80839-42.78761135°35km/h17556m-10.0m/s-68.7°C3.9%86.3hPa0V08:18:0000:00:0000:00:00
PU1XMG-162026-08-31 13:03:08-22.80814-42.78797124°29km/h17600m-8.8m/s-68.4°C3.9%85.6hPa0V08:18:0000:00:0000:00:00
PU1XMG-162026-08-31 13:03:01-22.80786-42.78835135°31km/h17656m-8.8m/s-67.0°C3.4%84.8hPa0V08:18:0000:00:0000:00:00
PU1XMG-162026-08-31 13:02:55-22.80750-42.78876134°35km/h17711m-9.9m/s-66.6°C3.1%84.1hPa0V08:18:0000:00:0000:00:00
PU1XMG-162026-08-31 13:02:50-22.80719-42.78913132°27km/h17767m-9.7m/s-66.3°C3.0%83.3hPa0V08:18:0000:00:0000:00:00
PU1XMG-162026-08-31 13:02:45-22.80694-42.78945129°35km/h17811m-9.1m/s-66.6°C3.0%82.7hPa0V08:18:0000:00:0000:00:00
PU1XMG-162026-08-31 13:02:39-22.80661-42.78994124°37km/h17867m-8.9m/s-66.9°C3.1%81.9hPa0V00:00:0000:00:0000:00:00
PU1XMG-162026-08-31 13:02:33-22.80636-42.79035126°37km/h17911m-10.0m/s-66.7°C3.0%81.3hPa0V00:00:0000:00:0000:00:00
PU1XMG-162026-08-31 13:02:27-22.80600-42.79091124°46km/h17969m-10.1m/s-66.7°C3.0%80.5hPa0V00:00:0000:00:0000:00:00
PU1XMG-162026-08-31 13:02:16-22.80554-42.79202109°35km/h18077m-9.9m/s-66.7°C3.1%79.1hPa0V00:00:0000:00:0000:00:00
PU1XMG-162026-08-31 13:02:10-22.80540-42.79247108°24km/h18137m-10.4m/s-65.0°C2.7%78.3hPa0V00:00:0000:00:0000:00:00
PU1XMG-162026-08-31 13:02:05-22.80537-42.7927982°18km/h18196m-10.1m/s-64.8°C2.7%77.6hPa0V00:00:0000:00:0000:00:00
PU1XMG-162026-08-31 13:01:59-22.80546-42.7931377°24km/h18256m-10.2m/s-64.8°C2.6%76.8hPa0V00:00:0000:00:0000:00:00
PU1XMG-162026-08-31 13:00:45-22.80881-42.7989322°29km/h18978m-9.0m/s-62.8°C2.1%68.3hPa0V08:20:0000:00:0000:00:00
PU1XMG-162026-08-31 13:00:39-22.80918-42.7990819°22km/h19035m-9.6m/s-62.6°C2.0%67.6hPa0V08:20:0000:00:0000:00:00
PU1XMG-162026-08-31 13:00:35-22.80941-42.79912359°16km/h19083m-10.3m/s-62.6°C1.9%67.1hPa0V08:20:0000:00:0000:00:00
PU1XMG-162026-08-31 13:00:29-22.80961-42.79910358°11km/h19141m-9.3m/s-63.0°C2.0%66.4hPa0V08:20:0000:00:0000:00:00
PU1XMG-162026-08-31 13:00:22-22.80974-42.79906321°7km/h19202m-11.0m/s-63.4°C2.1%65.8hPa0V08:20:0000:00:0000:00:00
PU1XMG-162026-08-31 13:00:06-22.80956-42.79886168°11km/h19376m-11.0m/s-63.5°C2.1%64.0hPa0V08:21:0000:00:0000:00:00
PU1XMG-162026-08-31 13:00:00-22.80938-42.79894152°20km/h19428m-10.8m/s-63.3°C2.0%63.4hPa0V08:21:0000:00:0000:00:00
PU1XMG-162026-08-31 12:59:55-22.80915-42.79912143°24km/h19481m-10.2m/s-63.2°C2.0%62.9hPa0V08:21:0000:00:0000:00:00
PU1XMG-162026-08-31 12:59:50-22.80891-42.79929157°22km/h19535m-11.6m/s-63.3°C2.0%62.3hPa0V08:21:0000:00:0000:00:00
PU1XMG-162026-08-31 12:59:39-22.80831-42.79947162°26km/h19653m-10.3m/s-63.0°C1.9%61.2hPa0V08:21:0000:00:0000:00:00
PU1XMG-162026-08-31 12:59:33-22.80795-42.79966149°26km/h19720m-11.3m/s-62.6°C1.8%60.4hPa0V08:21:0000:00:0000:00:00
PU1XMG-162026-08-31 12:59:28-22.80770-42.79984143°22km/h19770m-10.1m/s-62.9°C1.8%60.0hPa0V08:21:0000:00:0000:00:00
PU1XMG-162026-08-31 12:59:22-22.80743-42.80012132°27km/h19835m-11.5m/s-63.3°C1.8%59.3hPa0V08:21:0000:00:0000:00:00
PU1XMG-162026-08-31 12:59:18-22.80721-42.80040128°24km/h19889m-11.1m/s-63.6°C1.8%58.8hPa0V00:00:0000:00:0000:00:00
PU1XMG-162026-08-31 12:59:11-22.80705-42.80068115°22km/h19955m-11.1m/s-64.1°C2.0%58.2hPa0V00:00:0000:00:0000:00:00
PU1XMG-162026-08-31 12:59:07-22.80696-42.80100101°26km/h20009m-10.9m/s-64.3°C2.1%57.7hPa0V00:00:0000:00:0000:00:00
PU1XMG-162026-08-31 12:59:00-22.80696-42.8013577°18km/h20074m-11.2m/s-64.5°C2.1%57.0hPa0V00:00:0000:00:0000:00:00
PU1XMG-162026-08-31 12:58:55-22.80704-42.8015246°9km/h20132m-11.4m/s-64.1°C2.1%56.5hPa0V00:00:0000:00:0000:00:00
PU1XMG-162026-08-31 12:58:49-22.80709-42.8015759°4km/h20199m-12.3m/s-63.0°C1.9%55.9hPa0V00:00:0000:00:0000:00:00
PU1XMG-162026-08-31 12:58:44-22.80713-42.80161347°5km/h20268m-11.1m/s-62.1°C1.7%55.3hPa0V00:00:0000:00:0000:00:00
PU1XMG-162026-08-31 12:58:39-22.80724-42.8016013km/h20327m-12.2m/s-62.0°C1.7%54.7hPa0V00:00:0000:00:0000:00:00
PU1XMG-162026-08-31 12:58:13-22.80817-42.80168317°13km/h20626m-12.5m/s-61.8°C1.7%52.2hPa0V00:00:0000:00:0000:00:00
PU1XMG-162026-08-31 12:58:07-22.80829-42.80158339°13km/h20683m-10.6m/s-61.8°C1.7%51.7hPa0V00:00:0000:00:0000:00:00
PU1XMG-162026-08-31 12:58:02-22.80861-42.80153350°26km/h20751m-11.5m/s-61.6°C1.6%51.1hPa0V00:00:0000:00:0000:00:00
PU1XMG-162026-08-31 12:57:56-22.80894-42.80142340°27km/h20809m-11.4m/s-61.3°C1.6%50.6hPa0V00:00:0000:00:0000:00:00
PU1XMG-162026-08-31 12:57:51-22.80922-42.80127328°24km/h20866m-11.1m/s-61.3°C1.6%50.2hPa0V00:00:0000:00:0000:00:00
PU1XMG-162026-08-31 12:57:45-22.80952-42.80103314°27km/h20932m-12.7m/s-61.2°C1.6%49.6hPa0V00:00:0000:00:0000:00:00
PU1XMG-162026-08-31 12:57:40-22.80974-42.80063297°27km/h21001m-10.8m/s-61.1°C1.7%49.1hPa0V00:00:0000:00:0000:00:00
PU1XMG-162026-08-31 12:57:11-22.81019-42.79951303°7km/h21318m-11.0m/s-60.7°C1.5%46.6hPa0V08:24:0000:00:0000:00:00
PU1XMG-162026-08-31 12:57:06-22.81026-42.79942326°9km/h21373m-12.1m/s-60.7°C1.6%46.2hPa0V08:24:0000:00:0000:00:00
PU1XMG-162026-08-31 12:57:00-22.81041-42.79934335°13km/h21443m-11.4m/s-60.2°C1.5%45.7hPa0V08:24:0000:00:0000:00:00
PU1XMG-162026-08-31 12:56:50-22.81067-42.79908326°15km/h21572m-11.7m/s-59.8°C1.5%44.8hPa0V08:24:0000:00:0000:00:00
PU1XMG-162026-08-31 12:56:45-22.81084-42.79899339°15km/h21631m-12.2m/s-59.8°C1.5%44.3hPa0V00:00:0000:00:0000:00:00
PU1XMG-162026-08-31 12:56:33-22.81097-42.79873228°11km/h21777m-12.5m/s-59.1°C1.4%43.3hPa0V00:00:0000:00:0000:00:00
PU1XMG-162026-08-31 12:56:27-22.81082-42.79855244°15km/h21852m-12.8m/s-58.7°C1.3%42.8hPa0V00:00:0000:00:0000:00:00
PU1XMG-162026-08-31 12:56:21-22.81080-42.79838288°9km/h21926m-12.4m/s-58.4°C1.3%42.3hPa0V00:00:0000:00:0000:00:00
PU1XMG-162026-08-31 12:56:15-22.81082-42.79820258°15km/h22001m-12.7m/s-58.6°C1.4%41.8hPa0V00:00:0000:00:0000:00:00
PU1XMG-162026-08-31 12:56:01-22.81034-42.79764215°20km/h22178m-12.2m/s-58.6°C1.3%40.6hPa0V00:00:0000:00:0000:00:00
PU1XMG-162026-08-31 12:55:47-22.80970-42.79726205°22km/h22344m-13.5m/s-59.3°C1.4%39.6hPa0V00:00:0000:00:0000:00:00
PU1XMG-162026-08-31 12:55:35-22.80909-42.79708203°9km/h22520m-13.9m/s-59.7°C1.4%38.5hPa0V00:00:0000:00:0000:00:00
PU1XMG-162026-08-31 12:55:27-22.80888-42.79697189°11km/h22630m-13.8m/s-59.3°C1.3%37.8hPa0V00:00:0000:00:0000:00:00
PU1XMG-162026-08-31 12:55:21-22.80876-42.79697161°4km/h22714m-14.5m/s-59.6°C1.4%37.3hPa0V00:00:0000:00:0000:00:00
PU1XMG-162026-08-31 12:55:14-22.80866-42.79697179°9km/h22798m-14.9m/s-59.8°C1.4%36.8hPa0V00:00:0000:00:0000:00:00
PU1XMG-162026-08-31 12:55:07-22.80851-42.79707131°9km/h22912m-13.7m/s-59.9°C1.4%36.1hPa0V00:00:0000:00:0000:00:00
PU1XMG-162026-08-31 12:55:00-22.80845-42.7972692°11km/h23013m-14.8m/s-60.1°C1.4%35.5hPa0V08:26:0000:00:0000:00:00
PU1XMG-162026-08-31 12:54:50-22.80853-42.7976082°13km/h23158m-14.8m/s-60.8°C1.5%34.7hPa0V08:26:0000:00:0000:00:00
PU1XMG-162026-08-31 12:54:43-22.80862-42.79772346°5km/h23259m-17.3m/s-60.5°C1.5%34.2hPa0V08:26:0000:00:0000:00:00
PU1XMG-162026-08-31 12:54:36-22.80855-42.79778140°20km/h23349m-14.0m/s-60.6°C1.5%33.6hPa0V08:26:0000:00:0000:00:00
PU1XMG-162026-08-31 12:54:31-22.80837-42.79799123°16km/h23419m-15.2m/s-60.1°C1.5%33.3hPa0V08:26:0000:00:0000:00:00
PU1XMG-162026-08-31 12:54:26-22.80830-42.79811174°7km/h23511m-13.6m/s-59.4°C1.5%32.8hPa0V08:26:0000:00:0000:00:00
PU1XMG-162026-08-31 12:54:20-22.80813-42.79814164°20km/h23578m-14.0m/s-59.3°C1.5%32.4hPa0V08:26:0000:00:0000:00:00
PU1XMG-162026-08-31 12:54:13-22.80771-42.79848127°31km/h23703m-15.1m/s-58.0°C1.3%31.8hPa0V08:26:0000:00:0000:00:00
PU1XMG-162026-08-31 12:54:04-22.80742-42.79891125°20km/h23821m-14.9m/s-58.0°C1.3%31.2hPa0V00:00:0000:00:0000:00:00
PU1XMG-162026-08-31 12:53:59-22.80729-42.79918118°27km/h23896m-15.5m/s-57.7°C1.3%30.8hPa0V00:00:0000:00:0000:00:00
PU1XMG-162026-08-31 12:53:55-22.80712-42.79967103°31km/h23988m-15.7m/s-57.4°C1.2%30.4hPa0V00:00:0000:00:0000:00:00
PU1XMG-162026-08-31 12:53:47-22.80704-42.80009113°20km/h24082m-15.2m/s-56.9°C1.2%29.9hPa0V00:00:0000:00:0000:00:00
PU1XMG-162026-08-31 12:53:42-22.80690-42.80037116°29km/h24160m-15.6m/s-56.7°C1.2%29.5hPa0V00:00:0000:00:0000:00:00
PU1XMG-162026-08-31 12:53:38-22.80680-42.8007693°27km/h24236m-15.3m/s-56.6°C1.1%29.2hPa0V00:00:0000:00:0000:00:00
PU1XMG-162026-08-31 12:53:31-22.80689-42.8011465°22km/h24329m-15.1m/s-56.4°C1.1%28.7hPa0V00:00:0000:00:0000:00:00
PU1XMG-162026-08-31 12:53:11-22.80709-42.8018548°11km/h24646m-16.2m/s-56.4°C1.1%27.3hPa0V08:28:0000:00:0000:00:00
PU1XMG-162026-08-31 12:53:04-22.80713-42.80210111°16km/h24757m-15.6m/s-56.4°C1.2%26.8hPa0V08:28:0000:00:0000:00:00
PU1XMG-162026-08-31 12:53:01-22.80706-42.80231102°16km/h24835m-15.4m/s-56.5°C1.1%26.5hPa0V08:28:0000:00:0000:00:00
PU1XMG-162026-08-31 12:52:55-22.80708-42.8025382°15km/h24913m-17.6m/s-56.4°C1.2%26.2hPa0V08:28:0000:00:0000:00:00
PU1XMG-162026-08-31 12:52:51-22.80698-42.80262173°20km/h24997m-17.2m/s-56.6°C1.2%25.8hPa0V08:28:0000:00:0000:00:00
PU1XMG-162026-08-31 12:52:43-22.80668-42.80282117°27km/h25103m-16.6m/s-56.3°C1.2%25.4hPa0V08:28:0000:00:0000:00:00
PU1XMG-162026-08-31 12:52:38-22.80666-42.8031886°26km/h25190m-17.5m/s-55.4°C1.2%25.1hPa0V08:28:0000:00:0000:00:00
PU1XMG-162026-08-31 12:52:33-22.80660-42.80350118°27km/h25277m-17.3m/s-54.7°C1.1%24.7hPa0V08:28:0000:00:0000:00:00
PU1XMG-162026-08-31 12:52:28-22.80645-42.80386106°29km/h25367m-18.0m/s-54.4°C1.1%24.4hPa0V08:29:0000:00:0000:00:00
PU1XMG-162026-08-31 12:52:23-22.80638-42.80425105°22km/h25475m-17.8m/s-53.1°C1.0%24.0hPa0V08:29:0000:00:0000:00:00
PU1XMG-162026-08-31 12:52:17-22.80628-42.80466111°29km/h25587m-18.2m/s-52.3°C1.0%23.6hPa0V08:29:0000:00:0000:00:00
PU1XMG-162026-08-31 12:52:06-22.80574-42.80542128°27km/h25792m-18.9m/s-50.8°C0.9%22.8hPa0V08:29:0000:00:0000:00:00
PU1XMG-162026-08-31 12:51:59-22.80557-42.80586110°31km/h25900m-18.7m/s-50.0°C0.8%22.4hPa0V08:29:0000:00:0000:00:00
PU1XMG-162026-08-31 12:51:54-22.80538-42.80628125°24km/h26019m-19.1m/s-49.5°C0.8%22.0hPa0V08:29:0000:00:0000:00:00
PU1XMG-162026-08-31 12:51:48-22.80527-42.80656103°26km/h26116m-24.3m/s-49.9°C0.8%21.7hPa0V08:29:0000:00:0000:00:00
PU1XMG-162026-08-31 12:51:43-22.80510-42.80691132°26km/h26239m-18.8m/s-50.1°C0.8%21.3hPa0V08:29:0000:00:0000:00:00
PU1XMG-162026-08-31 12:51:37-22.80493-42.80717113°22km/h26345m-21.9m/s-50.3°C0.8%20.9hPa0V00:00:0000:00:0000:00:00
PU1XMG-162026-08-31 12:51:31-22.80490-42.80753105°24km/h26467m-19.2m/s-50.5°C0.8%20.5hPa0V00:00:0000:00:0000:00:00
PU1XMG-162026-08-31 12:51:25-22.80467-42.80782147°24km/h26593m-24.6m/s-50.4°C0.8%20.2hPa0V00:00:0000:00:0000:00:00
PU1XMG-162026-08-31 12:51:21-22.80446-42.80801139°24km/h26701m-20.3m/s-50.4°C0.9%19.8hPa0V00:00:0000:00:0000:00:00
PU1XMG-162026-08-31 12:51:02-22.80370-42.80884119°11km/h27073m-20.4m/s-49.4°C0.8%18.7hPa0V00:00:0000:00:0000:00:00
PU1XMG-162026-08-31 12:50:57-22.80363-42.80903111°20km/h27172m-18.9m/s-49.4°C0.8%18.4hPa0V00:00:0000:00:0000:00:00
PU1XMG-162026-08-31 12:50:53-22.80352-42.80937119°27km/h27265m-20.5m/s-49.7°C0.8%18.1hPa0V00:00:0000:00:0000:00:00
PU1XMG-162026-08-31 12:50:47-22.80334-42.80953184°7km/h27395m-20.5m/s-49.8°C0.8%17.8hPa0V00:00:0000:00:0000:00:00
PU1XMG-162026-08-31 12:50:42-22.80335-42.8095659°13km/h27493m-25.8m/s-49.5°C0.8%17.5hPa0V00:00:0000:00:0000:00:00
PU1XMG-162026-08-31 12:50:35-22.80329-42.80986131°24km/h27669m-36.2m/s-49.0°C0.7%17.1hPa0V00:00:0000:00:0000:00:00
PU1XMG-162026-08-31 12:50:30-22.80309-42.81004147°18km/h27833m-27.8m/s-49.1°C0.8%16.6hPa0V00:00:0000:00:0000:00:00
PU1XMG-162026-08-31 12:50:24-22.80290-42.81035113°27km/h27944m-0.4m/s-48.3°C0.8%16.3hPa0V00:00:0000:00:0000:00:00
PU1XMG-162026-08-31 12:50:19-22.80269-42.81067131°31km/h27912m7.2m/s-48.9°C0.9%16.4hPa0V00:00:0000:00:0000:00:00
PU1XMG-162026-08-31 12:50:14-22.80238-42.81097143°20km/h27872m8.2m/s-48.8°C0.8%16.4hPa0V00:00:0000:00:0000:00:00
PU1XMG-162026-08-31 12:50:08-22.80218-42.81114143°24km/h27833m5.3m/s-49.0°C0.8%16.5hPa0V00:00:0000:00:0000:00:00
PU1XMG-162026-08-31 12:50:01-22.80190-42.81152134°27km/h27791m6.1m/s-49.0°C0.8%16.7hPa0V00:00:0000:00:0000:00:00
PU1XMG-162026-08-31 12:49:55-22.80171-42.81180139°18km/h27749m5.9m/s-48.9°C0.8%16.8hPa0V00:00:0000:00:0000:00:00
PU1XMG-162026-08-31 12:49:45-22.80143-42.81234106°24km/h27679m6.5m/s-49.0°C0.8%16.9hPa0V00:00:0000:00:0000:00:00
PU1XMG-162026-08-31 12:49:40-22.80137-42.8125984°16km/h27636m5.4m/s-48.9°C0.8%17.1hPa0V00:00:0000:00:0000:00:00
PU1XMG-162026-08-31 12:49:34-22.80129-42.81292108°26km/h27594m4.6m/s-49.0°C0.8%17.2hPa0V00:00:0000:00:0000:00:00
PU1XMG-162026-08-31 12:49:27-22.80133-42.8131933°22km/h27551m6.3m/s-49.1°C0.8%17.3hPa0V00:00:0000:00:0000:00:00
PU1XMG-162026-08-31 12:49:21-22.80149-42.8134282°26km/h27512m7.3m/s-49.0°C0.9%17.4hPa0V00:00:0000:00:0000:00:00
PU1XMG-162026-08-31 12:49:15-22.80158-42.8137045°16km/h27469m6.6m/s-49.3°C0.9%17.5hPa0V00:00:0000:00:0000:00:00
PU1XMG-162026-08-31 12:49:11-22.80166-42.81376108°5km/h27437m7.3m/s-49.4°C0.9%17.6hPa0V00:00:0000:00:0000:00:00
PU1XMG-162026-08-31 12:49:04-22.80154-42.81403117°22km/h27393m6.8m/s-49.3°C0.9%17.7hPa0V00:00:0000:00:0000:00:00
PU1XMG-162026-08-31 12:48:56-22.80151-42.81433113°20km/h27338m5.2m/s-49.6°C0.9%17.9hPa0V00:00:0000:00:0000:00:00
PU1XMG-162026-08-31 12:48:45-22.80112-42.8150598°16km/h27257m5.7m/s-49.1°C0.9%18.1hPa0V00:00:0000:00:0000:00:00
PU1XMG-162026-08-31 12:48:34-22.80092-42.81547119°18km/h27188m7.6m/s-48.9°C0.8%18.3hPa0V00:00:0000:00:0000:00:00
PU1XMG-162026-08-31 12:48:28-22.80077-42.81578112°26km/h27148m8.0m/s-48.8°C0.8%18.4hPa0V00:00:0000:00:0000:00:00
PU1XMG-162026-08-31 12:48:22-22.80064-42.81613115°20km/h27108m7.1m/s-48.7°C0.9%18.5hPa0V00:00:0000:00:0000:00:00
PU1XMG-162026-08-31 12:48:17-22.80054-42.81635124°16km/h27077m4.5m/s-48.8°C0.9%18.6hPa0V00:00:0000:00:0000:00:00
PU1XMG-162026-08-31 12:48:12-22.80051-42.8166094°20km/h27043m6.6m/s-49.0°C0.9%18.7hPa0V00:00:0000:00:0000:00:00
PU1XMG-162026-08-31 12:48:07-22.80050-42.81683130°15km/h27011m8.7m/s-48.9°C0.8%18.8hPa0V00:00:0000:00:0000:00:00
PU1XMG-162026-08-31 12:48:01-22.80034-42.81699139°16km/h26971m7.3m/s-48.9°C0.8%18.9hPa0V00:00:0000:00:0000:00:00
PU1XMG-162026-08-31 12:47:55-22.80021-42.81727116°22km/h26934m7.4m/s-49.0°C0.8%19.0hPa0V00:00:0000:00:0000:00:00
PU1XMG-162026-08-31 12:47:49-22.79993-42.81757156°31km/h26895m8.9m/s-49.2°C0.8%19.1hPa0V00:00:0000:00:0000:00:00
PU1XMG-162026-08-31 12:47:44-22.79956-42.81781138°31km/h26857m7.5m/s-49.4°C0.9%19.3hPa0V00:00:0000:00:0000:00:00
PU1XMG-162026-08-31 12:47:38-22.79932-42.81816126°27km/h26825m5.8m/s-49.5°C0.9%19.4hPa0V00:00:0000:00:0000:00:00
PU1XMG-162026-08-31 12:47:34-22.79905-42.81832165°20km/h26793m6.1m/s-49.6°C0.9%19.4hPa0V00:00:0000:00:0000:00:00
PU1XMG-162026-08-31 12:47:28-22.79878-42.81853128°22km/h26755m7.1m/s-49.7°C0.9%19.6hPa0V00:00:0000:00:0000:00:00
PU1XMG-162026-08-31 12:47:22-22.79858-42.81881136°27km/h26724m6.2m/s-49.9°C0.9%19.7hPa0V00:00:0000:00:0000:00:00
PU1XMG-162026-08-31 12:47:17-22.79834-42.81900157°29km/h26691m5.9m/s-50.2°C0.9%19.8hPa0V00:00:0000:00:0000:00:00
PU1XMG-162026-08-31 12:47:12-22.79805-42.81917146°26km/h26661m7.7m/s-50.2°C0.9%19.9hPa0V00:00:0000:00:0000:00:00
PU1XMG-162026-08-31 12:47:07-22.79783-42.81941132°24km/h26628m5.8m/s-50.1°C0.9%20.0hPa0V00:00:0000:00:0000:00:00
PU1XMG-162026-08-31 12:47:02-22.79754-42.81961163°16km/h26591m4.5m/s-50.2°C0.9%20.1hPa0V00:00:0000:00:0000:00:00
PU1XMG-162026-08-31 12:46:56-22.79735-42.81974113°16km/h26559m7.9m/s-50.3°C0.9%20.2hPa0V00:00:0000:00:0000:00:00
PU1XMG-162026-08-31 12:46:51-22.79728-42.82008107°18km/h26521m7.7m/s-50.4°C0.9%20.3hPa0V00:00:0000:00:0000:00:00
PU1XMG-162026-08-31 12:46:44-22.79722-42.82027109°13km/h26484m6.0m/s-50.4°C1.0%20.4hPa0V00:00:0000:00:0000:00:00
PU1XMG-162026-08-31 12:46:38-22.79723-42.82062100°29km/h26447m4.9m/s-50.4°C1.0%20.5hPa0V00:00:0000:00:0000:00:00
PU1XMG-162026-08-31 12:46:32-22.79708-42.82089141°20km/h26409m5.3m/s-50.3°C1.0%20.7hPa0V00:00:0000:00:0000:00:00
PU1XMG-162026-08-31 12:46:26-22.79698-42.82116101°26km/h26370m4.7m/s-50.2°C1.0%20.8hPa0V00:00:0000:00:0000:00:00
PU1XMG-162026-08-31 12:46:21-22.79690-42.82146123°26km/h26337m6.2m/s-50.1°C0.9%20.9hPa0V00:00:0000:00:0000:00:00
PU1XMG-162026-08-31 12:46:16-22.79678-42.8217396°22km/h26305m7.3m/s-50.1°C0.9%21.0hPa0V00:00:0000:00:0000:00:00
PU1XMG-162026-08-31 12:46:11-22.79677-42.82208115°18km/h26266m8.3m/s-50.1°C0.9%21.1hPa0V00:00:0000:00:0000:00:00
PU1XMG-162026-08-31 12:46:04-22.79656-42.82241103°27km/h26219m5.7m/s-49.8°C0.9%21.3hPa0V00:00:0000:00:0000:00:00
PU1XMG-162026-08-31 12:45:58-22.79661-42.8228088°20km/h26179m5.8m/s-49.9°C0.9%21.4hPa0V00:00:0000:00:0000:00:00
PU1XMG-162026-08-31 12:44:57-22.79559-42.82689141°31km/h25770m5.4m/s-50.6°C0.9%22.8hPa0V00:00:0000:00:0000:00:00
PU1XMG-162026-08-31 12:44:51-22.79527-42.82739112°46km/h25728m5.9m/s-50.8°C0.9%23.0hPa0V00:00:0000:00:0000:00:00
PU1XMG-162026-08-31 12:44:46-22.79511-42.82782134°24km/h25693m6.2m/s-51.0°C1.0%23.1hPa0V00:00:0000:00:0000:00:00
PU1XMG-162026-08-31 12:44:41-22.79489-42.82810122°33km/h25653m6.0m/s-51.5°C1.0%23.3hPa0V00:00:0000:00:0000:00:00
PU1XMG-162026-08-31 12:44:34-22.79473-42.82863105°35km/h25611m5.6m/s-51.7°C1.0%23.4hPa0V00:00:0000:00:0000:00:00
PU1XMG-162026-08-31 12:44:29-22.79464-42.82898115°24km/h25577m6.9m/s-51.8°C1.0%23.5hPa0V00:00:0000:00:0000:00:00
PU1XMG-162026-08-31 12:44:24-22.79452-42.82929108°24km/h25543m6.2m/s-52.0°C1.0%23.6hPa0V00:00:0000:00:0000:00:00
PU1XMG-162026-08-31 12:44:18-22.79444-42.8296785°24km/h25503m5.7m/s-52.3°C1.0%23.8hPa0V00:00:0000:00:0000:00:00
PU1XMG-162026-08-31 12:44:13-22.79445-42.8300088°18km/h25469m5.9m/s-52.6°C1.0%23.9hPa0V00:00:0000:00:0000:00:00
PU1XMG-162026-08-31 12:44:07-22.79447-42.8303674°27km/h25428m4.6m/s-52.8°C1.0%24.1hPa0V00:00:0000:00:0000:00:00
PU1XMG-162026-08-31 12:44:02-22.79457-42.8309093°31km/h25388m6.4m/s-53.7°C1.1%24.2hPa0V00:00:0000:00:0000:00:00
PU1XMG-162026-08-31 12:43:56-22.79439-42.83123148°24km/h25354m6.2m/s-54.0°C1.1%24.3hPa0V00:00:0000:00:0000:00:00
PU1XMG-162026-08-31 12:43:52-22.79420-42.83147101°26km/h25321m7.6m/s-54.1°C1.1%24.5hPa0V00:00:0000:00:0000:00:00
PU1XMG-162026-08-31 12:43:46-22.79415-42.83187100°26km/h25289m8.0m/s-54.1°C1.2%24.6hPa0V00:00:0000:00:0000:00:00
PU1XMG-162026-08-31 12:43:40-22.79406-42.8321985°22km/h25252m6.1m/s-54.3°C1.2%24.8hPa0V00:00:0000:00:0000:00:00
PU1XMG-162026-08-31 12:43:35-22.79420-42.8325474°31km/h25219m5.4m/s-54.4°C1.1%24.9hPa0V00:00:0000:00:0000:00:00
PU1XMG-162026-08-31 12:43:30-22.79422-42.83296105°26km/h25179m7.1m/s-55.0°C1.2%25.0hPa0V00:00:0000:00:0000:00:00
PU1XMG-162026-08-31 12:43:23-22.79418-42.8333993°27km/h25140m7.2m/s-55.4°C1.2%25.2hPa0V00:00:0000:00:0000:00:00
PU1XMG-162026-08-31 12:43:18-22.79407-42.83371141°24km/h25102m6.3m/s-55.9°C1.2%25.3hPa0V00:00:0000:00:0000:00:00
PU1XMG-162026-08-31 12:43:11-22.79376-42.83391156°16km/h25057m7.7m/s-55.8°C1.2%25.5hPa0V00:00:0000:00:0000:00:00
PU1XMG-162026-08-31 12:42:59-22.79353-42.83408118°13km/h24990m5.5m/s-56.2°C1.2%25.8hPa0V00:00:0000:00:0000:00:00
PU1XMG-162026-08-31 12:42:28-22.79341-42.83496106°24km/h24787m7.3m/s-56.1°C1.2%26.6hPa0V00:00:0000:00:0000:00:00
PU1XMG-162026-08-31 12:42:13-22.79338-42.8355398°18km/h24703m5.9m/s-55.8°C1.2%27.0hPa0V00:00:0000:00:0000:00:00
PU1XMG-162026-08-31 12:42:08-22.79340-42.8357977°13km/h24672m5.7m/s-55.7°C1.2%27.2hPa0V00:00:0000:00:0000:00:00
PU1XMG-162026-08-31 12:42:02-22.79354-42.83580332°5km/h24634m4.8m/s-55.8°C1.3%27.3hPa0V00:00:0000:00:0000:00:00
PU1XMG-162026-08-31 12:41:54-22.79358-42.8359286°11km/h24584m4.8m/s-56.0°C1.3%27.5hPa0V00:00:0000:00:0000:00:00
PU1XMG-162026-08-31 12:41:48-22.79360-42.8360042°7km/h24547m4.0m/s-56.0°C1.2%27.7hPa0V00:00:0000:00:0000:00:00
PU1XMG-162026-08-31 12:41:43-22.79362-42.8360783°9km/h24515m5.8m/s-56.0°C1.2%27.8hPa0V00:00:0000:00:0000:00:00
PU1XMG-162026-08-31 12:41:39-22.79358-42.8362771°11km/h24476m5.4m/s-56.1°C1.2%28.0hPa0V00:00:0000:00:0000:00:00
PU1XMG-162026-08-31 12:41:31-22.79362-42.8363875°9km/h24439m5.8m/s-55.9°C1.2%28.2hPa0V00:00:0000:00:0000:00:00
PU1XMG-162026-08-31 12:41:27-22.79359-42.8365486°15km/h24406m6.5m/s-56.2°C1.2%28.3hPa0V00:00:0000:00:0000:00:00
PU1XMG-162026-08-31 12:41:20-22.79364-42.8367561°18km/h24369m5.1m/s-56.3°C1.2%28.5hPa0V00:00:0000:00:0000:00:00
PU1XMG-162026-08-31 12:41:15-22.79369-42.8369781°18km/h24336m6.5m/s-56.3°C1.2%28.7hPa0V00:00:0000:00:0000:00:00
PU1XMG-162026-08-31 12:41:09-22.79367-42.8373292°22km/h24297m4.3m/s-56.3°C1.2%28.8hPa0V00:00:0000:00:0000:00:00
PU1XMG-162026-08-31 12:41:04-22.79362-42.8376296°24km/h24263m5.7m/s-56.5°C1.2%29.0hPa0V00:00:0000:00:0000:00:00
PU1XMG-162026-08-31 12:40:58-22.79350-42.83801118°26km/h24223m6.3m/s-56.7°C1.3%29.2hPa0V00:00:0000:00:0000:00:00
PU1XMG-162026-08-31 12:40:53-22.79328-42.83831120°26km/h24191m7.1m/s-56.8°C1.3%29.3hPa0V00:00:0000:00:0000:00:00
PU1XMG-162026-08-31 12:40:47-22.79316-42.83860120°18km/h24153m7.8m/s-56.8°C1.3%29.5hPa0V00:00:0000:00:0000:00:00
PU1XMG-162026-08-31 12:40:42-22.79297-42.83890116°27km/h24112m7.3m/s-57.1°C1.3%29.7hPa0V00:00:0000:00:0000:00:00
PU1XMG-162026-08-31 12:40:36-22.79284-42.83930114°20km/h24074m6.1m/s-57.3°C1.3%29.9hPa0V00:00:0000:00:0000:00:00
PU1XMG-162026-08-31 12:40:29-22.79264-42.83970119°37km/h24034m8.1m/s-57.6°C1.4%30.1hPa0V00:00:0000:00:0000:00:00
PU1XMG-162026-08-31 12:40:24-22.79241-42.84012122°35km/h24001m7.1m/s-57.4°C1.3%30.2hPa0V00:00:0000:00:0000:00:00
PU1XMG-162026-08-31 12:40:19-22.79219-42.84056127°37km/h23968m6.5m/s-57.4°C1.3%30.4hPa0V00:00:0000:00:0000:00:00
PU1XMG-162026-08-31 12:40:13-22.79195-42.84093126°22km/h23929m5.2m/s-57.6°C1.3%30.6hPa0V00:00:0000:00:0000:00:00
PU1XMG-162026-08-31 12:40:07-22.79176-42.84133133°31km/h23889m5.8m/s-57.7°C1.3%30.8hPa0V00:00:0000:00:0000:00:00
PU1XMG-162026-08-31 12:39:55-22.79117-42.84173115°26km/h23806m6.1m/s-57.6°C1.3%31.2hPa0V00:00:0000:00:0000:00:00
PU1XMG-162026-08-31 12:39:50-22.79092-42.84215127°40km/h23773m6.7m/s-57.6°C1.3%31.3hPa0V00:00:0000:00:0000:00:00
PU1XMG-162026-08-31 12:39:44-22.79056-42.84249143°24km/h23731m6.6m/s-57.5°C1.2%31.6hPa0V00:00:0000:00:0000:00:00
PU1XMG-162026-08-31 12:39:39-22.79024-42.84287127°37km/h23692m6.0m/s-57.6°C1.2%31.8hPa0V00:00:0000:00:0000:00:00
PU1XMG-162026-08-31 12:39:32-22.78976-42.84321160°35km/h23652m6.9m/s-57.9°C1.4%31.9hPa0V00:00:0000:00:0000:00:00
PU1XMG-162026-08-31 12:39:26-22.78932-42.84344142°27km/h23610m5.5m/s-58.2°C1.3%32.2hPa0V00:00:0000:00:0000:00:00
PU1XMG-162026-08-31 12:39:20-22.78890-42.84369168°27km/h23569m6.6m/s-58.7°C1.4%32.4hPa0V00:00:0000:00:0000:00:00
PU1XMG-162026-08-31 12:39:14-22.78851-42.84372177°16km/h23528m5.3m/s-58.8°C1.3%32.6hPa0V00:00:0000:00:0000:00:00
PU1XMG-162026-08-31 12:39:09-22.78831-42.84378153°13km/h23486m8.4m/s-58.9°C1.4%32.8hPa0V00:00:0000:00:0000:00:00
PU1XMG-162026-08-31 12:39:03-22.78818-42.84385158°11km/h23453m6.1m/s-59.0°C1.4%33.0hPa0V00:00:0000:00:0000:00:00
PU1XMG-162026-08-31 12:38:58-22.78802-42.84397125°18km/h23420m5.4m/s-59.3°C1.4%33.2hPa0V00:00:0000:00:0000:00:00
PU1XMG-162026-08-31 12:38:52-22.78777-42.84422158°22km/h23381m6.6m/s-59.2°C1.3%33.4hPa0V00:00:0000:00:0000:00:00
PU1XMG-162026-08-31 12:38:47-22.78746-42.84439127°18km/h23341m6.9m/s-59.9°C1.4%33.6hPa0V00:00:0000:00:0000:00:00
PU1XMG-162026-08-31 12:38:41-22.78739-42.84461117°7km/h23309m4.8m/s-60.0°C1.4%33.8hPa0V00:00:0000:00:0000:00:00
PU1XMG-162026-08-31 12:38:36-22.78726-42.84462182°9km/h23270m7.8m/s-60.1°C1.5%34.0hPa0V00:00:0000:00:0000:00:00
PU1XMG-162026-08-31 12:38:30-22.78720-42.8447178°9km/h23239m5.0m/s-59.9°C1.4%34.2hPa0V00:00:0000:00:0000:00:00
PU1XMG-162026-08-31 12:38:25-22.78718-42.84483122°2km/h23207m6.7m/s-60.0°C1.4%34.3hPa0V00:00:0000:00:0000:00:00
PU1XMG-162026-08-31 12:38:19-22.78711-42.8448386°4km/h23169m5.3m/s-60.2°C1.5%34.5hPa0V00:00:0000:00:0000:00:00
PU1XMG-162026-08-31 12:38:15-22.78715-42.8449952°18km/h23136m6.6m/s-60.1°C1.5%34.7hPa0V00:00:0000:00:0000:00:00
PU1XMG-162026-08-31 12:38:09-22.78725-42.8451576°9km/h23105m7.6m/s-60.2°C1.5%34.9hPa0V00:00:0000:00:0000:00:00
PU1XMG-162026-08-31 12:38:04-22.78724-42.8453381°13km/h23067m7.3m/s-60.0°C1.5%35.1hPa0V00:00:0000:00:0000:00:00
PU1XMG-162026-08-31 12:37:58-22.78732-42.8455664°15km/h23037m7.7m/s-59.9°C1.4%35.3hPa0V00:00:0000:00:0000:00:00
PU1XMG-162026-08-31 12:37:52-22.78729-42.84573133°13km/h22998m5.7m/s-59.8°C1.4%35.5hPa0V00:00:0000:00:0000:00:00
PU1XMG-162026-08-31 12:37:47-22.78721-42.8459788°9km/h22962m5.2m/s-59.5°C1.4%35.7hPa0V00:00:0000:00:0000:00:00
PU1XMG-162026-08-31 12:37:41-22.78723-42.8461061°7km/h22931m6.0m/s-59.3°C1.4%35.9hPa0V00:00:0000:00:0000:00:00
PU1XMG-162026-08-31 12:37:36-22.78719-42.84623123°13km/h22901m7.9m/s-59.5°C1.4%36.0hPa0V00:00:0000:00:0000:00:00
PU1XMG-162026-08-31 12:37:30-22.78703-42.84642151°11km/h22864m5.0m/s-59.4°C1.4%36.3hPa0V00:00:0000:00:0000:00:00
PU1XMG-162026-08-31 12:37:25-22.78690-42.84647195°7km/h22833m5.6m/s-59.3°C1.4%36.5hPa0V00:00:0000:00:0000:00:00
PU1XMG-162026-08-31 12:37:19-22.78675-42.84645180°11km/h22794m7.8m/s-59.4°C1.4%36.7hPa0V00:00:0000:00:0000:00:00
PU1XMG-162026-08-31 12:37:14-22.78662-42.84647167°11km/h22764m8.2m/s-59.4°C1.4%36.9hPa0V00:00:0000:00:0000:00:00
PU1XMG-162026-08-31 12:37:08-22.78649-42.84648186°7km/h22729m4.8m/s-59.3°C1.4%37.1hPa0V00:00:0000:00:0000:00:00
PU1XMG-162026-08-31 12:37:02-22.78637-42.84645182°11km/h22693m6.0m/s-59.2°C1.4%37.3hPa0V00:00:0000:00:0000:00:00
PU1XMG-162026-08-31 12:36:57-22.78624-42.84642193°13km/h22662m3.9m/s-59.2°C1.4%37.5hPa0V00:00:0000:00:0000:00:00
PU1XMG-162026-08-31 12:36:52-22.78608-42.84636193°13km/h22633m5.0m/s-59.1°C1.4%37.7hPa0V00:00:0000:00:0000:00:00
PU1XMG-162026-08-31 12:36:47-22.78594-42.84626206°11km/h22603m6.0m/s-59.0°C1.4%37.9hPa0V00:00:0000:00:0000:00:00
PU1XMG-162026-08-31 12:36:41-22.78581-42.84612232°9km/h22568m5.4m/s-59.2°C1.4%38.1hPa0V00:00:0000:00:0000:00:00
PU1XMG-162026-08-31 12:36:35-22.78563-42.84601194°16km/h22534m4.6m/s-59.2°C1.4%38.3hPa0V00:00:0000:00:0000:00:00
PU1XMG-162026-08-31 12:36:30-22.78542-42.84591214°18km/h22503m3.2m/s-59.0°C1.3%38.5hPa0V00:00:0000:00:0000:00:00
PU1XMG-162026-08-31 12:36:25-22.78519-42.84576203°22km/h22474m4.6m/s-59.2°C1.5%38.7hPa0V00:00:0000:00:0000:00:00
PU1XMG-162026-08-31 12:36:19-22.78485-42.84563200°22km/h22437m7.1m/s-59.1°C1.4%38.9hPa0V00:00:0000:00:0000:00:00
PU1XMG-162026-08-31 12:36:13-22.78453-42.84548212°20km/h22402m8.0m/s-59.0°C1.4%39.1hPa0V00:00:0000:00:0000:00:00
PU1XMG-162026-08-31 12:36:08-22.78432-42.84530222°24km/h22372m7.9m/s-58.9°C1.4%39.3hPa0V00:00:0000:00:0000:00:00
PU1XMG-162026-08-31 12:36:02-22.78399-42.84504215°31km/h22335m5.5m/s-58.7°C1.4%39.5hPa0V00:00:0000:00:0000:00:00
PU1XMG-162026-08-31 12:35:59-22.78369-42.84484220°26km/h22304m3.4m/s-58.5°C1.3%39.7hPa0V00:00:0000:00:0000:00:00
PU1XMG-162026-08-31 12:35:51-22.78340-42.84464206°22km/h22269m7.2m/s-58.6°C1.4%39.9hPa0V00:00:0000:00:0000:00:00
PU1XMG-162026-08-31 12:35:46-22.78319-42.84447233°20km/h22239m8.0m/s-58.6°C1.4%40.1hPa0V00:00:0000:00:0000:00:00
PU1XMG-162026-08-31 12:35:40-22.78290-42.84423200°26km/h22202m4.6m/s-58.4°C1.4%40.4hPa0V00:00:0000:00:0000:00:00
PU1XMG-162026-08-31 12:35:35-22.78262-42.84404234°22km/h22173m7.2m/s-58.3°C1.3%40.6hPa0V00:00:0000:00:0000:00:00
PU1XMG-162026-08-31 12:35:29-22.78246-42.84374229°20km/h22136m5.3m/s-58.4°C1.3%40.8hPa0V00:00:0000:00:0000:00:00
PU1XMG-162026-08-31 12:35:23-22.78210-42.84347218°29km/h22098m4.9m/s-58.5°C1.3%41.0hPa0V00:00:0000:00:0000:00:00
PU1XMG-162026-08-31 12:35:18-22.78188-42.84322243°16km/h22069m5.5m/s-58.4°C1.4%41.2hPa0V00:00:0000:00:0000:00:00
PU1XMG-162026-08-31 12:35:12-22.78171-42.84299217°18km/h22031m6.5m/s-58.4°C1.3%41.5hPa0V00:00:0000:00:0000:00:00
PU1XMG-162026-08-31 12:35:07-22.78155-42.84283241°13km/h21998m6.6m/s-58.6°C1.4%41.7hPa0V00:00:0000:00:0000:00:00
PU1XMG-162026-08-31 12:35:02-22.78155-42.84264276°13km/h21961m6.4m/s-58.4°C1.4%42.0hPa0V00:00:0000:00:0000:00:00
PU1XMG-162026-08-31 12:34:57-22.78152-42.84252223°7km/h21933m5.2m/s-58.3°C1.3%42.1hPa0V00:00:0000:00:0000:00:00
PU1XMG-162026-08-31 12:34:51-22.78149-42.84232273°18km/h21896m6.7m/s-58.6°C1.4%42.4hPa0V00:00:0000:00:0000:00:00
PU1XMG-162026-08-31 12:34:45-22.78136-42.84214192°20km/h21861m6.7m/s-58.6°C1.4%42.6hPa0V00:00:0000:00:0000:00:00
PU1XMG-162026-08-31 12:34:39-22.78116-42.84207228°16km/h21833m6.9m/s-58.5°C1.4%42.8hPa0V00:00:0000:00:0000:00:00
PU1XMG-162026-08-31 12:34:33-22.78102-42.84181232°16km/h21796m7.5m/s-59.0°C1.4%43.1hPa0V00:00:0000:00:0000:00:00
PU1XMG-162026-08-31 12:34:28-22.78089-42.84171216°7km/h21767m4.2m/s-59.2°C1.4%43.3hPa0V00:00:0000:00:0000:00:00
PU1XMG-162026-08-31 12:34:23-22.78079-42.84154248°15km/h21730m6.9m/s-59.4°C1.4%43.5hPa0V00:00:0000:00:0000:00:00
PU1XMG-162026-08-31 12:34:16-22.78081-42.84138338°7km/h21693m6.5m/s-59.8°C1.5%43.8hPa0V00:00:0000:00:0000:00:00
PU1XMG-162026-08-31 12:34:10-22.78087-42.84142273°7km/h21656m4.6m/s-59.9°C1.5%44.1hPa0V00:00:0000:00:0000:00:00
PU1XMG-162026-08-31 12:34:05-22.78094-42.84124300°22km/h21625m5.8m/s-59.8°C1.4%44.3hPa0V00:00:0000:00:0000:00:00
PU1XMG-162026-08-31 12:33:59-22.78112-42.84110334°7km/h21590m5.8m/s-59.7°C1.5%44.5hPa0V00:00:0000:00:0000:00:00
PU1XMG-162026-08-31 12:33:54-22.78117-42.84099269°20km/h21558m4.9m/s-59.8°C1.5%44.8hPa0V00:00:0000:00:0000:00:00
PU1XMG-162026-08-31 12:33:48-22.78122-42.84073316°5km/h21522m6.6m/s-59.9°C1.5%45.0hPa0V00:00:0000:00:0000:00:00
PU1XMG-162026-08-31 12:33:37-22.78140-42.84054304°20km/h21452m7.3m/s-60.2°C1.5%45.5hPa0V00:00:0000:00:0000:00:00
PU1XMG-162026-08-31 12:33:31-22.78148-42.8404238°2km/h21413m5.6m/s-60.4°C1.5%45.8hPa0V00:00:0000:00:0000:00:00
PU1XMG-162026-08-31 12:33:26-22.78151-42.84031304°16km/h21377m5.4m/s-60.4°C1.5%46.1hPa0V00:00:0000:00:0000:00:00
PU1XMG-162026-08-31 12:32:15-22.78269-42.83782313°29km/h20939m5.8m/s-60.8°C1.7%49.4hPa0V00:00:0000:00:0000:00:00
PU1XMG-162026-08-31 12:32:06-22.78297-42.83735313°22km/h20895m6.7m/s-60.8°C1.6%49.8hPa0V00:00:0000:00:0000:00:00
PU1XMG-162026-08-31 12:32:00-22.78321-42.83714327°24km/h20860m4.8m/s-60.9°C1.7%50.1hPa0V00:00:0000:00:0000:00:00
PU1XMG-162026-08-31 12:31:54-22.78362-42.83697350°27km/h20824m6.2m/s-61.0°C1.7%50.4hPa0V00:00:0000:00:0000:00:00
PU1XMG-162026-08-31 12:31:48-22.78398-42.83691354°24km/h20789m6.6m/s-61.3°C1.7%50.7hPa0V00:00:0000:00:0000:00:00
PU1XMG-162026-08-31 12:31:43-22.78441-42.83690360°31km/h20756m4.1m/s-61.5°C1.7%50.9hPa0V00:00:0000:00:0000:00:00
PU1XMG-162026-08-31 12:31:37-22.78477-42.8369424km/h20727m3.6m/s-61.5°C1.7%51.2hPa0V00:00:0000:00:0000:00:00
PU1XMG-162026-08-31 12:31:32-22.78498-42.83697358°15km/h20699m4.3m/s-61.8°C1.7%51.4hPa0V00:00:0000:00:0000:00:00
PU1XMG-162026-08-31 12:31:27-22.78516-42.83694345°16km/h20670m4.8m/s-62.0°C1.8%51.7hPa0V00:00:0000:00:0000:00:00
PU1XMG-162026-08-31 12:31:21-22.78536-42.83689359°13km/h20634m6.4m/s-62.2°C1.9%52.0hPa0V00:00:0000:00:0000:00:00
PU1XMG-162026-08-31 12:31:15-22.78561-42.83680342°22km/h20601m4.6m/s-62.5°C1.8%52.3hPa0V00:00:0000:00:0000:00:00
PU1XMG-162026-08-31 12:31:10-22.78585-42.8367013km/h20573m4.7m/s-62.7°C1.9%52.5hPa0V00:00:0000:00:0000:00:00
PU1XMG-162026-08-31 12:31:04-22.78601-42.8367515°16km/h20540m5.7m/s-62.9°C1.9%52.8hPa0V00:00:0000:00:0000:00:00
PU1XMG-162026-08-31 12:30:59-22.78627-42.8367927°22km/h20513m4.7m/s-62.7°C2.0%53.0hPa0V00:00:0000:00:0000:00:00
PU1XMG-162026-08-31 12:30:53-22.78650-42.8369639°18km/h20481m4.3m/s-62.7°C2.0%53.3hPa0V00:00:0000:00:0000:00:00
PU1XMG-162026-08-31 12:30:48-22.78669-42.8370617°20km/h20453m3.6m/s-62.7°C2.0%53.5hPa0V00:00:0000:00:0000:00:00
PU1XMG-162026-08-31 12:30:43-22.78691-42.8371433°20km/h20425m3.9m/s-62.6°C2.0%53.8hPa0V00:00:0000:00:0000:00:00
PU1XMG-162026-08-31 12:30:39-22.78707-42.8372424°15km/h20397m5.4m/s-62.5°C2.0%54.0hPa0V00:00:0000:00:0000:00:00
PU1XMG-162026-08-31 12:30:32-22.78730-42.8372315km/h20366m4.2m/s-62.4°C2.0%54.3hPa0V00:00:0000:00:0000:00:00
PU1XMG-162026-08-31 12:30:27-22.78740-42.8373195°7km/h20338m5.2m/s-62.6°C1.9%54.5hPa0V00:00:0000:00:0000:00:00
PU1XMG-162026-08-31 12:30:21-22.78742-42.83734328°9km/h20303m4.9m/s-63.1°C2.0%54.9hPa0V00:00:0000:00:0000:00:00
PU1XMG-162026-08-31 12:30:17-22.78758-42.83730353°7km/h20276m3.9m/s-63.2°C2.0%55.1hPa0V00:00:0000:00:0000:00:00
PU1XMG-162026-08-31 12:30:11-22.78762-42.837330km/h20249m5.4m/s-64.1°C2.1%55.3hPa0V00:00:0000:00:0000:00:00
PU1XMG-162026-08-31 12:30:05-22.78774-42.8373825°15km/h20217m5.0m/s-64.4°C2.2%55.6hPa0V00:00:0000:00:0000:00:00
PU1XMG-162026-08-31 12:29:58-22.78788-42.8375149°7km/h20180m6.2m/s-65.1°C2.3%56.0hPa0V00:00:0000:00:0000:00:00
PU1XMG-162026-08-31 12:29:53-22.78800-42.8376765°18km/h20151m4.7m/s-65.1°C2.4%56.2hPa0V00:00:0000:00:0000:00:00
PU1XMG-162026-08-31 12:29:46-22.78806-42.8380596°20km/h20112m6.3m/s-64.9°C2.4%56.6hPa0V00:00:0000:00:0000:00:00
PU1XMG-162026-08-31 12:29:42-22.78804-42.83830100°20km/h20082m4.3m/s-64.9°C2.4%56.9hPa0V00:00:0000:00:0000:00:00
PU1XMG-162026-08-31 12:29:37-22.78799-42.83853108°20km/h20053m5.5m/s-64.8°C2.4%57.1hPa0V00:00:0000:00:0000:00:00
PU1XMG-162026-08-31 12:29:30-22.78792-42.83882101°20km/h20020m5.0m/s-64.6°C2.3%57.5hPa0V00:00:0000:00:0000:00:00
PU1XMG-162026-08-31 12:29:24-22.78780-42.83915128°16km/h19980m6.8m/s-64.3°C2.3%57.8hPa0V00:00:0000:00:0000:00:00
PU1XMG-162026-08-31 12:28:43-22.78602-42.84030160°13km/h19734m7.3m/s-64.7°C2.4%60.2hPa0V00:00:0000:00:0000:00:00
PU1XMG-162026-08-31 12:28:35-22.78578-42.84042151°16km/h19692m7.1m/s-64.5°C2.3%60.7hPa0V00:00:0000:00:0000:00:00
PU1XMG-162026-08-31 12:28:29-22.78556-42.84055147°16km/h19658m5.0m/s-64.4°C2.4%61.0hPa0V00:00:0000:00:0000:00:00
PU1XMG-162026-08-31 12:28:24-22.78537-42.84066156°18km/h19628m6.3m/s-64.3°C2.3%61.3hPa0V00:00:0000:00:0000:00:00
PU1XMG-162026-08-31 12:28:18-22.78512-42.84080156°18km/h19592m5.8m/s-64.3°C2.3%61.6hPa0V00:00:0000:00:0000:00:00
PU1XMG-162026-08-31 12:28:13-22.78490-42.84093160°22km/h19563m7.1m/s-64.1°C2.3%61.9hPa0V00:00:0000:00:0000:00:00
PU1XMG-162026-08-31 12:28:07-22.78470-42.84101194°7km/h19530m5.5m/s-64.0°C2.3%62.3hPa0V00:00:0000:00:0000:00:00
PU1XMG-162026-08-31 12:28:02-22.78463-42.84101182°11km/h19501m5.4m/s-64.3°C2.3%62.6hPa0V00:00:0000:00:0000:00:00
PU1XMG-162026-08-31 12:27:56-22.78444-42.84100200°9km/h19465m6.4m/s-64.2°C2.5%63.0hPa0V00:00:0000:00:0000:00:00
PU1XMG-162026-08-31 12:27:51-22.78436-42.84094206°4km/h19436m6.8m/s-64.1°C2.3%63.2hPa0V00:00:0000:00:0000:00:00
PU1XMG-162026-08-31 12:27:46-22.78429-42.84090234°5km/h19407m7.1m/s-63.9°C2.3%63.5hPa0V00:00:0000:00:0000:00:00
PU1XMG-162026-08-31 12:27:41-22.78429-42.84078300°15km/h19375m5.3m/s-63.8°C2.4%63.9hPa0V00:00:0000:00:0000:00:00
PU1XMG-162026-08-31 12:27:36-22.78434-42.84061261°5km/h19340m6.3m/s-63.9°C2.4%64.2hPa0V00:00:0000:00:0000:00:00
PU1XMG-162026-08-31 12:27:29-22.78434-42.84053288°13km/h19305m4.8m/s-63.9°C2.4%64.6hPa0V00:00:0000:00:0000:00:00
PU1XMG-162026-08-31 12:27:24-22.78444-42.84034296°18km/h19276m5.9m/s-63.7°C2.4%64.9hPa0V00:00:0000:00:0000:00:00
PU1XMG-162026-08-31 12:27:19-22.78457-42.84023349°13km/h19251m5.6m/s-63.6°C2.4%65.2hPa0V00:00:0000:00:0000:00:00
PU1XMG-162026-08-31 12:27:13-22.78472-42.84022315°11km/h19216m5.0m/s-63.3°C2.5%65.6hPa0V00:00:0000:00:0000:00:00
PU1XMG-162026-08-31 12:26:34-22.78700-42.8404024°37km/h18981m5.4m/s-62.5°C2.5%68.1hPa0V00:00:0000:00:0000:00:00
PU1XMG-162026-08-31 12:26:27-22.78752-42.8406933°37km/h18936m6.3m/s-62.7°C2.5%68.6hPa0V00:00:0000:00:0000:00:00
PU1XMG-162026-08-31 12:26:18-22.78839-42.8411930°47km/h18884m4.4m/s-62.8°C2.6%69.2hPa0V00:00:0000:00:0000:00:00
PU1XMG-162026-08-31 12:26:08-22.78930-42.8419345°44km/h18833m2.3m/s-62.9°C2.6%69.8hPa0V00:00:0000:00:0000:00:00
PU1XMG-162026-08-31 12:26:03-22.78975-42.8424347°44km/h18802m7.4m/s-62.9°C2.7%70.1hPa0V00:00:0000:00:0000:00:00
PU1XMG-162026-08-31 12:25:57-22.79026-42.8429948°49km/h18768m5.8m/s-63.3°C2.6%70.5hPa0V00:00:0000:00:0000:00:00
PU1XMG-162026-08-31 12:25:50-22.79072-42.8436053°46km/h18735m3.7m/s-63.8°C2.9%70.9hPa0V00:00:0000:00:0000:00:00
PU1XMG-162026-08-31 12:25:45-22.79106-42.8440953°44km/h18709m3.3m/s-64.2°C2.8%71.2hPa0V00:00:0000:00:0000:00:00
PU1XMG-162026-08-31 12:25:40-22.79136-42.8446666°51km/h18681m4.6m/s-64.6°C3.0%71.5hPa0V00:00:0000:00:0000:00:00
PU1XMG-162026-08-31 12:25:34-22.79164-42.8453664°44km/h18649m5.7m/s-64.9°C3.2%71.9hPa0V00:00:0000:00:0000:00:00
PU1XMG-162026-08-31 12:25:28-22.79195-42.8460061°46km/h18616m5.8m/s-64.8°C3.2%72.3hPa0V00:00:0000:00:0000:00:00
PU1XMG-162026-08-31 12:25:19-22.79233-42.8469075°31km/h18564m4.4m/s-64.6°C3.3%72.9hPa0V00:00:0000:00:0000:00:00
PU1XMG-162026-08-31 12:25:14-22.79243-42.8473775°38km/h18536m5.2m/s-64.5°C3.3%73.2hPa0V00:00:0000:00:0000:00:00
PU1XMG-162026-08-31 12:25:09-22.79263-42.8479871°38km/h18501m4.2m/s-64.2°C3.3%73.7hPa0V00:00:0000:00:0000:00:00
PU1XMG-162026-08-31 12:25:02-22.79277-42.8485478°37km/h18464m5.9m/s-64.0°C3.4%74.1hPa0V00:00:0000:00:0000:00:00
PU1XMG-162026-08-31 12:24:57-22.79292-42.8490871°40km/h18436m4.9m/s-63.9°C3.4%74.5hPa0V00:00:0000:00:0000:00:00
PU1XMG-162026-08-31 12:24:53-22.79309-42.8496677°33km/h18400m6.6m/s-63.8°C3.4%74.9hPa0V00:00:0000:00:0000:00:00
PU1XMG-162026-08-31 12:24:46-22.79321-42.8501175°38km/h18372m6.4m/s-63.9°C3.2%75.2hPa0V00:00:0000:00:0000:00:00
PU1XMG-162026-08-31 12:24:40-22.79346-42.8507364°40km/h18336m6.2m/s-64.8°C3.7%75.6hPa0V00:00:0000:00:0000:00:00
PU1XMG-162026-08-31 12:24:34-22.79367-42.8512167°29km/h18301m5.5m/s-64.9°C4.0%76.1hPa0V00:00:0000:00:0000:00:00
PU1XMG-162026-08-31 12:24:28-22.79389-42.8516761°35km/h18266m6.1m/s-64.9°C3.9%76.5hPa0V00:00:0000:00:0000:00:00
PU1XMG-162026-08-31 12:24:23-22.79407-42.8520372°27km/h18238m6.1m/s-64.8°C3.8%76.9hPa0V00:00:0000:00:0000:00:00
PU1XMG-162026-08-31 12:24:17-22.79415-42.8524782°29km/h18205m5.9m/s-65.2°C4.1%77.3hPa0V00:00:0000:00:0000:00:00
PU1XMG-162026-08-31 12:24:11-22.79423-42.8529283°24km/h18170m3.6m/s-65.8°C4.2%77.8hPa0V00:00:0000:00:0000:00:00
PU1XMG-162026-08-31 12:24:06-22.79421-42.85327104°27km/h18142m4.0m/s-66.5°C4.5%78.1hPa0V00:00:0000:00:0000:00:00
PU1XMG-162026-08-31 12:24:00-22.79407-42.8539199°47km/h18107m7.5m/s-66.6°C4.5%78.6hPa0V00:00:0000:00:0000:00:00
PU1XMG-162026-08-31 12:23:55-22.79399-42.85450107°38km/h18079m6.1m/s-66.9°C5.1%78.9hPa0V00:00:0000:00:0000:00:00
PU1XMG-162026-08-31 12:23:50-22.79381-42.85499115°42km/h18051m6.8m/s-66.9°C5.1%79.3hPa0V00:00:0000:00:0000:00:00
PU1XMG-162026-08-31 12:23:44-22.79358-42.85566111°42km/h18018m7.1m/s-66.6°C5.1%79.7hPa0V00:00:0000:00:0000:00:00
PU1XMG-162026-08-31 12:23:38-22.79327-42.85623129°38km/h17983m5.3m/s-66.4°C5.3%80.2hPa0V00:00:0000:00:0000:00:00
PU1XMG-162026-08-31 12:23:33-22.79299-42.85670121°42km/h17956m6.3m/s-66.6°C5.5%80.5hPa0V00:00:0000:00:0000:00:00
PU1XMG-162026-08-31 12:23:26-22.79261-42.85745119°37km/h17913m4.4m/s-66.6°C5.7%81.1hPa0V00:00:0000:00:0000:00:00
PU1XMG-162026-08-31 12:23:19-22.79232-42.85798128°37km/h17879m4.9m/s-66.7°C6.2%81.6hPa0V00:00:0000:00:0000:00:00
PU1XMG-162026-08-31 12:23:14-22.79207-42.85832132°31km/h17852m4.2m/s-66.5°C6.3%82.0hPa0V00:00:0000:00:0000:00:00
PU1XMG-162026-08-31 12:23:07-22.79176-42.85879122°31km/h17812m4.7m/s-66.2°C6.6%82.5hPa0V00:00:0000:00:0000:00:00
PU1XMG-162026-08-31 12:23:00-22.79144-42.85926133°31km/h17775m3.9m/s-65.9°C6.8%83.0hPa0V00:00:0000:00:0000:00:00
PU1XMG-162026-08-31 12:22:54-22.79117-42.85964123°31km/h17742m5.8m/s-66.1°C6.9%83.4hPa0V00:00:0000:00:0000:00:00
PU1XMG-162026-08-31 12:22:47-22.79079-42.86015133°33km/h17706m5.8m/s-66.5°C7.8%84.0hPa0V00:00:0000:00:0000:00:00
PU1XMG-162026-08-31 12:22:41-22.79052-42.86049136°27km/h17674m5.2m/s-66.7°C8.1%84.4hPa0V00:00:0000:00:0000:00:00
PU1XMG-162026-08-31 12:22:34-22.79012-42.86095135°31km/h17636m5.4m/s-66.9°C9.0%84.9hPa0V00:00:0000:00:0000:00:00
PU1XMG-162026-08-31 12:22:28-22.78983-42.86127133°27km/h17604m4.9m/s-67.1°C9.5%85.4hPa0V00:00:0000:00:0000:00:00
PU1XMG-162026-08-31 12:22:23-22.78953-42.86158139°33km/h17577m6.4m/s-67.2°C10.0%85.8hPa0V00:00:0000:00:0000:00:00
PU1XMG-162026-08-31 12:22:16-22.78914-42.86188149°26km/h17539m6.2m/s-67.1°C10.0%86.3hPa0V00:00:0000:00:0000:00:00
PU1XMG-162026-08-31 12:22:10-22.78872-42.86218141°37km/h17505m5.7m/s-68.1°C11.2%86.8hPa0V00:00:0000:00:0000:00:00
PU1XMG-162026-08-31 12:22:04-22.78842-42.86257118°27km/h17471m7.8m/s-68.9°C12.7%87.3hPa0V00:00:0000:00:0000:00:00
PU1XMG-162026-08-31 12:21:59-22.78821-42.86293137°27km/h17436m5.0m/s-68.9°C12.4%87.8hPa0V00:00:0000:00:0000:00:00
PU1XMG-162026-08-31 12:21:53-22.78796-42.86314142°20km/h17408m7.1m/s-68.9°C13.6%88.3hPa0V00:00:0000:00:0000:00:00
PU1XMG-162026-08-31 12:21:48-22.78785-42.86330124°15km/h17378m5.4m/s-69.1°C12.9%88.7hPa0V00:00:0000:00:0000:00:00
PU1XMG-162026-08-31 12:21:42-22.78771-42.86349117°18km/h17343m4.8m/s-69.3°C12.4%89.2hPa0V00:00:0000:00:0000:00:00
PU1XMG-162026-08-31 12:21:36-22.78754-42.86377143°18km/h17311m4.3m/s-69.7°C10.8%89.6hPa0V00:00:0000:00:0000:00:00
PU1XMG-162026-08-31 12:21:30-22.78740-42.86399105°20km/h17280m6.1m/s-73.5°C14.9%90.1hPa0V00:00:0000:00:0000:00:00
PU1XMG-162026-08-31 12:21:24-22.78737-42.8644693°33km/h17248m3.8m/s-75.7°C18.7%90.6hPa0V00:00:0000:00:0000:00:00
PU1XMG-162026-08-31 12:21:19-22.78734-42.8648496°24km/h17222m3.9m/s-75.7°C19.4%91.0hPa0V00:00:0000:00:0000:00:00
PU1XMG-162026-08-31 12:21:14-22.78736-42.8651085°18km/h17196m3.9m/s-75.7°C19.3%91.5hPa0V00:00:0000:00:0000:00:00
PU1XMG-162026-08-31 12:21:10-22.78737-42.8653198°13km/h17167m5.4m/s-75.6°C19.0%91.9hPa0V00:00:0000:00:0000:00:00
PU1XMG-162026-08-31 12:21:03-22.78728-42.86545132°7km/h17133m4.6m/s-75.5°C18.8%92.4hPa0V00:00:0000:00:0000:00:00
PU1XMG-162026-08-31 12:20:58-22.78725-42.8655489°7km/h17105m6.3m/s-75.3°C18.7%92.9hPa0V00:00:0000:00:0000:00:00
PU1XMG-162026-08-31 12:20:53-22.78726-42.8656198°5km/h17079m5.6m/s-75.1°C18.6%93.3hPa0V00:00:0000:00:0000:00:00
PU1XMG-162026-08-31 12:20:48-22.78725-42.8656987°7km/h17052m3.7m/s-75.2°C19.5%93.8hPa0V00:00:0000:00:0000:00:00
PU1XMG-162026-08-31 12:20:37-22.78726-42.8657842°4km/h16990m4.7m/s-74.7°C18.8%94.8hPa0V00:00:0000:00:0000:00:00
PU1XMG-162026-08-31 12:20:32-22.78732-42.8658422°7km/h16964m4.6m/s-74.5°C19.0%95.2hPa0V00:00:0000:00:0000:00:00
PU1XMG-162026-08-31 12:20:26-22.78738-42.8658957°4km/h16933m6.4m/s-74.3°C19.0%95.7hPa0V00:00:0000:00:0000:00:00
PU1XMG-162026-08-31 12:20:21-22.78740-42.8659480°7km/h16905m7.4m/s-74.0°C18.8%96.2hPa0V00:00:0000:00:0000:00:00
PU1XMG-162026-08-31 12:20:15-22.78740-42.866040km/h16871m7.2m/s-73.8°C18.5%96.8hPa0V00:00:0000:00:0000:00:00
PU1XMG-162026-08-31 12:19:54-22.78738-42.86628104°5km/h16756m6.2m/s-73.0°C18.3%98.6hPa0V00:00:0000:00:0000:00:00
PU1XMG-162026-08-31 12:19:44-22.78742-42.8664590°9km/h16701m4.5m/s-72.9°C19.1%99.6hPa0V00:00:0000:00:0000:00:00
PU1XMG-162026-08-31 12:19:40-22.78741-42.8665996°11km/h16673m6.5m/s-72.8°C18.9%100.0hPa0V00:00:0000:00:0000:00:00
PU1XMG-162026-08-31 12:19:34-22.78739-42.86680103°15km/h16640m4.9m/s-72.8°C19.6%100.6hPa0V00:00:0000:00:0000:00:00
PU1XMG-162026-08-31 12:19:28-22.78740-42.8670381°18km/h16612m6.4m/s-72.8°C20.2%101.1hPa0V00:00:0000:00:0000:00:00
PU1XMG-162026-08-31 12:19:22-22.78738-42.86735108°24km/h16577m5.4m/s-72.6°C20.0%101.7hPa0V00:00:0000:00:0000:00:00
PU1XMG-162026-08-31 12:19:17-22.78730-42.8676695°22km/h16551m7.2m/s-72.5°C20.1%102.1hPa0V00:00:0000:00:0000:00:00
PU1XMG-162026-08-31 12:19:11-22.78734-42.86797103°16km/h16517m5.9m/s-72.5°C20.6%102.7hPa0V00:00:0000:00:0000:00:00
PU1XMG-162026-08-31 12:19:05-22.78720-42.86824110°22km/h16485m3.7m/s-72.6°C21.5%103.3hPa0V00:00:0000:00:0000:00:00
PU1XMG-162026-08-31 12:19:00-22.78723-42.8686177°22km/h16451m7.7m/s-72.7°C21.0%103.9hPa0V00:00:0000:00:0000:00:00
PU1XMG-162026-08-31 12:18:53-22.78716-42.86896113°26km/h16419m4.4m/s-72.6°C22.2%104.5hPa0V00:00:0000:00:0000:00:00
PU1XMG-162026-08-31 12:18:48-22.78713-42.8692979°24km/h16394m4.7m/s-72.7°C23.1%104.9hPa0V00:00:0000:00:0000:00:00
PU1XMG-162026-08-31 12:18:43-22.78712-42.86961110°24km/h16369m4.9m/s-72.6°C22.9%105.4hPa0V00:00:0000:00:0000:00:00
PU1XMG-162026-08-31 12:18:37-22.78696-42.87001106°26km/h16338m5.1m/s-72.5°C22.8%105.9hPa0V00:00:0000:00:0000:00:00
PU1XMG-162026-08-31 12:18:32-22.78688-42.87036106°22km/h16306m4.7m/s-72.4°C22.4%106.5hPa0V00:00:0000:00:0000:00:00
PU1XMG-162026-08-31 12:18:25-22.78674-42.87070122°26km/h16274m4.0m/s-72.6°C25.0%107.1hPa0V00:00:0000:00:0000:00:00
PU1XMG-162026-08-31 12:18:20-22.78659-42.87104112°26km/h16248m3.0m/s-73.0°C25.4%107.6hPa0V00:00:0000:00:0000:00:00
PU1XMG-162026-08-31 12:18:15-22.78651-42.87138102°27km/h16221m6.0m/s-72.8°C25.3%108.0hPa0V00:00:0000:00:0000:00:00
PU1XMG-162026-08-31 12:18:09-22.78639-42.87185110°31km/h16190m4.3m/s-72.5°C25.5%108.6hPa0V00:00:0000:00:0000:00:00
PU1XMG-162026-08-31 12:18:03-22.78625-42.87230101°26km/h16158m6.4m/s-72.4°C25.8%109.2hPa0V00:00:0000:00:0000:00:00
PU1XMG-162026-08-31 12:17:57-22.78617-42.87270110°24km/h16127m6.2m/s-72.3°C25.0%109.7hPa0V00:00:0000:00:0000:00:00
PU1XMG-162026-08-31 12:17:51-22.78599-42.87308121°27km/h16096m6.0m/s-72.1°C24.1%110.4hPa0V00:00:0000:00:0000:00:00
PU1XMG-162026-08-31 12:17:45-22.78584-42.87345117°18km/h16063m4.0m/s-72.0°C25.3%111.0hPa0V00:00:0000:00:0000:00:00
PU1XMG-162026-08-31 12:17:39-22.78571-42.87366139°15km/h16031m6.3m/s-71.9°C23.7%111.6hPa0V00:00:0000:00:0000:00:00
PU1XMG-162026-08-31 12:17:26-22.78522-42.87410157°15km/h15957m6.5m/s-71.2°C22.3%113.0hPa0V00:00:0000:00:0000:00:00
PU1XMG-162026-08-31 12:17:02-22.78444-42.87475122°20km/h15840m5.1m/s-70.2°C19.4%115.3hPa0V00:00:0000:00:0000:00:00
PU1XMG-162026-08-31 12:16:47-22.78385-42.87504147°16km/h15760m5.7m/s-69.8°C16.9%116.8hPa0V00:00:0000:00:0000:00:00
PU1XMG-162026-08-31 12:16:41-22.78358-42.87518168°24km/h15726m6.9m/s-69.6°C15.0%117.4hPa0V00:00:0000:00:0000:00:00
PU1XMG-162026-08-31 12:16:34-22.78316-42.87526159°26km/h15690m2.9m/s-69.2°C15.4%118.2hPa0V00:00:0000:00:0000:00:00
PU1XMG-162026-08-31 12:16:29-22.78291-42.87542149°22km/h15661m6.2m/s-69.0°C14.1%118.8hPa0V00:00:0000:00:0000:00:00
PU1XMG-162026-08-31 12:16:23-22.78260-42.87554166°18km/h15627m5.0m/s-68.6°C12.8%119.5hPa0V00:00:0000:00:0000:00:00
PU1XMG-162026-08-31 12:16:17-22.78231-42.87570144°26km/h15594m7.7m/s-68.4°C12.6%120.1hPa0V00:00:0000:00:0000:00:00
PU1XMG-162026-08-31 12:16:12-22.78206-42.87590155°24km/h15564m5.3m/s-68.1°C11.7%120.7hPa0V00:00:0000:00:0000:00:00
PU1XMG-162026-08-31 12:16:07-22.78184-42.87597170°20km/h15537m5.9m/s-67.9°C10.6%121.3hPa0V00:00:0000:00:0000:00:00
PU1XMG-162026-08-31 12:16:01-22.78154-42.87616138°24km/h15504m6.6m/s-67.6°C10.6%121.9hPa0V00:00:0000:00:0000:00:00
PU1XMG-162026-08-31 12:15:55-22.78130-42.87635158°16km/h15472m6.0m/s-67.3°C9.7%122.6hPa0V00:00:0000:00:0000:00:00
PU1XMG-162026-08-31 12:15:49-22.78105-42.87649144°22km/h15438m4.0m/s-66.9°C9.1%123.3hPa0V00:00:0000:00:0000:00:00
PU1XMG-162026-08-31 12:15:43-22.78084-42.87668143°15km/h15406m6.5m/s-66.6°C8.8%123.9hPa0V00:00:0000:00:0000:00:00
PU1XMG-162026-08-31 12:15:37-22.78065-42.87680151°16km/h15374m4.2m/s-66.3°C8.7%124.6hPa0V00:00:0000:00:0000:00:00
PU1XMG-162026-08-31 12:15:31-22.78040-42.87696149°18km/h15339m6.2m/s-66.1°C8.6%125.3hPa0V00:00:0000:00:0000:00:00
PU1XMG-162026-08-31 12:15:26-22.78022-42.87712142°18km/h15306m5.3m/s-65.8°C8.4%125.9hPa0V00:00:0000:00:0000:00:00
PU1XMG-162026-08-31 12:15:16-22.77987-42.87737134°16km/h15249m8.5m/s-65.3°C7.8%127.2hPa0V00:00:0000:00:0000:00:00
PU1XMG-162026-08-31 12:15:08-22.77967-42.87760140°15km/h15201m7.5m/s-65.0°C7.6%128.1hPa0V00:00:0000:00:0000:00:00
PU1XMG-162026-08-31 12:14:57-22.77946-42.87799115°15km/h15128m8.9m/s-64.4°C7.4%129.7hPa0V00:00:0000:00:0000:00:00
PU1XMG-162026-08-31 12:14:46-22.77932-42.8784496°15km/h15059m4.5m/s-63.8°C7.0%131.1hPa0V00:00:0000:00:0000:00:00
PU1XMG-162026-08-31 12:14:40-22.77932-42.8786889°13km/h15022m6.0m/s-63.6°C6.6%131.9hPa0V00:00:0000:00:0000:00:00
PU1XMG-162026-08-31 12:14:36-22.77938-42.8788049°9km/h14994m5.8m/s-63.3°C6.7%132.5hPa0V00:00:0000:00:0000:00:00
PU1XMG-162026-08-31 12:14:30-22.77944-42.8791082°29km/h14961m2.1m/s-62.9°C7.1%133.3hPa0V00:00:0000:00:0000:00:00
PU1XMG-162026-08-31 12:14:23-22.77959-42.8794056°5km/h14916m7.1m/s-63.1°C6.6%134.2hPa0V00:00:0000:00:0000:00:00
PU1XMG-162026-08-31 12:14:16-22.77946-42.87970107°42km/h14886m3.5m/s-62.8°C6.3%134.8hPa0V00:00:0000:00:0000:00:00
PU1XMG-162026-08-31 12:14:11-22.77949-42.8801824°29km/h14842m6.1m/s-62.4°C6.4%135.9hPa0V00:00:0000:00:0000:00:00
PU1XMG-162026-08-31 12:14:04-22.77993-42.8806774°44km/h14792m10.8m/s-62.0°C6.2%136.9hPa0V00:00:0000:00:0000:00:00
PU1XMG-162026-08-31 12:14:00-22.78012-42.8809330°16km/h14745m11.1m/s-61.7°C6.0%138.0hPa0V00:00:0000:00:0000:00:00
PU1XMG-162026-08-31 12:13:53-22.78042-42.8813162°44km/h14684m11.8m/s-61.5°C6.0%139.3hPa0V00:00:0000:00:0000:00:00
PU1XMG-162026-08-31 12:13:49-22.78066-42.8817833°40km/h14646m6.7m/s-61.4°C5.9%140.2hPa0V00:00:0000:00:0000:00:00
PU1XMG-162026-08-31 12:13:43-22.78107-42.8820668°37km/h14603m6.1m/s-61.4°C5.9%141.2hPa0V00:00:0000:00:0000:00:00
PU1XMG-162026-08-31 12:13:38-22.78124-42.8826046°46km/h14568m8.2m/s-61.3°C5.7%142.0hPa0V00:00:0000:00:0000:00:00
PU1XMG-162026-08-31 12:13:33-22.78183-42.8831055°58km/h14526m6.5m/s-61.7°C5.5%142.9hPa0V00:00:0000:00:0000:00:00
PU1XMG-162026-08-31 12:13:27-22.78233-42.8838947°71km/h14478m10.0m/s-61.9°C6.0%144.1hPa0V00:00:0000:00:0000:00:00
PU1XMG-162026-08-31 12:13:22-22.78297-42.8846952°80km/h14444m7.6m/s-61.8°C6.4%144.9hPa0V00:00:0000:00:0000:00:00
PU1XMG-162026-08-31 12:13:16-22.78368-42.8857151°78km/h14408m4.1m/s-61.7°C6.2%145.7hPa0V00:00:0000:00:0000:00:00
PU1XMG-162026-08-31 12:13:10-22.78448-42.8865748°71km/h14372m6.1m/s-61.6°C5.9%146.5hPa0V00:00:0000:00:0000:00:00
PU1XMG-162026-08-31 12:13:04-22.78524-42.8877851°104km/h14323m6.5m/s-61.6°C6.0%147.7hPa0V00:00:0000:00:0000:00:00
PU1XMG-162026-08-31 12:12:58-22.78627-42.8892655°99km/h14271m3.9m/s-62.1°C6.3%149.0hPa0V00:00:0000:00:0000:00:00
PU1XMG-162026-08-31 12:12:52-22.78707-42.8903649°106km/h14244m4.2m/s-62.1°C6.4%149.6hPa0V00:00:0000:00:0000:00:00
PU1XMG-162026-08-31 12:12:47-22.78791-42.8915054°106km/h14211m10.0m/s-62.0°C6.3%150.4hPa0V00:00:0000:00:0000:00:00
PU1XMG-162026-08-31 12:12:42-22.78898-42.8929251°113km/h14170m4.3m/s-61.6°C6.4%151.4hPa0V00:00:0000:00:0000:00:00
PU1XMG-162026-08-31 12:12:35-22.79009-42.8943953°119km/h14134m6.6m/s-61.4°C6.4%152.3hPa0V00:00:0000:00:0000:00:00
PU1XMG-162026-08-31 12:12:30-22.79101-42.8956253°111km/h14105m4.8m/s-61.3°C6.2%153.0hPa0V00:00:0000:00:0000:00:00
PU1XMG-162026-08-31 12:12:25-22.79188-42.8968154°111km/h14079m5.4m/s-61.3°C6.2%153.7hPa0V00:00:0000:00:0000:00:00
PU1XMG-162026-08-31 12:12:19-22.79299-42.8983652°126km/h14048m5.1m/s-61.1°C6.2%154.4hPa0V00:00:0000:00:0000:00:00
PU1XMG-162026-08-31 12:12:13-22.79418-42.8999052°117km/h14014m6.2m/s-60.8°C6.3%155.2hPa0V00:00:0000:00:0000:00:00
PU1XMG-162026-08-31 12:12:08-22.79509-42.9011753°117km/h13983m9.9m/s-60.6°C6.3%156.0hPa0V00:00:0000:00:0000:00:00
PU1XMG-162026-08-31 12:12:02-22.79623-42.9027353°122km/h13944m5.5m/s-60.4°C6.2%157.1hPa0V00:00:0000:00:0000:00:00
PU1XMG-162026-08-31 12:11:57-22.79718-42.9040854°122km/h13912m4.7m/s-60.2°C5.9%157.8hPa0V00:00:0000:00:0000:00:00
PU1XMG-162026-08-31 12:11:51-22.79832-42.9056952°124km/h13875m5.3m/s-59.8°C6.0%158.8hPa0V00:00:0000:00:0000:00:00
PU1XMG-162026-08-31 12:11:45-22.79948-42.9073055°126km/h13840m6.4m/s-59.5°C5.9%159.7hPa0V00:00:0000:00:0000:00:00
PU1XMG-162026-08-31 12:11:40-22.80043-42.9087254°126km/h13812m6.3m/s-59.4°C6.0%160.4hPa0V00:00:0000:00:0000:00:00
PU1XMG-162026-08-31 12:11:35-22.80138-42.9101055°128km/h13784m6.3m/s-59.3°C6.0%161.1hPa0V00:00:0000:00:0000:00:00
PU1XMG-162026-08-31 12:11:29-22.80251-42.9118056°130km/h13749m6.2m/s-59.1°C6.1%162.0hPa0V00:00:0000:00:0000:00:00
PU1XMG-162026-08-31 12:11:23-22.80365-42.9135456°131km/h13714m5.7m/s-58.8°C6.1%162.9hPa0V00:00:0000:00:0000:00:00
PU1XMG-162026-08-31 12:11:18-22.80460-42.9150658°137km/h13683m7.7m/s-58.6°C5.9%163.7hPa0V00:00:0000:00:0000:00:00
PU1XMG-162026-08-31 12:11:12-22.80571-42.9168556°128km/h13650m4.2m/s-58.3°C6.0%164.6hPa0V00:00:0000:00:0000:00:00
PU1XMG-162026-08-31 12:11:07-22.80663-42.9183057°130km/h13621m4.2m/s-58.0°C6.1%165.4hPa0V00:00:0000:00:0000:00:00
PU1XMG-162026-08-31 12:11:01-22.80772-42.9200758°133km/h13586m3.7m/s-57.7°C6.2%166.3hPa0V00:00:0000:00:0000:00:00
PU1XMG-162026-08-31 12:10:56-22.80865-42.9216158°133km/h13560m4.9m/s-57.5°C6.0%167.0hPa0V00:00:0000:00:0000:00:00
PU1XMG-162026-08-31 12:10:34-22.81241-42.9283262°131km/h13450m7.6m/s-56.8°C6.3%169.8hPa0V00:00:0000:00:0000:00:00
PU1XMG-162026-08-31 12:10:28-22.81337-42.9302362°131km/h13420m5.7m/s-56.5°C6.6%170.7hPa0V00:00:0000:00:0000:00:00
PU1XMG-162026-08-31 12:10:23-22.81435-42.9321362°133km/h13393m4.1m/s-56.4°C6.6%171.4hPa0V00:00:0000:00:0000:00:00
PU1XMG-162026-08-31 12:10:17-22.81513-42.9337063°128km/h13370m5.4m/s-56.2°C7.1%172.0hPa0V00:00:0000:00:0000:00:00
PU1XMG-162026-08-31 12:10:12-22.81588-42.9352765°133km/h13346m4.9m/s-56.1°C7.3%172.7hPa0V00:00:0000:00:0000:00:00
PU1XMG-162026-08-31 12:10:06-22.81678-42.9372665°135km/h13315m5.6m/s-56.2°C7.7%173.5hPa0V00:00:0000:00:0000:00:00
PU1XMG-162026-08-31 12:10:00-22.81770-42.9392164°135km/h13286m4.8m/s-56.3°C8.6%174.3hPa0V00:00:0000:00:0000:00:00
PU1XMG-162026-08-31 12:09:55-22.81847-42.9409066°141km/h13261m5.7m/s-56.3°C9.0%175.0hPa0V00:00:0000:00:0000:00:00
PU1XMG-162026-08-31 12:09:49-22.81936-42.9430166°139km/h13230m5.1m/s-56.3°C9.4%175.8hPa0V00:00:0000:00:0000:00:00
PU1XMG-162026-08-31 12:09:44-22.82008-42.9447467°139km/h13205m4.4m/s-56.3°C9.5%176.5hPa0V00:00:0000:00:0000:00:00
PU1XMG-162026-08-31 12:09:39-22.82075-42.9465171°141km/h13179m6.5m/s-56.2°C9.9%177.3hPa0V00:00:0000:00:0000:00:00
PU1XMG-162026-08-31 12:09:34-22.82136-42.9483271°141km/h13153m6.5m/s-56.1°C10.3%178.0hPa0V00:00:0000:00:0000:00:00
PU1XMG-162026-08-31 12:09:28-22.82214-42.9505269°144km/h13121m5.7m/s-56.2°C10.9%178.8hPa0V00:00:0000:00:0000:00:00
PU1XMG-162026-08-31 12:09:17-22.82366-42.9548468°139km/h13061m3.9m/s-56.2°C11.6%180.6hPa0V00:00:0000:00:0000:00:00
PU1XMG-162026-08-31 12:09:10-22.82451-42.9569168°139km/h13032m5.2m/s-56.0°C11.5%181.4hPa0V00:00:0000:00:0000:00:00
PU1XMG-162026-08-31 12:09:05-22.82520-42.9587268°142km/h13008m4.4m/s-56.1°C12.1%182.1hPa0V00:00:0000:00:0000:00:00
PU1XMG-162026-08-31 12:09:00-22.82598-42.9604763°141km/h12983m5.2m/s-56.1°C12.4%182.9hPa0V00:00:0000:00:0000:00:00
PU1XMG-162026-08-31 12:08:55-22.82680-42.9622567°151km/h12960m5.9m/s-56.0°C13.0%183.5hPa0V00:00:0000:00:0000:00:00
PU1XMG-162026-08-31 12:08:50-22.82764-42.9641263°148km/h12936m7.1m/s-55.9°C13.5%184.2hPa0V00:00:0000:00:0000:00:00
PU1XMG-162026-08-31 12:08:44-22.82875-42.9659860°131km/h12906m7.3m/s-55.7°C13.4%185.1hPa0V00:00:0000:00:0000:00:00
PU1XMG-162026-08-31 12:08:39-22.82954-42.9676865°139km/h12867m6.3m/s-55.6°C14.2%186.2hPa0V00:00:0000:00:0000:00:00
PU1XMG-162026-08-31 12:08:32-22.83062-42.9702266°130km/h12817m6.5m/s-55.2°C14.3%187.6hPa0V00:00:0000:00:0000:00:00
PU1XMG-162026-08-31 12:08:25-22.83141-42.9722268°133km/h12785m7.8m/s-55.1°C15.2%188.6hPa0V00:00:0000:00:0000:00:00
PU1XMG-162026-08-31 12:08:20-22.83203-42.9738468°126km/h12757m5.5m/s-54.8°C16.3%189.5hPa0V00:00:0000:00:0000:00:00
PU1XMG-162026-08-31 12:08:15-22.83265-42.9753670°124km/h12731m6.6m/s-54.6°C16.6%190.3hPa0V00:00:0000:00:0000:00:00
PU1XMG-162026-08-31 12:08:09-22.83325-42.9773070°122km/h12690m6.1m/s-54.5°C17.1%191.4hPa0V00:00:0000:00:0000:00:00
PU1XMG-162026-08-31 12:08:04-22.83379-42.9788172°119km/h12660m6.0m/s-54.2°C18.8%192.4hPa0V00:00:0000:00:0000:00:00
PU1XMG-162026-08-31 12:07:58-22.83439-42.9806272°119km/h12629m5.9m/s-54.0°C20.6%193.3hPa0V00:00:0000:00:0000:00:00
PU1XMG-162026-08-31 12:07:53-22.83488-42.9821674°117km/h12597m7.4m/s-53.9°C22.4%194.2hPa0V00:00:0000:00:0000:00:00
PU1XMG-162026-08-31 12:07:47-22.83543-42.9839772°111km/h12564m5.1m/s-53.7°C24.1%195.3hPa0V00:00:0000:00:0000:00:00
PU1XMG-162026-08-31 12:07:42-22.83584-42.9854376°110km/h12534m3.8m/s-53.5°C27.0%196.2hPa0V00:00:0000:00:0000:00:00
PU1XMG-162026-08-31 12:07:36-22.83623-42.9872076°111km/h12504m5.7m/s-53.3°C31.0%197.0hPa0V00:00:0000:00:0000:00:00
PU1XMG-162026-08-31 12:07:30-22.83673-42.9889072°108km/h12475m7.0m/s-53.1°C31.3%197.9hPa0V00:00:0000:00:0000:00:00
PU1XMG-162026-08-31 12:07:24-22.83716-42.9907379°119km/h12445m4.0m/s-52.9°C32.4%198.9hPa0V00:00:0000:00:0000:00:00
PU1XMG-162026-08-31 12:07:19-22.83747-42.9922376°108km/h12419m7.0m/s-52.7°C33.0%199.6hPa0V00:00:0000:00:0000:00:00
PU1XMG-162026-08-31 12:07:13-22.83781-42.9939083°110km/h12383m7.5m/s-52.4°C32.5%200.7hPa0V00:00:0000:00:0000:00:00
PU1XMG-162026-08-31 12:07:01-22.83850-42.9973781°95km/h12308m4.3m/s-52.0°C33.9%203.0hPa0V00:00:0000:00:0000:00:00
PU1XMG-162026-08-31 12:06:55-22.83866-42.9989886°99km/h12269m7.7m/s-51.7°C33.0%204.3hPa0V00:00:0000:00:0000:00:00
PU1XMG-162026-08-31 12:06:50-22.83886-43.0003482°102km/h12239m3.0m/s-51.5°C32.6%205.2hPa0V00:00:0000:00:0000:00:00
PU1XMG-162026-08-31 12:06:45-22.83903-43.0017388°102km/h12209m7.2m/s-51.2°C31.6%206.2hPa0V00:00:0000:00:0000:00:00
PU1XMG-162026-08-31 12:06:40-22.83907-43.0031786°104km/h12177m5.2m/s-51.0°C30.9%207.2hPa0V00:00:0000:00:0000:00:00
PU1XMG-162026-08-31 12:06:34-22.83927-43.0049084°108km/h12140m6.1m/s-50.8°C31.3%208.4hPa0V00:00:0000:00:0000:00:00
PU1XMG-162026-08-31 12:06:29-22.83936-43.0063390°102km/h12110m5.5m/s-50.7°C32.8%209.3hPa0V00:00:0000:00:0000:00:00
PU1XMG-162026-08-31 12:06:23-22.83943-43.0080487°104km/h12081m4.6m/s-50.5°C36.1%210.3hPa0V00:00:0000:00:0000:00:00
PU1XMG-162026-08-31 12:06:18-22.83949-43.0095090°106km/h12054m4.4m/s-50.6°C40.3%211.2hPa0V00:00:0000:00:0000:00:00
PU1XMG-162026-08-31 12:06:12-22.83945-43.0113195°106km/h12020m4.8m/s-50.8°C59.3%212.3hPa0V00:00:0000:00:0000:00:00
PU1XMG-162026-08-31 12:06:07-22.83937-43.0127394°108km/h11997m2.8m/s-51.1°C68.5%213.0hPa0V00:00:0000:00:0000:00:00
PU1XMG-162026-08-31 12:06:01-22.83930-43.0145595°110km/h11969m3.8m/s-51.1°C73.7%214.0hPa0V00:00:0000:00:0000:00:00
PU1XMG-162026-08-31 12:05:55-22.83917-43.0163194°100km/h11936m7.0m/s-51.1°C78.1%215.0hPa0V00:00:0000:00:0000:00:00
PU1XMG-162026-08-31 12:05:48-22.83902-43.0180199°82km/h11896m5.8m/s-50.7°C78.6%216.4hPa0V00:00:0000:00:0000:00:00
PU1XMG-162026-08-31 12:05:42-22.83884-43.0195097°99km/h11865m7.1m/s-50.5°C77.8%217.4hPa0V00:00:0000:00:0000:00:00
PU1XMG-162026-08-31 12:05:37-22.83872-43.0207894°88km/h11835m7.5m/s-50.3°C80.1%218.4hPa0V00:00:0000:00:0000:00:00
PU1XMG-162026-08-31 12:05:31-22.83854-43.02223103°86km/h11793m8.3m/s-49.9°C74.3%219.7hPa0V00:00:0000:00:0000:00:00
PU1XMG-162026-08-31 12:05:25-22.83819-43.02353100°86km/h11749m7.2m/s-49.5°C72.2%221.3hPa0V00:00:0000:00:0000:00:00
PU1XMG-162026-08-31 12:05:20-22.83808-43.0246596°80km/h11715m5.1m/s-49.1°C71.7%222.4hPa0V00:00:0000:00:0000:00:00
PU1XMG-162026-08-31 12:05:14-22.83797-43.0260097°88km/h11683m7.0m/s-48.8°C71.7%223.5hPa0V00:00:0000:00:0000:00:00
PU1XMG-162026-08-31 12:05:08-22.83780-43.0273699°80km/h11651m6.0m/s-48.5°C69.3%224.6hPa0V00:00:0000:00:0000:00:00
PU1XMG-162026-08-31 12:05:03-22.83758-43.02866104°82km/h11616m6.8m/s-48.2°C68.4%225.8hPa0V00:00:0000:00:0000:00:00
PU1XMG-162026-08-31 12:04:57-22.83744-43.0297397°77km/h11588m5.4m/s-48.0°C68.8%226.7hPa0V00:00:0000:00:0000:00:00
PU1XMG-162026-08-31 12:04:52-22.83734-43.0308196°84km/h11562m5.8m/s-47.8°C72.3%227.6hPa0V00:00:0000:00:0000:00:00
PU1XMG-162026-08-31 12:04:46-22.83716-43.0321299°82km/h11527m8.0m/s-47.5°C73.1%228.8hPa0V00:00:0000:00:0000:00:00
PU1XMG-162026-08-31 12:04:40-22.83703-43.0334499°80km/h11491m7.1m/s-47.3°C74.1%230.1hPa0V00:00:0000:00:0000:00:00
PU1XMG-162026-08-31 12:04:36-22.83694-43.0344599°69km/h11456m7.4m/s-47.0°C74.5%231.3hPa0V00:00:0000:00:0000:00:00
PU1XMG-162026-08-31 12:04:29-22.83679-43.0356297°75km/h11420m6.7m/s-46.7°C71.9%232.6hPa0V00:00:0000:00:0000:00:00
PU1XMG-162026-08-31 12:04:24-22.83660-43.03684103°71km/h11385m4.6m/s-46.4°C73.6%233.8hPa0V00:00:0000:00:0000:00:00
PU1XMG-162026-08-31 12:04:18-22.83644-43.03780103°71km/h11357m5.4m/s-46.1°C73.0%234.8hPa0V00:00:0000:00:0000:00:00
PU1XMG-162026-08-31 12:04:13-22.83631-43.0387798°71km/h11327m4.6m/s-45.9°C75.1%235.9hPa0V00:00:0000:00:0000:00:00
PU1XMG-162026-08-31 12:04:07-22.83616-43.03995101°75km/h11292m4.4m/s-45.6°C76.9%237.1hPa0V00:00:0000:00:0000:00:00
PU1XMG-162026-08-31 12:04:01-22.83597-43.0411697°73km/h11260m4.0m/s-45.3°C76.1%238.3hPa0V00:00:0000:00:0000:00:00
PU1XMG-162026-08-31 12:03:56-22.83586-43.0421896°77km/h11234m6.4m/s-45.2°C76.7%239.2hPa0V00:00:0000:00:0000:00:00
PU1XMG-162026-08-31 12:03:45-22.83564-43.0444097°73km/h11183m5.9m/s-45.0°C82.6%241.0hPa0V00:00:0000:00:0000:00:00
PU1XMG-162026-08-31 12:03:40-22.83554-43.0454598°77km/h11160m3.9m/s-44.9°C86.0%241.9hPa0V00:00:0000:00:0000:00:00
PU1XMG-162026-08-31 12:03:35-22.83545-43.0464294°68km/h11135m5.7m/s-44.8°C83.6%242.8hPa0V00:00:0000:00:0000:00:00
PU1XMG-162026-08-31 12:03:30-22.83541-43.0474099°80km/h11114m5.4m/s-44.6°C82.7%243.5hPa0V00:00:0000:00:0000:00:00
PU1XMG-162026-08-31 12:03:24-22.83508-43.04888106°73km/h11070m5.5m/s-44.2°C81.5%245.2hPa0V00:00:0000:00:0000:00:00
PU1XMG-162026-08-31 12:03:18-22.83488-43.0499796°73km/h11036m6.1m/s-43.9°C78.1%246.3hPa0V00:00:0000:00:0000:00:00
PU1XMG-162026-08-31 12:03:12-22.83470-43.05098102°78km/h11004m5.9m/s-43.6°C76.0%247.5hPa0V00:00:0000:00:0000:00:00
PU1XMG-162026-08-31 12:03:07-22.83456-43.05210100°82km/h10976m6.9m/s-43.3°C76.4%248.5hPa0V00:00:0000:00:0000:00:00
PU1XMG-162026-08-31 12:03:02-22.83427-43.05340105°84km/h10942m4.0m/s-43.0°C74.7%249.8hPa0V00:00:0000:00:0000:00:00
PU1XMG-162026-08-31 12:02:56-22.83403-43.05448102°78km/h10911m4.7m/s-42.7°C74.0%251.0hPa0V00:00:0000:00:0000:00:00
PU1XMG-162026-08-31 12:02:50-22.83381-43.05576102°80km/h10875m5.4m/s-42.4°C71.8%252.3hPa0V00:00:0000:00:0000:00:00
PU1XMG-162026-08-31 12:02:44-22.83356-43.05709103°84km/h10842m5.9m/s-42.1°C71.5%253.5hPa0V00:00:0000:00:0000:00:00
PU1XMG-162026-08-31 12:02:38-22.83329-43.05842104°84km/h10812m4.3m/s-41.7°C72.5%254.7hPa0V00:00:0000:00:0000:00:00
PU1XMG-162026-08-31 12:02:33-22.83306-43.05954100°80km/h10784m4.8m/s-41.5°C71.1%255.7hPa0V00:00:0000:00:0000:00:00
PU1XMG-162026-08-31 12:02:27-22.83278-43.06103101°84km/h10745m6.0m/s-41.2°C72.1%257.2hPa0V00:00:0000:00:0000:00:00
PU1XMG-162026-08-31 12:02:21-22.83256-43.06218106°86km/h10716m8.8m/s-40.9°C70.7%258.2hPa0V00:00:0000:00:0000:00:00
PU1XMG-162026-08-31 12:02:16-22.83223-43.06354104°86km/h10684m4.3m/s-40.6°C72.0%259.4hPa0V00:00:0000:00:0000:00:00
PU1XMG-162026-08-31 12:02:08-22.83188-43.06534104°86km/h10643m4.3m/s-40.2°C70.7%261.1hPa0V00:00:0000:00:0000:00:00
PU1XMG-162026-08-31 12:02:02-22.83163-43.06649103°88km/h10616m6.5m/s-39.9°C70.0%262.1hPa0V00:00:0000:00:0000:00:00
PU1XMG-162026-08-31 12:01:44-22.83074-43.07087105°88km/h10511m5.0m/s-39.1°C76.2%266.1hPa0V00:00:0000:00:0000:00:00
PU1XMG-162026-08-31 12:01:38-22.83051-43.07204102°86km/h10487m5.7m/s-38.9°C76.1%267.0hPa0V00:00:0000:00:0000:00:00
PU1XMG-162026-08-31 12:01:32-22.83015-43.07345109°91km/h10457m4.8m/s-38.7°C75.4%268.3hPa0V00:00:0000:00:0000:00:00
PU1XMG-162026-08-31 12:01:26-22.82974-43.07497104°93km/h10425m5.7m/s-38.5°C76.9%269.5hPa0V00:00:0000:00:0000:00:00
PU1XMG-162026-08-31 12:01:10-22.82880-43.07835105°89km/h10307m8.4m/s-37.6°C69.3%274.1hPa0V00:00:0000:00:0000:00:00
PU1XMG-162026-08-31 12:01:04-22.82849-43.07964114°84km/h10265m7.2m/s-37.2°C65.6%275.8hPa0V00:00:0000:00:0000:00:00
PU1XMG-162026-08-31 12:00:59-22.82823-43.0807996°71km/h10230m7.9m/s-37.0°C66.4%277.2hPa0V00:00:0000:00:0000:00:00
PU1XMG-162026-08-31 12:00:53-22.82795-43.08189101°82km/h10182m6.3m/s-36.5°C63.6%279.2hPa0V00:00:0000:00:0000:00:00
PU1XMG-162026-08-31 12:00:48-22.82784-43.08284109°58km/h10146m6.5m/s-36.2°C64.2%280.6hPa0V00:00:0000:00:0000:00:00
PU1XMG-162026-08-31 12:00:43-22.82747-43.08392115°75km/h10099m7.6m/s-35.9°C64.1%282.5hPa0V00:00:0000:00:0000:00:00
PU1XMG-162026-08-31 12:00:38-22.82735-43.0846386°46km/h10065m10.1m/s-35.7°C62.1%283.8hPa0V00:00:0000:00:0000:00:00
PU1XMG-162026-08-31 12:00:32-22.82725-43.08566101°71km/h10020m8.4m/s-35.3°C59.7%285.6hPa0V00:00:0000:00:0000:00:00
PU1XMG-162026-08-31 12:00:27-22.82711-43.08649101°58km/h9987m5.9m/s-34.9°C58.4%287.0hPa0V00:00:0000:00:0000:00:00
PU1XMG-162026-08-31 12:00:21-22.82697-43.0874999°64km/h9954m5.5m/s-34.6°C58.9%288.4hPa0V00:00:0000:00:0000:00:00
PU1XMG-162026-08-31 12:00:16-22.82690-43.0883197°58km/h9925m7.7m/s-34.4°C58.8%289.6hPa0V00:00:0000:00:0000:00:00
PU1XMG-162026-08-31 12:00:09-22.82671-43.08934104°68km/h9886m6.1m/s-34.1°C57.3%291.2hPa0V00:00:0000:00:0000:00:00
PU1XMG-162026-08-31 12:00:01-22.82645-43.09087107°60km/h9840m5.9m/s-33.6°C57.5%293.1hPa0V00:00:0000:00:0000:00:00
PU1XMG-162026-08-31 11:59:55-22.82620-43.0918898°64km/h9809m4.4m/s-33.4°C58.2%294.4hPa0V00:00:0000:00:0000:00:00
PU1XMG-162026-08-31 11:59:46-22.82592-43.09333101°64km/h9756m8.1m/s-33.0°C57.7%296.7hPa0V00:00:0000:00:0000:00:00
PU1XMG-162026-08-31 11:59:40-22.82580-43.0944393°58km/h9723m5.7m/s-32.8°C60.0%298.0hPa0V00:00:0000:00:0000:00:00
PU1XMG-162026-08-31 11:59:33-22.82560-43.09548113°55km/h9672m4.0m/s-32.5°C60.5%300.2hPa0V00:00:0000:00:0000:00:00
PU1XMG-162026-08-31 11:59:27-22.82551-43.0964180°53km/h9641m7.8m/s-32.2°C61.2%301.6hPa0V00:00:0000:00:0000:00:00
PU1XMG-162026-08-31 11:59:19-22.82553-43.0972097°62km/h9598m7.5m/s-31.9°C59.6%303.3hPa0V00:00:0000:00:0000:00:00
PU1XMG-162026-08-31 11:59:14-22.82558-43.0981576°42km/h9551m5.2m/s-31.5°C60.6%305.4hPa0V00:00:0000:00:0000:00:00
PU1XMG-162026-08-31 11:59:09-22.82553-43.09872108°46km/h9520m6.6m/s-31.4°C60.1%306.6hPa0V00:00:0000:00:0000:00:00
PU1XMG-162026-08-31 11:59:04-22.82554-43.0993684°51km/h9483m8.0m/s-31.2°C60.4%308.3hPa0V00:00:0000:00:0000:00:00
PU1XMG-162026-08-31 11:58:57-22.82560-43.1001190°47km/h9446m5.7m/s-30.8°C61.8%310.0hPa0V00:00:0000:00:0000:00:00
PU1XMG-162026-08-31 11:58:53-22.82559-43.1007696°46km/h9417m6.9m/s-30.6°C65.0%311.2hPa0V00:00:0000:00:0000:00:00
PU1XMG-162026-08-31 11:58:13-22.82533-43.1053999°42km/h9195m7.0m/s-28.8°C69.4%321.0hPa0V00:00:0000:00:0000:00:00
PU1XMG-162026-08-31 11:58:05-22.82524-43.1061997°44km/h9159m6.2m/s-28.5°C68.5%322.6hPa0V00:00:0000:00:0000:00:00
PU1XMG-162026-08-31 11:57:55-22.82515-43.1074390°46km/h9109m6.5m/s-28.1°C69.3%324.9hPa0V00:00:0000:00:0000:00:00
PU1XMG-162026-08-31 11:57:47-22.82514-43.1083992°46km/h9067m6.2m/s-27.7°C69.1%326.8hPa0V00:00:0000:00:0000:00:00
PU1XMG-162026-08-31 11:57:42-22.82514-43.1089989°42km/h9039m5.9m/s-27.5°C69.7%328.1hPa0V00:00:0000:00:0000:00:00
PU1XMG-162026-08-31 11:57:37-22.82509-43.1097194°46km/h9006m5.2m/s-27.3°C68.7%329.7hPa0V00:00:0000:00:0000:00:00
PU1XMG-162026-08-31 11:57:31-22.82506-43.1104790°49km/h8969m5.5m/s-27.2°C66.1%331.3hPa0V00:00:0000:00:0000:00:00
PU1XMG-162026-08-31 11:57:24-22.82506-43.1112792°46km/h8937m5.1m/s-26.9°C65.6%332.8hPa0V00:00:0000:00:0000:00:00
PU1XMG-162026-08-31 11:57:19-22.82507-43.1118989°47km/h8914m6.2m/s-26.7°C67.6%333.9hPa0V00:00:0000:00:0000:00:00
PU1XMG-162026-08-31 11:57:14-22.82508-43.1126987°42km/h8883m4.6m/s-26.5°C71.6%335.3hPa0V00:00:0000:00:0000:00:00
PU1XMG-162026-08-31 11:57:08-22.82517-43.1133582°47km/h8850m7.3m/s-26.3°C70.9%336.7hPa0V00:00:0000:00:0000:00:00
PU1XMG-162026-08-31 11:57:02-22.82521-43.1141594°42km/h8820m4.3m/s-26.1°C69.2%338.2hPa0V00:00:0000:00:0000:00:00
PU1XMG-162026-08-31 11:56:54-22.82529-43.1149283°47km/h8780m6.7m/s-25.7°C67.5%340.0hPa0V00:00:0000:00:0000:00:00
PU1XMG-162026-08-31 11:56:48-22.82535-43.1157388°46km/h8750m6.2m/s-25.4°C65.3%341.4hPa0V00:00:0000:00:0000:00:00
PU1XMG-162026-08-31 11:56:43-22.82549-43.1164673°40km/h8715m5.9m/s-25.2°C64.2%342.9hPa0V00:00:0000:00:0000:00:00
PU1XMG-162026-08-31 11:56:37-22.82559-43.1171383°44km/h8680m7.7m/s-24.8°C63.2%344.6hPa0V00:00:0000:00:0000:00:00
PU1XMG-162026-08-31 11:56:31-22.82568-43.1179288°53km/h8647m6.1m/s-24.5°C63.1%346.3hPa0V00:00:0000:00:0000:00:00
PU1XMG-162026-08-31 11:56:25-22.82586-43.1187778°49km/h8610m7.6m/s-24.2°C62.6%348.0hPa0V00:00:0000:00:0000:00:00
PU1XMG-162026-08-31 11:56:19-22.82591-43.1194095°49km/h8583m4.0m/s-23.9°C63.1%349.4hPa0V00:00:0000:00:0000:00:00
PU1XMG-162026-08-31 11:56:14-22.82587-43.1200290°49km/h8550m5.5m/s-23.7°C64.7%351.0hPa0V00:00:0000:00:0000:00:00
PU1XMG-162026-08-31 11:56:10-22.82595-43.1206990°51km/h8518m7.6m/s-23.4°C65.0%352.4hPa0V00:00:0000:00:0000:00:00
PU1XMG-162026-08-31 11:56:03-22.82594-43.1215195°57km/h8472m9.5m/s-23.0°C63.4%354.5hPa0V00:00:0000:00:0000:00:00
PU1XMG-162026-08-31 11:55:56-22.82586-43.1225389°53km/h8417m5.0m/s-22.5°C62.1%357.3hPa0V00:00:0000:00:0000:00:00
PU1XMG-162026-08-31 11:55:50-22.82588-43.12316124°29km/h8376m8.5m/s-22.2°C61.8%359.3hPa0V00:00:0000:00:0000:00:00
PU1XMG-162026-08-31 11:55:43-22.82574-43.1239575°49km/h8333m8.3m/s-21.9°C61.5%361.4hPa0V00:00:0000:00:0000:00:00
PU1XMG-162026-08-31 11:55:33-22.82578-43.12506104°40km/h8262m5.9m/s-21.5°C55.8%365.0hPa0V00:00:0000:00:0000:00:00
PU1XMG-162026-08-31 11:55:25-22.82553-43.12607102°46km/h8224m5.7m/s-21.2°C53.4%366.8hPa0V00:00:0000:00:0000:00:00
PU1XMG-162026-08-31 11:55:20-22.82544-43.1267498°53km/h8194m5.8m/s-20.9°C51.6%368.3hPa0V00:00:0000:00:0000:00:00
PU1XMG-162026-08-31 11:55:10-22.82504-43.12767103°44km/h8138m6.3m/s-20.4°C49.2%371.1hPa0V00:00:0000:00:0000:00:00
PU1XMG-162026-08-31 11:55:06-22.82489-43.12824120°35km/h8099m5.7m/s-20.4°C52.1%373.0hPa0V00:00:0000:00:0000:00:00
PU1XMG-162026-08-31 11:54:59-22.82463-43.12882122°44km/h8059m8.1m/s-20.2°C53.4%375.1hPa0V00:00:0000:00:0000:00:00
PU1XMG-162026-08-31 11:54:55-22.82427-43.12936129°53km/h8031m3.7m/s-19.9°C52.9%376.5hPa0V00:00:0000:00:0000:00:00
PU1XMG-162026-08-31 11:54:49-22.82396-43.13004114°44km/h7996m7.0m/s-19.7°C51.4%378.4hPa0V00:00:0000:00:0000:00:00
PU1XMG-162026-08-31 11:54:42-22.82373-43.13071111°40km/h7965m5.5m/s-19.3°C50.5%380.0hPa0V00:00:0000:00:0000:00:00
PU1XMG-162026-08-31 11:54:38-22.82351-43.13112132°33km/h7939m6.1m/s-19.2°C50.7%381.2hPa0V00:00:0000:00:0000:00:00
PU1XMG-162026-08-31 11:54:32-22.82318-43.13159109°42km/h7906m7.1m/s-18.9°C50.9%382.9hPa0V00:00:0000:00:0000:00:00
PU1XMG-162026-08-31 11:54:26-22.82301-43.13243100°38km/h7859m7.3m/s-18.8°C57.6%385.2hPa0V00:00:0000:00:0000:00:00
PU1XMG-162026-08-31 11:54:21-22.82295-43.13286102°40km/h7822m6.1m/s-18.7°C67.7%387.3hPa0V00:00:0000:00:0000:00:00
PU1XMG-162026-08-31 11:54:15-22.82267-43.13343124°31km/h7785m5.5m/s-18.5°C68.0%389.1hPa0V00:00:0000:00:0000:00:00
PU1XMG-162026-08-31 11:54:09-22.82249-43.13403103°42km/h7743m6.8m/s-18.3°C71.9%391.2hPa0V00:00:0000:00:0000:00:00
PU1XMG-162026-08-31 11:54:03-22.82243-43.1347086°44km/h7709m5.3m/s-18.1°C75.5%393.2hPa0V00:00:0000:00:0000:00:00
PU1XMG-162026-08-31 11:53:58-22.82249-43.1352594°38km/h7681m4.9m/s-18.0°C74.3%394.6hPa0V00:00:0000:00:0000:00:00
PU1XMG-162026-08-31 11:53:52-22.82253-43.1359586°49km/h7641m5.0m/s-17.8°C73.2%396.7hPa0V00:00:0000:00:0000:00:00
PU1XMG-162026-08-31 11:53:42-22.82259-43.1371172°46km/h7587m6.4m/s-18.2°C85.8%399.5hPa0V00:00:0000:00:0000:00:00
PU1XMG-162026-08-31 11:53:35-22.82279-43.1378685°49km/h7552m4.3m/s-18.2°C79.9%401.3hPa0V00:00:0000:00:0000:00:00
PU1XMG-162026-08-31 11:53:30-22.82282-43.1387387°53km/h7514m6.8m/s-17.9°C76.0%403.4hPa0V00:00:0000:00:0000:00:00
PU1XMG-162026-08-31 11:53:24-22.82291-43.1395389°49km/h7484m6.0m/s-17.7°C73.5%405.2hPa0V00:00:0000:00:0000:00:00
PU1XMG-162026-08-31 11:53:19-22.82293-43.1401991°47km/h7458m5.3m/s-17.5°C71.1%406.6hPa0V00:00:0000:00:0000:00:00
PU1XMG-162026-08-31 11:53:13-22.82298-43.1409688°42km/h7423m5.6m/s-17.2°C68.9%408.5hPa0V00:00:0000:00:0000:00:00
PU1XMG-162026-08-31 11:53:07-22.82295-43.1415992°49km/h7397m4.1m/s-16.9°C66.5%410.0hPa0V00:00:0000:00:0000:00:00
PU1XMG-162026-08-31 11:53:02-22.82306-43.1424071°49km/h7366m5.2m/s-16.7°C64.5%411.6hPa0V00:00:0000:00:0000:00:00
PU1XMG-162026-08-31 11:52:56-22.82319-43.1429682°38km/h7340m6.2m/s-16.5°C60.8%413.0hPa0V00:00:0000:00:0000:00:00
PU1XMG-162026-08-31 11:52:51-22.82332-43.1438088°55km/h7300m6.1m/s-16.2°C50.2%415.2hPa0V00:00:0000:00:0000:00:00
PU1XMG-162026-08-31 11:52:46-22.82334-43.1444999°42km/h7263m3.9m/s-15.8°C43.0%417.2hPa0V00:00:0000:00:0000:00:00
PU1XMG-162026-08-31 11:52:40-22.82337-43.1450679°53km/h7237m5.2m/s-15.6°C40.6%418.6hPa0V00:00:0000:00:0000:00:00
PU1XMG-162026-08-31 11:52:35-22.82349-43.1459399°51km/h7198m5.3m/s-15.2°C38.9%420.7hPa0V00:00:0000:00:0000:00:00
PU1XMG-162026-08-31 11:52:28-22.82339-43.1468193°58km/h7163m8.8m/s-15.0°C30.6%422.7hPa0V00:00:0000:00:0000:00:00
PU1XMG-162026-08-31 11:52:23-22.82340-43.1478292°60km/h7127m4.7m/s-14.6°C27.5%424.6hPa0V00:00:0000:00:0000:00:00
PU1XMG-162026-08-31 11:52:18-22.82337-43.1485192°40km/h7099m5.5m/s-14.4°C23.8%426.2hPa0V00:00:0000:00:0000:00:00
PU1XMG-162026-08-31 11:52:11-22.82327-43.14916110°44km/h7060m4.7m/s-14.1°C15.7%428.5hPa0V00:00:0000:00:0000:00:00
PU1XMG-162026-08-31 11:52:06-22.82311-43.1499798°47km/h7024m6.5m/s-13.7°C13.6%430.6hPa0V00:00:0000:00:0000:00:00
PU1XMG-162026-08-31 11:52:00-22.82301-43.1508496°58km/h6994m4.2m/s-13.4°C13.6%432.4hPa0V00:00:0000:00:0000:00:00
PU1XMG-162026-08-31 11:51:54-22.82286-43.15180104°62km/h6966m4.2m/s-13.3°C17.6%434.0hPa0V00:00:0000:00:0000:00:00
PU1XMG-162026-08-31 11:51:49-22.82272-43.1524898°47km/h6943m6.9m/s-13.2°C16.5%435.2hPa0V00:00:0000:00:0000:00:00
PU1XMG-162026-08-31 11:51:43-22.82260-43.1533799°68km/h6910m5.3m/s-12.9°C17.4%437.1hPa0V00:00:0000:00:0000:00:00
PU1XMG-162026-08-31 11:51:36-22.82248-43.1544393°58km/h6878m7.3m/s-12.6°C17.3%438.8hPa0V00:00:0000:00:0000:00:00
PU1XMG-162026-08-31 11:51:32-22.82245-43.15516100°44km/h6851m4.0m/s-12.3°C17.1%440.4hPa0V00:00:0000:00:0000:00:00
PU1XMG-162026-08-31 11:51:26-22.82224-43.15597112°62km/h6817m3.7m/s-12.0°C16.5%442.3hPa0V00:00:0000:00:0000:00:00
PU1XMG-162026-08-31 11:51:20-22.82211-43.1569982°62km/h6785m4.8m/s-11.7°C16.5%444.2hPa0V00:00:0000:00:0000:00:00
PU1XMG-162026-08-31 11:51:15-22.82213-43.15773102°49km/h6752m8.5m/s-11.5°C16.6%446.1hPa0V00:00:0000:00:0000:00:00
PU1XMG-162026-08-31 11:51:09-22.82195-43.15866100°57km/h6715m6.4m/s-11.3°C19.1%448.3hPa0V00:00:0000:00:0000:00:00
PU1XMG-162026-08-31 11:51:03-22.82194-43.1596990°58km/h6680m4.0m/s-11.3°C20.8%450.3hPa0V00:00:0000:00:0000:00:00
PU1XMG-162026-08-31 11:50:58-22.82195-43.1604192°49km/h6648m6.2m/s-11.1°C21.0%452.2hPa0V00:00:0000:00:0000:00:00
PU1XMG-162026-08-31 11:50:52-22.82186-43.1612595°53km/h6618m3.1m/s-10.9°C22.2%453.8hPa0V00:00:0000:00:0000:00:00
PU1XMG-162026-08-31 11:50:46-22.82199-43.1621887°55km/h6589m6.0m/s-10.7°C27.1%455.7hPa0V00:00:0000:00:0000:00:00
PU1XMG-162026-08-31 11:50:36-22.82203-43.1636488°49km/h6537m5.0m/s-10.4°C28.9%458.8hPa0V00:00:0000:00:0000:00:00
PU1XMG-162026-08-31 11:50:29-22.82203-43.1644494°46km/h6511m3.9m/s-10.4°C24.7%460.3hPa0V00:00:0000:00:0000:00:00
PU1XMG-162026-08-31 11:50:24-22.82206-43.1650783°49km/h6486m5.3m/s-10.3°C17.5%461.6hPa0V00:00:0000:00:0000:00:00
PU1XMG-162026-08-31 11:50:19-22.82215-43.1657287°53km/h6463m4.4m/s-10.0°C17.5%463.1hPa0V00:00:0000:00:0000:00:00
PU1XMG-162026-08-31 11:50:14-22.82228-43.1664277°58km/h6434m3.7m/s-9.8°C16.0%465.0hPa0V00:00:0000:00:0000:00:00
PU1XMG-162026-08-31 11:50:10-22.82257-43.1672874°57km/h6403m7.0m/s-9.7°C11.5%466.8hPa0V00:00:0000:00:0000:00:00
PU1XMG-162026-08-31 11:50:02-22.82251-43.16826101°49km/h6354m5.3m/s-9.4°C13.0%469.8hPa0V00:00:0000:00:0000:00:00
PU1XMG-162026-08-31 11:49:55-22.82248-43.1692187°57km/h6322m4.9m/s-9.1°C12.9%471.6hPa0V00:00:0000:00:0000:00:00
PU1XMG-162026-08-31 11:49:50-22.82245-43.1700984°37km/h6278m4.8m/s-8.9°C9.1%474.2hPa0V00:00:0000:00:0000:00:00
PU1XMG-162026-08-31 11:49:43-22.82259-43.1708586°62km/h6243m7.1m/s-8.6°C7.8%476.4hPa0V00:00:0000:00:0000:00:00
PU1XMG-162026-08-31 11:49:37-22.82252-43.17176103°49km/h6205m7.3m/s-8.2°C6.9%479.0hPa0V00:00:0000:00:0000:00:00
PU1XMG-162026-08-31 11:49:31-22.82233-43.17256100°47km/h6171m5.3m/s-8.0°C6.4%481.0hPa0V00:00:0000:00:0000:00:00
PU1XMG-162026-08-31 11:49:26-22.82217-43.17325104°53km/h6139m6.0m/s-7.8°C6.7%482.9hPa0V00:00:0000:00:0000:00:00
PU1XMG-162026-08-31 11:49:22-22.82197-43.17391114°51km/h6108m5.4m/s-7.6°C9.7%484.9hPa0V00:00:0000:00:0000:00:00
PU1XMG-162026-08-31 11:49:16-22.82180-43.1747594°44km/h6072m5.3m/s-7.3°C10.6%487.2hPa0V00:00:0000:00:0000:00:00
PU1XMG-162026-08-31 11:49:09-22.82183-43.1754895°44km/h6033m7.4m/s-7.0°C11.3%489.5hPa0V00:00:0000:00:0000:00:00
PU1XMG-162026-08-31 11:49:04-22.82185-43.1762589°57km/h5995m6.9m/s-6.7°C11.8%491.8hPa0V00:00:0000:00:0000:00:00
PU1XMG-162026-08-31 11:48:58-22.82183-43.1769487°46km/h5964m4.3m/s-6.5°C12.2%493.8hPa0V00:00:0000:00:0000:00:00
PU1XMG-162026-08-31 11:48:53-22.82187-43.1776283°47km/h5931m6.5m/s-6.7°C17.1%496.0hPa0V00:00:0000:00:0000:00:00
PU1XMG-162026-08-31 11:48:46-22.82191-43.1783699°47km/h5897m6.6m/s-7.6°C25.3%498.2hPa0V00:00:0000:00:0000:00:00
PU1XMG-162026-08-31 11:48:41-22.82183-43.1790592°51km/h5869m5.1m/s-7.6°C22.3%499.8hPa0V00:00:0000:00:0000:00:00
PU1XMG-162026-08-31 11:48:36-22.82194-43.1798686°49km/h5832m4.6m/s-7.9°C41.2%502.2hPa0V00:00:0000:00:0000:00:00
PU1XMG-162026-08-31 11:48:29-22.82198-43.1803982°33km/h5795m4.8m/s-8.0°C54.6%504.6hPa0V00:00:0000:00:0000:00:00
PU1XMG-162026-08-31 11:48:24-22.82212-43.1811578°40km/h5757m6.6m/s-8.4°C81.2%507.0hPa0V00:00:0000:00:0000:00:00
PU1XMG-162026-08-31 11:48:19-22.82221-43.1815990°35km/h5727m3.7m/s-8.3°C84.7%508.9hPa0V00:00:0000:00:0000:00:00
PU1XMG-162026-08-31 11:48:12-22.82237-43.1822772°47km/h5690m10.2m/s-8.2°C95.0%511.3hPa0V00:00:0000:00:0000:00:00
PU1XMG-162026-08-31 11:48:08-22.82242-43.1828381°33km/h5654m5.8m/s-7.9°C95.6%513.9hPa0V00:00:0000:00:0000:00:00
PU1XMG-162026-08-31 11:48:01-22.82247-43.1833485°31km/h5621m8.2m/s-7.7°C94.8%516.0hPa0V00:00:0000:00:0000:00:00
PU1XMG-162026-08-31 11:47:55-22.82245-43.1839397°40km/h5579m5.5m/s-7.4°C92.9%518.7hPa0V00:00:0000:00:0000:00:00
PU1XMG-162026-08-31 11:47:50-22.82244-43.18473100°47km/h5542m4.9m/s-7.1°C93.4%521.3hPa0V00:00:0000:00:0000:00:00
PU1XMG-162026-08-31 11:47:43-22.82248-43.1854376°46km/h5509m6.3m/s-6.9°C94.3%523.5hPa0V00:00:0000:00:0000:00:00
PU1XMG-162026-08-31 11:47:38-22.82255-43.1861389°42km/h5475m3.7m/s-6.8°C96.6%525.7hPa0V00:00:0000:00:0000:00:00
PU1XMG-162026-08-31 11:47:33-22.82254-43.1866298°35km/h5450m5.2m/s-6.8°C98.1%527.5hPa0V00:00:0000:00:0000:00:00
PU1XMG-162026-08-31 11:47:27-22.82249-43.1873297°35km/h5416m6.1m/s-6.6°C99.8%529.8hPa0V00:00:0000:00:0000:00:00
PU1XMG-162026-08-31 11:47:20-22.82250-43.1878987°55km/h5380m6.5m/s-6.2°C99.4%532.1hPa0V00:00:0000:00:0000:00:00
PU1XMG-162026-08-31 11:47:15-22.82265-43.1888286°51km/h5343m8.6m/s-6.0°C98.4%534.7hPa0V00:00:0000:00:0000:00:00
PU1XMG-162026-08-31 11:47:08-22.82260-43.1895793°53km/h5302m6.1m/s-5.7°C98.3%537.5hPa0V00:00:0000:00:0000:00:00
PU1XMG-162026-08-31 11:47:03-22.82271-43.1902569°46km/h5273m7.0m/s-5.5°C97.5%539.6hPa0V00:00:0000:00:0000:00:00
PU1XMG-162026-08-31 11:46:59-22.82285-43.1909391°57km/h5245m5.6m/s-5.5°C95.3%541.5hPa0V00:00:0000:00:0000:00:00
PU1XMG-162026-08-31 11:46:53-22.82299-43.1916966°49km/h5208m5.5m/s-5.2°C92.8%544.0hPa0V00:00:0000:00:0000:00:00
PU1XMG-162026-08-31 11:46:47-22.82320-43.1924075°51km/h5180m6.9m/s-5.0°C91.6%545.9hPa0V00:00:0000:00:0000:00:00
PU1XMG-162026-08-31 11:46:41-22.82335-43.1932193°55km/h5143m5.2m/s-4.7°C89.4%548.3hPa0V00:00:0000:00:0000:00:00
PU1XMG-162026-08-31 11:46:37-22.82345-43.1939873°60km/h5116m6.3m/s-4.4°C88.3%550.4hPa0V00:00:0000:00:0000:00:00
PU1XMG-162026-08-31 11:46:31-22.82365-43.1946964°38km/h5081m7.3m/s-4.2°C88.4%552.7hPa0V00:00:0000:00:0000:00:00
PU1XMG-162026-08-31 11:46:26-22.82392-43.1952377°40km/h5049m7.0m/s-4.0°C89.4%555.0hPa0V00:00:0000:00:0000:00:00
PU1XMG-162026-08-31 11:46:21-22.82393-43.1957487°40km/h5016m4.7m/s-3.7°C89.5%557.3hPa0V00:00:0000:00:0000:00:00
PU1XMG-162026-08-31 11:46:15-22.82402-43.1964776°47km/h4977m5.7m/s-3.5°C89.8%560.1hPa0V00:00:0000:00:0000:00:00
PU1XMG-162026-08-31 11:46:09-22.82423-43.1971887°42km/h4945m4.3m/s-3.2°C88.9%562.3hPa0V00:00:0000:00:0000:00:00
PU1XMG-162026-08-31 11:46:03-22.82437-43.1979275°60km/h4907m6.0m/s-2.9°C87.4%565.1hPa0V00:00:0000:00:0000:00:00
PU1XMG-162026-08-31 11:45:58-22.82456-43.1985778°37km/h4879m5.1m/s-2.6°C87.1%567.0hPa0V00:00:0000:00:0000:00:00
PU1XMG-162026-08-31 11:45:52-22.82473-43.1993978°58km/h4846m4.5m/s-2.4°C86.6%569.5hPa0V00:00:0000:00:0000:00:00
PU1XMG-162026-08-31 11:45:45-22.82493-43.2001582°51km/h4812m4.6m/s-2.1°C87.2%571.8hPa0V00:00:0000:00:0000:00:00
PU1XMG-162026-08-31 11:45:40-22.82510-43.2009581°58km/h4786m5.9m/s-1.9°C86.0%573.7hPa0V00:00:0000:00:0000:00:00
PU1XMG-162026-08-31 11:45:35-22.82518-43.2017481°55km/h4750m5.6m/s-1.6°C85.5%576.2hPa0V00:00:0000:00:0000:00:00
PU1XMG-162026-08-31 11:45:28-22.82534-43.2025083°42km/h4712m8.1m/s-1.3°C85.6%578.9hPa0V00:00:0000:00:0000:00:00
PU1XMG-162026-08-31 11:45:23-22.82559-43.2033575°53km/h4671m4.9m/s-1.3°C91.8%582.0hPa0V00:00:0000:00:0000:00:00
PU1XMG-162026-08-31 11:45:18-22.82569-43.2041683°62km/h4641m3.3m/s-1.1°C91.6%584.2hPa0V00:00:0000:00:0000:00:00
PU1XMG-162026-08-31 11:45:12-22.82589-43.2049073°37km/h4607m7.3m/s-0.9°C92.7%586.5hPa0V00:00:0000:00:0000:00:00
PU1XMG-162026-08-31 11:45:07-22.82600-43.2055275°58km/h4574m4.7m/s-0.9°C96.8%589.0hPa0V00:00:0000:00:0000:00:00
PU1XMG-162026-08-31 11:45:01-22.82627-43.2063570°46km/h4535m9.8m/s-0.7°C98.5%591.7hPa0V00:00:0000:00:0000:00:00
PU1XMG-162026-08-31 11:44:55-22.82638-43.2070284°46km/h4497m4.6m/s-0.4°C97.6%594.6hPa0V00:00:0000:00:0000:00:00
PU1XMG-162026-08-31 11:44:49-22.82667-43.2078867°64km/h4469m8.2m/s-0.3°C98.9%596.7hPa0V00:00:0000:00:0000:00:00
PU1XMG-162026-08-31 11:44:43-22.82681-43.2086491°40km/h4431m7.0m/s-0.0°C98.4%599.5hPa0V00:00:0000:00:0000:00:00
PU1XMG-162026-08-31 11:44:37-22.82696-43.2094164°51km/h4396m4.7m/s0.2°C98.9%602.1hPa0V00:00:0000:00:0000:00:00
PU1XMG-162026-08-31 11:44:32-22.82716-43.2102590°42km/h4361m5.5m/s0.5°C98.2%604.7hPa0V00:00:0000:00:0000:00:00
PU1XMG-162026-08-31 11:44:26-22.82733-43.2110365°53km/h4329m6.2m/s0.8°C96.7%607.2hPa0V00:00:0000:00:0000:00:00
PU1XMG-162026-08-31 11:44:20-22.82751-43.2115886°49km/h4300m5.4m/s1.1°C94.9%609.4hPa0V00:00:0000:00:0000:00:00
PU1XMG-162026-08-31 11:44:14-22.82767-43.2124067°42km/h4265m5.9m/s1.3°C96.3%612.1hPa0V00:00:0000:00:0000:00:00
PU1XMG-162026-08-31 11:44:08-22.82776-43.2131477°53km/h4228m5.3m/s1.6°C96.4%614.9hPa0V00:00:0000:00:0000:00:00
PU1XMG-162026-08-31 11:44:03-22.82803-43.2137772°42km/h4191m5.7m/s1.9°C95.6%617.6hPa0V00:00:0000:00:0000:00:00
PU1XMG-162026-08-31 11:43:58-22.82813-43.2143385°46km/h4158m8.3m/s2.1°C95.8%620.1hPa0V00:00:0000:00:0000:00:00
PU1XMG-162026-08-31 11:43:52-22.82832-43.2150671°38km/h4118m8.0m/s2.3°C98.2%623.3hPa0V00:00:0000:00:0000:00:00
PU1XMG-162026-08-31 11:43:45-22.82850-43.2157765°40km/h4081m7.6m/s2.5°C98.1%626.3hPa0V00:00:0000:00:0000:00:00
PU1XMG-162026-08-31 11:43:40-22.82855-43.2162986°35km/h4047m5.4m/s2.8°C97.2%628.9hPa0V00:00:0000:00:0000:00:00
PU1XMG-162026-08-31 11:43:34-22.82875-43.2168675°51km/h4020m7.1m/s3.0°C96.5%630.9hPa0V00:00:0000:00:0000:00:00
PU1XMG-162026-08-31 11:43:29-22.82893-43.2175760°40km/h3986m6.6m/s3.2°C97.3%633.5hPa0V00:00:0000:00:0000:00:00
PU1XMG-162026-08-31 11:43:24-22.82921-43.2180363°42km/h3961m5.9m/s3.4°C97.1%635.4hPa0V00:00:0000:00:0000:00:00
PU1XMG-162026-08-31 11:43:18-22.82940-43.2186474°27km/h3928m2.8m/s3.6°C96.4%638.1hPa0V00:00:0000:00:0000:00:00
PU1XMG-162026-08-31 11:43:11-22.82954-43.2191061°35km/h3892m5.7m/s3.8°C95.7%640.8hPa0V00:00:0000:00:0000:00:00
PU1XMG-162026-08-31 11:43:06-22.82963-43.2195488°42km/h3863m4.9m/s4.1°C95.3%643.1hPa0V00:00:0000:00:0000:00:00
PU1XMG-162026-08-31 11:43:01-22.82978-43.2200658°29km/h3826m6.1m/s4.2°C97.0%646.0hPa0V00:00:0000:00:0000:00:00
PU1XMG-162026-08-31 11:42:55-22.82989-43.2205999°27km/h3793m5.4m/s4.4°C96.2%648.7hPa0V00:00:0000:00:0000:00:00
PU1XMG-162026-08-31 11:42:49-22.82996-43.2211566°42km/h3762m4.9m/s4.6°C95.9%651.2hPa0V00:00:0000:00:0000:00:00
PU1XMG-162026-08-31 11:42:44-22.83011-43.2215497°27km/h3729m4.6m/s4.7°C97.7%653.7hPa0V00:00:0000:00:0000:00:00
PU1XMG-162026-08-31 11:42:39-22.83007-43.2218994°27km/h3703m7.9m/s4.9°C96.9%655.9hPa0V00:00:0000:00:0000:00:00
PU1XMG-162026-08-31 11:42:34-22.83003-43.22228108°18km/h3668m7.1m/s5.2°C96.6%658.7hPa0V00:00:0000:00:0000:00:00
PU1XMG-162026-08-31 11:42:28-22.83017-43.2225864°33km/h3633m3.7m/s5.5°C95.7%661.5hPa0V00:00:0000:00:0000:00:00
PU1XMG-162026-08-31 11:42:21-22.83028-43.22292105°22km/h3595m5.3m/s5.8°C94.5%664.6hPa0V00:00:0000:00:0000:00:00
PU1XMG-162026-08-31 11:42:16-22.83036-43.2233157°29km/h3566m7.3m/s6.0°C93.9%666.9hPa0V00:00:0000:00:0000:00:00
PU1XMG-162026-08-31 11:42:10-22.83042-43.2236186°9km/h3528m7.2m/s5.8°C98.9%669.9hPa0V00:00:0000:00:0000:00:00
PU1XMG-162026-08-31 11:42:05-22.83047-43.2238083°24km/h3496m5.8m/s6.1°C97.6%672.6hPa0V00:00:0000:00:0000:00:00
PU1XMG-162026-08-31 11:41:59-22.83049-43.2241885°13km/h3460m7.1m/s6.2°C98.3%675.5hPa0V00:00:0000:00:0000:00:00
PU1XMG-162026-08-31 11:41:54-22.83051-43.2244197°31km/h3427m4.6m/s6.5°C97.2%678.3hPa0V00:00:0000:00:0000:00:00
PU1XMG-162026-08-31 11:41:48-22.83055-43.22487100°27km/h3388m7.1m/s6.8°C96.6%681.3hPa0V00:00:0000:00:0000:00:00
PU1XMG-162026-08-31 11:41:36-22.83055-43.2259881°31km/h3313m5.4m/s7.3°C94.2%687.8hPa0V00:00:0000:00:0000:00:00
PU1XMG-162026-08-31 11:41:31-22.83052-43.22651100°40km/h3280m8.7m/s7.6°C92.8%690.6hPa0V00:00:0000:00:0000:00:00
PU1XMG-162026-08-31 11:41:26-22.83064-43.2271278°35km/h3232m6.8m/s8.0°C90.7%694.4hPa0V00:00:0000:00:0000:00:00
PU1XMG-162026-08-31 11:41:19-22.83071-43.2278489°51km/h3195m7.6m/s8.4°C88.4%697.4hPa0V00:00:0000:00:0000:00:00
PU1XMG-162026-08-31 11:41:14-22.83075-43.2284396°40km/h3165m7.6m/s8.7°C87.2%700.1hPa0V00:00:0000:00:0000:00:00
PU1XMG-162026-08-31 11:41:10-22.83077-43.2290387°40km/h3131m5.0m/s8.9°C87.2%703.0hPa0V00:00:0000:00:0000:00:00
PU1XMG-162026-08-31 11:41:03-22.83073-43.2297585°42km/h3090m4.6m/s9.3°C86.1%706.4hPa0V00:00:0000:00:0000:00:00
PU1XMG-162026-08-31 11:40:58-22.83073-43.23022100°40km/h3059m6.7m/s9.5°C85.2%708.9hPa0V00:00:0000:00:0000:00:00
PU1XMG-162026-08-31 11:40:53-22.83073-43.2309284°51km/h3023m5.0m/s9.8°C85.1%712.2hPa0V00:00:0000:00:0000:00:00
PU1XMG-162026-08-31 11:40:48-22.83067-43.23162108°51km/h2994m5.3m/s10.0°C84.9%714.5hPa0V00:00:0000:00:0000:00:00
PU1XMG-162026-08-31 11:40:42-22.83051-43.23244102°44km/h2951m8.8m/s10.1°C85.4%718.2hPa0V00:00:0000:00:0000:00:00
PU1XMG-162026-08-31 11:40:36-22.83051-43.2330292°44km/h2916m5.8m/s10.3°C84.4%721.4hPa0V00:00:0000:00:0000:00:00
PU1XMG-162026-08-31 11:40:31-22.83045-43.23380108°40km/h2873m6.0m/s10.7°C82.6%725.0hPa0V00:00:0000:00:0000:00:00
PU1XMG-162026-08-31 11:40:25-22.83028-43.23435101°42km/h2838m4.6m/s11.0°C81.9%728.1hPa0V00:00:0000:00:0000:00:00
PU1XMG-162026-08-31 11:40:21-22.83014-43.23495120°46km/h2803m6.4m/s11.3°C80.6%731.0hPa0V00:00:0000:00:0000:00:00
PU1XMG-162026-08-31 11:40:15-22.82994-43.2357298°58km/h2766m6.2m/s11.5°C80.3%734.3hPa0V00:00:0000:00:0000:00:00
PU1XMG-162026-08-31 11:40:09-22.82984-43.23648101°40km/h2721m8.8m/s11.8°C79.2%738.3hPa0V00:00:0000:00:0000:00:00
PU1XMG-162026-08-31 11:40:03-22.82981-43.23720107°46km/h2680m6.9m/s12.1°C78.4%742.0hPa0V00:00:0000:00:0000:00:00
PU1XMG-162026-08-31 11:39:57-22.82951-43.23802105°49km/h2642m7.6m/s12.3°C77.4%745.3hPa0V00:00:0000:00:0000:00:00
PU1XMG-162026-08-31 11:39:50-22.82948-43.23869103°44km/h2600m5.5m/s12.6°C75.8%749.0hPa0V00:00:0000:00:0000:00:00
PU1XMG-162026-08-31 11:39:45-22.82932-43.23921108°44km/h2566m7.4m/s12.7°C72.9%751.8hPa0V00:00:0000:00:0000:00:00
PU1XMG-162026-08-31 11:39:39-22.82927-43.2399689°42km/h2530m6.8m/s13.0°C71.0%755.3hPa0V00:00:0000:00:0000:00:00
PU1XMG-162026-08-31 11:39:34-22.82917-43.24048104°37km/h2497m10.9m/s13.2°C69.8%758.1hPa0V00:00:0000:00:0000:00:00
PU1XMG-162026-08-31 11:39:29-22.82910-43.24093123°27km/h2452m7.7m/s13.6°C68.2%762.1hPa0V00:00:0000:00:0000:00:00
PU1XMG-162026-08-31 11:39:19-22.82888-43.24179106°38km/h2392m4.8m/s13.4°C72.1%767.6hPa0V00:00:0000:00:0000:00:00
PU1XMG-162026-08-31 11:39:13-22.82873-43.2422597°31km/h2360m6.6m/s13.7°C71.2%770.4hPa0V00:00:0000:00:0000:00:00
PU1XMG-162026-08-31 11:39:07-22.82850-43.24268136°35km/h2321m5.4m/s14.0°C70.4%774.0hPa0V00:00:0000:00:0000:00:00
PU1XMG-162026-08-31 11:39:02-22.82816-43.24313117°44km/h2288m5.4m/s14.3°C69.8%777.1hPa0V00:00:0000:00:0000:00:00
PU1XMG-162026-08-31 11:38:56-22.82793-43.24365121°33km/h2249m5.5m/s14.6°C69.1%780.8hPa0V00:00:0000:00:0000:00:00
PU1XMG-162026-08-31 11:38:51-22.82773-43.24415125°38km/h2216m7.1m/s14.9°C67.9%783.7hPa0V00:00:0000:00:0000:00:00
PU1XMG-162026-08-31 11:38:45-22.82758-43.2445596°33km/h2185m4.9m/s15.2°C67.4%786.6hPa0V00:00:0000:00:0000:00:00
PU1XMG-162026-08-31 11:38:41-22.82749-43.24489136°24km/h2154m6.4m/s15.3°C67.4%789.6hPa0V00:00:0000:00:0000:00:00
PU1XMG-162026-08-31 11:38:35-22.82720-43.24531124°40km/h2117m4.7m/s15.6°C66.4%793.1hPa0V00:00:0000:00:0000:00:00
PU1XMG-162026-08-31 11:38:29-22.82690-43.24583114°44km/h2079m5.0m/s16.0°C65.1%796.5hPa0V00:00:0000:00:0000:00:00
PU1XMG-162026-08-31 11:38:23-22.82664-43.24628125°31km/h2049m5.5m/s16.3°C64.2%799.3hPa0V00:00:0000:00:0000:00:00
PU1XMG-162026-08-31 11:38:18-22.82642-43.24679109°46km/h2014m8.5m/s16.6°C63.3%802.4hPa0V00:00:0000:00:0000:00:00
PU1XMG-162026-08-31 11:38:12-22.82619-43.24730134°35km/h1977m6.1m/s16.8°C62.9%806.1hPa0V00:00:0000:00:0000:00:00
PU1XMG-162026-08-31 11:38:07-22.82592-43.24780118°27km/h1942m5.5m/s17.1°C61.7%809.2hPa0V00:00:0000:00:0000:00:00
PU1XMG-162026-08-31 11:38:02-22.82564-43.24817127°40km/h1909m7.8m/s17.5°C60.7%812.3hPa0V00:00:0000:00:0000:00:00
PU1XMG-162026-08-31 11:37:56-22.82526-43.24857146°44km/h1869m5.9m/s17.8°C59.4%816.2hPa0V00:00:0000:00:0000:00:00
PU1XMG-162026-08-31 11:37:50-22.82492-43.24900131°33km/h1839m6.0m/s18.1°C58.6%819.1hPa0V00:00:0000:00:0000:00:00
PU1XMG-162026-08-31 11:37:45-22.82457-43.24940119°35km/h1805m5.2m/s18.3°C58.3%822.3hPa0V00:00:0000:00:0000:00:00
PU1XMG-162026-08-31 11:37:38-22.82423-43.24979143°47km/h1770m4.8m/s18.5°C58.0%825.7hPa0V00:00:0000:00:0000:00:00
PU1XMG-162026-08-31 11:37:33-22.82374-43.25023146°38km/h1733m8.8m/s18.7°C57.8%829.3hPa0V00:00:0000:00:0000:00:00
PU1XMG-162026-08-31 11:37:27-22.82337-43.25059135°31km/h1697m5.0m/s18.8°C58.7%832.7hPa0V00:00:0000:00:0000:00:00
PU1XMG-162026-08-31 11:37:21-22.82294-43.25095147°35km/h1655m6.7m/s19.0°C58.9%836.8hPa0V00:00:0000:00:0000:00:00
PU1XMG-162026-08-31 11:37:16-22.82245-43.25116154°49km/h1624m6.4m/s18.9°C61.0%839.8hPa0V00:00:0000:00:0000:00:00
PU1XMG-162026-08-31 11:37:10-22.82193-43.25150157°31km/h1591m5.6m/s18.7°C64.7%843.0hPa0V00:00:0000:00:0000:00:00
PU1XMG-162026-08-31 11:37:05-22.82155-43.25167168°29km/h1559m6.7m/s18.8°C64.9%846.3hPa0V00:00:0000:00:0000:00:00
PU1XMG-162026-08-31 11:37:01-22.82113-43.25184152°44km/h1536m4.2m/s19.0°C64.5%848.6hPa0V00:00:0000:00:0000:00:00
PU1XMG-162026-08-31 11:36:56-22.82067-43.25203172°29km/h1508m6.1m/s19.0°C66.7%851.4hPa0V00:00:0000:00:0000:00:00
PU1XMG-162026-08-31 11:36:49-22.82025-43.25224149°27km/h1471m6.8m/s19.0°C67.8%854.9hPa0V00:00:0000:00:0000:00:00
PU1XMG-162026-08-31 11:36:44-22.81990-43.25236173°20km/h1438m7.3m/s19.2°C67.5%858.2hPa0V00:00:0000:00:0000:00:00
PU1XMG-162026-08-31 11:36:39-22.81962-43.25242167°33km/h1409m5.9m/s19.4°C68.4%861.0hPa0V00:00:0000:00:0000:00:00
PU1XMG-162026-08-31 11:36:34-22.81921-43.25260163°31km/h1384m5.5m/s19.5°C68.6%863.6hPa0V00:00:0000:00:0000:00:00
PU1XMG-162026-08-31 11:36:28-22.81892-43.25266153°24km/h1351m5.0m/s19.6°C68.9%866.9hPa0V00:00:0000:00:0000:00:00
PU1XMG-162026-08-31 11:36:23-22.81860-43.25272187°18km/h1327m5.4m/s19.9°C68.5%869.5hPa0V00:00:0000:00:0000:00:00
PU1XMG-162026-08-31 11:36:18-22.81840-43.25277185°20km/h1299m6.3m/s20.1°C68.1%872.4hPa0V00:00:0000:00:0000:00:00
PU1XMG-162026-08-31 11:36:12-22.81809-43.25273167°24km/h1265m5.0m/s20.3°C68.2%875.7hPa0V00:00:0000:00:0000:00:00
PU1XMG-162026-08-31 11:36:06-22.81772-43.25273175°16km/h1233m2.8m/s20.4°C67.8%878.8hPa0V00:00:0000:00:0000:00:00
PU1XMG-162026-08-31 11:36:00-22.81742-43.25286183°26km/h1203m4.2m/s20.6°C68.0%882.0hPa0V00:00:0000:00:0000:00:00
PU1XMG-162026-08-31 11:35:49-22.81652-43.25303182°47km/h1148m3.4m/s21.0°C67.7%887.5hPa0V00:00:0000:00:0000:00:00
PU1XMG-162026-08-31 11:35:43-22.81593-43.25290198°26km/h1116m6.7m/s21.1°C67.9%890.9hPa0V00:00:0000:00:0000:00:00
PU1XMG-162026-08-31 11:35:38-22.81547-43.25293168°37km/h1088m6.8m/s21.3°C67.2%893.7hPa0V00:00:0000:00:0000:00:00
PU1XMG-162026-08-31 11:35:34-22.81503-43.25288194°44km/h1063m4.5m/s21.4°C68.2%896.2hPa0V00:00:0000:00:0000:00:00
PU1XMG-162026-08-31 11:35:27-22.81448-43.25283195°33km/h1033m5.5m/s21.7°C67.4%899.3hPa0V00:00:0000:00:0000:00:00
PU1XMG-162026-08-31 11:35:23-22.81398-43.25278182°37km/h1009m4.1m/s21.8°C67.0%901.8hPa0V00:00:0000:00:0000:00:00
PU1XMG-162026-08-31 11:35:18-22.81355-43.25271180°38km/h986m4.5m/s22.1°C66.3%904.1hPa0V00:00:0000:00:0000:00:00
PU1XMG-162026-08-31 11:35:12-22.81313-43.25266197°42km/h960m4.7m/s22.1°C67.0%907.1hPa0V00:00:0000:00:0000:00:00
PU1XMG-162026-08-31 11:35:07-22.81248-43.25262180°38km/h935m6.5m/s22.2°C67.6%909.5hPa0V00:00:0000:00:0000:00:00
PU1XMG-162026-08-31 11:35:02-22.81190-43.25262183°42km/h910m3.8m/s21.7°C70.8%912.1hPa0V00:00:0000:00:0000:00:00
PU1XMG-162026-08-31 11:34:55-22.81127-43.25252189°35km/h884m5.2m/s20.6°C77.9%914.7hPa0V00:00:0000:00:0000:00:00
PU1XMG-162026-08-31 11:34:51-22.81087-43.25247178°37km/h859m5.8m/s21.4°C73.4%917.5hPa0V00:00:0000:00:0000:00:00
PU1XMG-162026-08-31 11:34:44-22.81021-43.25254183°46km/h831m5.1m/s21.2°C75.0%920.4hPa0V00:00:0000:00:0000:00:00
PU1XMG-162026-08-31 11:34:39-22.80966-43.25242195°42km/h810m4.0m/s21.7°C72.7%922.7hPa0V00:00:0000:00:0000:00:00
PU1XMG-162026-08-31 11:34:33-22.80926-43.25228186°27km/h782m6.9m/s22.0°C71.8%925.8hPa0V00:00:0000:00:0000:00:00
PU1XMG-162026-08-31 11:34:29-22.80882-43.25218192°33km/h752m6.6m/s22.1°C71.7%928.4hPa0V00:00:0000:00:0000:00:00
PU1XMG-162026-08-31 11:34:22-22.80844-43.25219195°24km/h718m5.8m/s0°C0%932.2hPa0V00:00:0000:00:0000:00:00
PU1XMG-162026-08-31 11:34:16-22.80800-43.25219188°20km/h690m5.3m/s0°C0%935.6hPa0V00:00:0000:00:0000:00:00
PU1XMG-162026-08-31 11:34:10-22.80764-43.25217168°20km/h661m6.0m/s0°C0%938.5hPa0V00:00:0000:00:0000:00:00
PU1XMG-162026-08-31 11:34:04-22.80732-43.25212159°22km/h625m4.8m/s0°C0%0hPa0V00:00:0000:00:0000:00:00
PU1XMG-162026-08-31 11:33:59-22.80717-43.25219219°13km/h600m5.1m/s0°C0%0hPa0V00:00:0000:00:0000:00:00
PU1XMG-162026-08-31 11:33:53-22.80693-43.25212159°16km/h573m7.1m/s0°C0%0hPa0V00:00:0000:00:0000:00:00
PU1XMG-162026-08-31 11:33:49-22.80680-43.25213191°16km/h547m6.3m/s0°C0%0hPa0V00:00:0000:00:0000:00:00
PU1XMG-162026-08-31 11:33:42-22.80661-43.25207238°13km/h511m7.5m/s0°C0%0hPa0V00:00:0000:00:0000:00:00
PU1XMG-162026-08-31 11:33:37-22.80644-43.25187261°16km/h470m5.5m/s0°C0%0hPa0V00:00:0000:00:0000:00:00
PU1XMG-162026-08-31 11:33:14-22.80683-43.25105298°33km/h327m4.6m/s0°C0%0hPa0V00:00:0000:00:0000:00:00
PU1XMG-162026-08-31 11:33:06-22.80703-43.2507710°11km/h284m2.8m/s0°C0%0hPa0V00:00:0000:00:0000:00:00


GPX KML Map

© wettersonde.net (DO2JMG) - 2026  -  -